<?xml version="1.0" encoding="UTF-8" standalone="no" ?>
<gpx xmlns="http://www.topografix.com/GPX/1/1" xmlns:xsi="http://www.w3.org/2001/XMLSchema-instance" xsi:schemaLocation="http://www.topografix.com/GPX/1/1 http://www.topografix.com/GPX/1/1/gpx.xsd" version="1.1" creator="VisuGPX - https://www.visugpx.com">
  <metadata>
    <name>parcours découverte à Seillon</name>
    <desc><![CDATA[Une ballade où nous nous sommes engouffrés dans tout ce qui pouvait ressembler à une piste. Au final, beaucoup de chance avec la découverte de plusieurs singles praticables: à utiliser pour qu'ils le restent! Du coup, un parcours un peu fouillis au départ, à adapter à l'envie]]></desc>
  </metadata>
  <trk>
    <name><![CDATA[20180415142816-Koq4N]]></name>
    <trkseg>
      <trkpt lat="43.50357" lon="5.88669">
        <ele>308</ele>
      </trkpt>
      <trkpt lat="43.50363" lon="5.88659">
        <ele>310</ele>
      </trkpt>
      <trkpt lat="43.50426" lon="5.88611">
        <ele>317</ele>
      </trkpt>
      <trkpt lat="43.5049" lon="5.8857">
        <ele>318</ele>
      </trkpt>
      <trkpt lat="43.50522" lon="5.88544">
        <ele>322</ele>
      </trkpt>
      <trkpt lat="43.50583" lon="5.8847">
        <ele>326</ele>
      </trkpt>
      <trkpt lat="43.50637" lon="5.88449">
        <ele>324</ele>
      </trkpt>
      <trkpt lat="43.50668" lon="5.88436">
        <ele>325</ele>
      </trkpt>
      <trkpt lat="43.50694" lon="5.88399">
        <ele>327</ele>
      </trkpt>
      <trkpt lat="43.50719" lon="5.88363">
        <ele>329</ele>
      </trkpt>
      <trkpt lat="43.50733" lon="5.88333">
        <ele>332</ele>
      </trkpt>
      <trkpt lat="43.5074" lon="5.88316">
        <ele>333</ele>
      </trkpt>
      <trkpt lat="43.50743" lon="5.88308">
        <ele>334</ele>
      </trkpt>
      <trkpt lat="43.50751" lon="5.88302">
        <ele>333</ele>
      </trkpt>
      <trkpt lat="43.50763" lon="5.88293">
        <ele>335</ele>
      </trkpt>
      <trkpt lat="43.50778" lon="5.88288">
        <ele>335</ele>
      </trkpt>
      <trkpt lat="43.50788" lon="5.88292">
        <ele>335</ele>
      </trkpt>
      <trkpt lat="43.50805" lon="5.88294">
        <ele>336</ele>
      </trkpt>
      <trkpt lat="43.50821" lon="5.88312">
        <ele>334</ele>
      </trkpt>
      <trkpt lat="43.50824" lon="5.88379">
        <ele>329</ele>
      </trkpt>
      <trkpt lat="43.50831" lon="5.884">
        <ele>329</ele>
      </trkpt>
      <trkpt lat="43.5085" lon="5.88424">
        <ele>334</ele>
        <time>2018-04-15T06:35:34Z</time>
      </trkpt>
      <trkpt lat="43.50867" lon="5.88432">
        <ele>336</ele>
        <time>2018-04-15T06:35:46Z</time>
      </trkpt>
      <trkpt lat="43.50883" lon="5.88443">
        <ele>337</ele>
        <time>2018-04-15T06:35:58Z</time>
      </trkpt>
      <trkpt lat="43.50899" lon="5.88458">
        <ele>338</ele>
        <time>2018-04-15T06:36:07Z</time>
      </trkpt>
      <trkpt lat="43.50913" lon="5.88473">
        <ele>340</ele>
        <time>2018-04-15T06:36:17Z</time>
      </trkpt>
      <trkpt lat="43.50932" lon="5.88482">
        <ele>341</ele>
        <time>2018-04-15T06:36:27Z</time>
      </trkpt>
      <trkpt lat="43.5095" lon="5.88489">
        <ele>341</ele>
        <time>2018-04-15T06:36:33Z</time>
      </trkpt>
      <trkpt lat="43.50969" lon="5.8849">
        <ele>341</ele>
        <time>2018-04-15T06:36:40Z</time>
      </trkpt>
      <trkpt lat="43.50987" lon="5.88487">
        <ele>341</ele>
        <time>2018-04-15T06:36:49Z</time>
      </trkpt>
      <trkpt lat="43.51008" lon="5.88487">
        <ele>343</ele>
        <time>2018-04-15T06:37:02Z</time>
      </trkpt>
      <trkpt lat="43.51026" lon="5.88498">
        <ele>345</ele>
        <time>2018-04-15T06:37:12Z</time>
      </trkpt>
      <trkpt lat="43.51043" lon="5.8851">
        <ele>349</ele>
        <time>2018-04-15T06:37:22Z</time>
      </trkpt>
      <trkpt lat="43.51059" lon="5.88526">
        <ele>350</ele>
        <time>2018-04-15T06:37:30Z</time>
      </trkpt>
      <trkpt lat="43.5107" lon="5.88546">
        <ele>351</ele>
        <time>2018-04-15T06:37:40Z</time>
      </trkpt>
      <trkpt lat="43.5108" lon="5.8857">
        <ele>352</ele>
        <time>2018-04-15T06:37:50Z</time>
      </trkpt>
      <trkpt lat="43.51092" lon="5.8859">
        <ele>354</ele>
        <time>2018-04-15T06:37:57Z</time>
      </trkpt>
      <trkpt lat="43.51099" lon="5.88613">
        <ele>357</ele>
        <time>2018-04-15T06:38:04Z</time>
      </trkpt>
      <trkpt lat="43.51103" lon="5.88637">
        <ele>358</ele>
        <time>2018-04-15T06:38:16Z</time>
      </trkpt>
      <trkpt lat="43.51119" lon="5.88648">
        <ele>358</ele>
        <time>2018-04-15T06:38:25Z</time>
      </trkpt>
      <trkpt lat="43.51128" lon="5.8867">
        <ele>361</ele>
        <time>2018-04-15T06:38:36Z</time>
      </trkpt>
      <trkpt lat="43.51143" lon="5.88685">
        <ele>361</ele>
        <time>2018-04-15T06:38:48Z</time>
      </trkpt>
      <trkpt lat="43.51161" lon="5.88692">
        <ele>361</ele>
        <time>2018-04-15T06:38:57Z</time>
      </trkpt>
      <trkpt lat="43.51181" lon="5.88698">
        <ele>360</ele>
        <time>2018-04-15T06:39:05Z</time>
      </trkpt>
      <trkpt lat="43.51201" lon="5.88704">
        <ele>360</ele>
        <time>2018-04-15T06:39:09Z</time>
      </trkpt>
      <trkpt lat="43.51219" lon="5.88708">
        <ele>360</ele>
        <time>2018-04-15T06:39:18Z</time>
      </trkpt>
      <trkpt lat="43.51237" lon="5.88718">
        <ele>360</ele>
        <time>2018-04-15T06:39:31Z</time>
      </trkpt>
      <trkpt lat="43.51255" lon="5.88727">
        <ele>362</ele>
        <time>2018-04-15T06:39:44Z</time>
      </trkpt>
      <trkpt lat="43.51265" lon="5.88748">
        <ele>361</ele>
        <time>2018-04-15T06:39:57Z</time>
      </trkpt>
      <trkpt lat="43.5127" lon="5.88772">
        <ele>363</ele>
        <time>2018-04-15T06:40:09Z</time>
      </trkpt>
      <trkpt lat="43.51284" lon="5.88791">
        <ele>365</ele>
        <time>2018-04-15T06:40:16Z</time>
      </trkpt>
      <trkpt lat="43.51298" lon="5.8881">
        <ele>365</ele>
        <time>2018-04-15T06:40:30Z</time>
      </trkpt>
      <trkpt lat="43.51307" lon="5.88834">
        <ele>369</ele>
        <time>2018-04-15T06:40:46Z</time>
      </trkpt>
      <trkpt lat="43.51313" lon="5.88858">
        <ele>370</ele>
        <time>2018-04-15T06:41:00Z</time>
      </trkpt>
      <trkpt lat="43.51323" lon="5.8888">
        <ele>372</ele>
        <time>2018-04-15T06:41:07Z</time>
      </trkpt>
      <trkpt lat="43.51327" lon="5.88905">
        <ele>373</ele>
        <time>2018-04-15T06:41:19Z</time>
      </trkpt>
      <trkpt lat="43.51335" lon="5.88929">
        <ele>376</ele>
        <time>2018-04-15T06:41:30Z</time>
      </trkpt>
      <trkpt lat="43.5133" lon="5.88954">
        <ele>380</ele>
        <time>2018-04-15T06:41:42Z</time>
      </trkpt>
      <trkpt lat="43.51332" lon="5.88979">
        <ele>382</ele>
        <time>2018-04-15T06:41:55Z</time>
      </trkpt>
      <trkpt lat="43.51319" lon="5.88998">
        <ele>383</ele>
        <time>2018-04-15T06:42:05Z</time>
      </trkpt>
      <trkpt lat="43.51308" lon="5.89021">
        <ele>387</ele>
        <time>2018-04-15T06:42:19Z</time>
      </trkpt>
      <trkpt lat="43.51294" lon="5.8904">
        <ele>388</ele>
        <time>2018-04-15T06:42:34Z</time>
      </trkpt>
      <trkpt lat="43.51277" lon="5.89056">
        <ele>388</ele>
        <time>2018-04-15T06:42:42Z</time>
      </trkpt>
      <trkpt lat="43.51263" lon="5.89072">
        <ele>389</ele>
        <time>2018-04-15T06:42:54Z</time>
      </trkpt>
      <trkpt lat="43.51253" lon="5.89093">
        <ele>392</ele>
        <time>2018-04-15T06:43:12Z</time>
      </trkpt>
      <trkpt lat="43.51243" lon="5.89115">
        <ele>393</ele>
        <time>2018-04-15T06:43:31Z</time>
      </trkpt>
      <trkpt lat="43.51227" lon="5.89128">
        <ele>394</ele>
        <time>2018-04-15T06:43:39Z</time>
      </trkpt>
      <trkpt lat="43.51209" lon="5.89135">
        <ele>394</ele>
        <time>2018-04-15T06:43:46Z</time>
      </trkpt>
      <trkpt lat="43.51192" lon="5.89145">
        <ele>394</ele>
        <time>2018-04-15T06:43:54Z</time>
      </trkpt>
      <trkpt lat="43.51174" lon="5.89157">
        <ele>395</ele>
        <time>2018-04-15T06:44:03Z</time>
      </trkpt>
      <trkpt lat="43.51168" lon="5.89181">
        <ele>397</ele>
        <time>2018-04-15T06:44:21Z</time>
      </trkpt>
      <trkpt lat="43.51157" lon="5.89202">
        <ele>399</ele>
        <time>2018-04-15T06:44:33Z</time>
      </trkpt>
      <trkpt lat="43.51141" lon="5.89222">
        <ele>400</ele>
        <time>2018-04-15T06:44:40Z</time>
      </trkpt>
      <trkpt lat="43.51128" lon="5.8924">
        <ele>400</ele>
        <time>2018-04-15T06:44:49Z</time>
      </trkpt>
      <trkpt lat="43.51115" lon="5.89258">
        <ele>403</ele>
        <time>2018-04-15T06:44:58Z</time>
      </trkpt>
      <trkpt lat="43.51094" lon="5.89267">
        <ele>403</ele>
        <time>2018-04-15T06:45:05Z</time>
      </trkpt>
      <trkpt lat="43.51109" lon="5.89283">
        <ele>404</ele>
        <time>2018-04-15T06:45:22Z</time>
      </trkpt>
      <trkpt lat="43.51127" lon="5.89293">
        <ele>404</ele>
        <time>2018-04-15T06:45:31Z</time>
      </trkpt>
      <trkpt lat="43.51147" lon="5.89298">
        <ele>404</ele>
        <time>2018-04-15T06:45:39Z</time>
      </trkpt>
      <trkpt lat="43.51166" lon="5.89306">
        <ele>405</ele>
        <time>2018-04-15T06:45:45Z</time>
      </trkpt>
      <trkpt lat="43.51185" lon="5.89306">
        <ele>405</ele>
        <time>2018-04-15T06:45:55Z</time>
      </trkpt>
      <trkpt lat="43.512" lon="5.89322">
        <ele>406</ele>
        <time>2018-04-15T06:46:13Z</time>
      </trkpt>
      <trkpt lat="43.51215" lon="5.89337">
        <ele>408</ele>
        <time>2018-04-15T06:46:28Z</time>
      </trkpt>
      <trkpt lat="43.51231" lon="5.89354">
        <ele>408</ele>
        <time>2018-04-15T06:46:36Z</time>
      </trkpt>
      <trkpt lat="43.51241" lon="5.89375">
        <ele>409</ele>
        <time>2018-04-15T06:46:45Z</time>
      </trkpt>
      <trkpt lat="43.51252" lon="5.89395">
        <ele>411</ele>
        <time>2018-04-15T06:46:56Z</time>
      </trkpt>
      <trkpt lat="43.5127" lon="5.8941">
        <ele>411</ele>
        <time>2018-04-15T06:47:04Z</time>
      </trkpt>
      <trkpt lat="43.51288" lon="5.89423">
        <ele>412</ele>
        <time>2018-04-15T06:47:08Z</time>
      </trkpt>
      <trkpt lat="43.51308" lon="5.89428">
        <ele>412</ele>
        <time>2018-04-15T06:47:14Z</time>
      </trkpt>
      <trkpt lat="43.51327" lon="5.8943">
        <ele>412</ele>
        <time>2018-04-15T06:47:20Z</time>
      </trkpt>
      <trkpt lat="43.51348" lon="5.89431">
        <ele>411</ele>
        <time>2018-04-15T06:47:27Z</time>
      </trkpt>
      <trkpt lat="43.51368" lon="5.89435">
        <ele>411</ele>
        <time>2018-04-15T06:47:34Z</time>
      </trkpt>
      <trkpt lat="43.51384" lon="5.89445">
        <ele>410</ele>
        <time>2018-04-15T06:47:40Z</time>
      </trkpt>
      <trkpt lat="43.51405" lon="5.89454">
        <ele>410</ele>
        <time>2018-04-15T06:51:12Z</time>
      </trkpt>
      <trkpt lat="43.51419" lon="5.89474">
        <ele>407</ele>
        <time>2018-04-15T06:53:37Z</time>
      </trkpt>
      <trkpt lat="43.51438" lon="5.89488">
        <ele>406</ele>
        <time>2018-04-15T06:53:43Z</time>
      </trkpt>
      <trkpt lat="43.51459" lon="5.89496">
        <ele>406</ele>
        <time>2018-04-15T06:53:48Z</time>
      </trkpt>
      <trkpt lat="43.51478" lon="5.89503">
        <ele>402</ele>
        <time>2018-04-15T06:53:53Z</time>
      </trkpt>
      <trkpt lat="43.51498" lon="5.89511">
        <ele>402</ele>
        <time>2018-04-15T06:53:59Z</time>
      </trkpt>
      <trkpt lat="43.51517" lon="5.89519">
        <ele>400</ele>
        <time>2018-04-15T06:54:05Z</time>
      </trkpt>
      <trkpt lat="43.51534" lon="5.89529">
        <ele>399</ele>
        <time>2018-04-15T06:54:14Z</time>
      </trkpt>
      <trkpt lat="43.51549" lon="5.89545">
        <ele>399</ele>
        <time>2018-04-15T06:54:22Z</time>
      </trkpt>
      <trkpt lat="43.51559" lon="5.89567">
        <ele>398</ele>
        <time>2018-04-15T06:54:28Z</time>
      </trkpt>
      <trkpt lat="43.51569" lon="5.8959">
        <ele>395</ele>
        <time>2018-04-15T06:54:33Z</time>
      </trkpt>
      <trkpt lat="43.51582" lon="5.89612">
        <ele>394</ele>
        <time>2018-04-15T06:54:37Z</time>
      </trkpt>
      <trkpt lat="43.51591" lon="5.89634">
        <ele>394</ele>
        <time>2018-04-15T06:54:43Z</time>
      </trkpt>
      <trkpt lat="43.5161" lon="5.89646">
        <ele>394</ele>
        <time>2018-04-15T06:54:53Z</time>
      </trkpt>
      <trkpt lat="43.51628" lon="5.89651">
        <ele>394</ele>
        <time>2018-04-15T06:55:00Z</time>
      </trkpt>
      <trkpt lat="43.51647" lon="5.89651">
        <ele>394</ele>
        <time>2018-04-15T06:55:09Z</time>
      </trkpt>
      <trkpt lat="43.51666" lon="5.89654">
        <ele>394</ele>
        <time>2018-04-15T06:55:15Z</time>
      </trkpt>
      <trkpt lat="43.51686" lon="5.89656">
        <ele>394</ele>
        <time>2018-04-15T06:55:21Z</time>
      </trkpt>
      <trkpt lat="43.51705" lon="5.8966">
        <ele>394</ele>
        <time>2018-04-15T06:55:27Z</time>
      </trkpt>
      <trkpt lat="43.51724" lon="5.89666">
        <ele>393</ele>
        <time>2018-04-15T06:55:33Z</time>
      </trkpt>
      <trkpt lat="43.51738" lon="5.89683">
        <ele>392</ele>
        <time>2018-04-15T06:55:41Z</time>
      </trkpt>
      <trkpt lat="43.51753" lon="5.89704">
        <ele>390</ele>
        <time>2018-04-15T06:55:47Z</time>
      </trkpt>
      <trkpt lat="43.51778" lon="5.89722">
        <ele>390</ele>
        <time>2018-04-15T06:55:50Z</time>
      </trkpt>
      <trkpt lat="43.51795" lon="5.89733">
        <ele>389</ele>
        <time>2018-04-15T06:55:53Z</time>
      </trkpt>
      <trkpt lat="43.51814" lon="5.89741">
        <ele>389</ele>
        <time>2018-04-15T06:55:57Z</time>
      </trkpt>
      <trkpt lat="43.51824" lon="5.89762">
        <ele>386</ele>
        <time>2018-04-15T06:56:02Z</time>
      </trkpt>
      <trkpt lat="43.51828" lon="5.89786">
        <ele>385</ele>
        <time>2018-04-15T06:56:06Z</time>
      </trkpt>
      <trkpt lat="43.51823" lon="5.89815">
        <ele>384</ele>
        <time>2018-04-15T06:56:11Z</time>
      </trkpt>
      <trkpt lat="43.51824" lon="5.89842">
        <ele>381</ele>
        <time>2018-04-15T06:56:17Z</time>
      </trkpt>
      <trkpt lat="43.51827" lon="5.89871">
        <ele>381</ele>
        <time>2018-04-15T06:56:22Z</time>
      </trkpt>
      <trkpt lat="43.51844" lon="5.8988">
        <ele>379</ele>
        <time>2018-04-15T06:56:27Z</time>
      </trkpt>
      <trkpt lat="43.51858" lon="5.89899">
        <ele>379</ele>
        <time>2018-04-15T06:56:37Z</time>
      </trkpt>
      <trkpt lat="43.51876" lon="5.89907">
        <ele>379</ele>
        <time>2018-04-15T06:56:43Z</time>
      </trkpt>
      <trkpt lat="43.51896" lon="5.89909">
        <ele>379</ele>
        <time>2018-04-15T06:56:50Z</time>
      </trkpt>
      <trkpt lat="43.51914" lon="5.89901">
        <ele>378</ele>
        <time>2018-04-15T06:56:55Z</time>
      </trkpt>
      <trkpt lat="43.51932" lon="5.89899">
        <ele>377</ele>
        <time>2018-04-15T06:57:03Z</time>
      </trkpt>
      <trkpt lat="43.51944" lon="5.89919">
        <ele>379</ele>
        <time>2018-04-15T06:57:15Z</time>
      </trkpt>
      <trkpt lat="43.51954" lon="5.89942">
        <ele>379</ele>
        <time>2018-04-15T06:57:34Z</time>
      </trkpt>
      <trkpt lat="43.51944" lon="5.89919">
        <ele>379</ele>
        <time>2018-04-15T06:58:18Z</time>
      </trkpt>
      <trkpt lat="43.5193" lon="5.89902">
        <ele>377</ele>
        <time>2018-04-15T06:58:28Z</time>
      </trkpt>
      <trkpt lat="43.51913" lon="5.8991">
        <ele>378</ele>
        <time>2018-04-15T06:58:37Z</time>
      </trkpt>
      <trkpt lat="43.51896" lon="5.89919">
        <ele>379</ele>
        <time>2018-04-15T06:58:46Z</time>
      </trkpt>
      <trkpt lat="43.51877" lon="5.89915">
        <ele>379</ele>
        <time>2018-04-15T06:58:54Z</time>
      </trkpt>
      <trkpt lat="43.51861" lon="5.89898">
        <ele>379</ele>
        <time>2018-04-15T06:59:03Z</time>
      </trkpt>
      <trkpt lat="43.51844" lon="5.89891">
        <ele>379</ele>
        <time>2018-04-15T06:59:14Z</time>
      </trkpt>
      <trkpt lat="43.51833" lon="5.89871">
        <ele>381</ele>
        <time>2018-04-15T06:59:27Z</time>
      </trkpt>
      <trkpt lat="43.51823" lon="5.89847">
        <ele>382</ele>
        <time>2018-04-15T06:59:38Z</time>
      </trkpt>
      <trkpt lat="43.51824" lon="5.8982">
        <ele>383</ele>
        <time>2018-04-15T06:59:49Z</time>
      </trkpt>
      <trkpt lat="43.5183" lon="5.89796">
        <ele>385</ele>
        <time>2018-04-15T06:59:58Z</time>
      </trkpt>
      <trkpt lat="43.51828" lon="5.89769">
        <ele>386</ele>
        <time>2018-04-15T07:00:11Z</time>
      </trkpt>
      <trkpt lat="43.51815" lon="5.89751">
        <ele>386</ele>
        <time>2018-04-15T07:00:19Z</time>
      </trkpt>
      <trkpt lat="43.51798" lon="5.89738">
        <ele>389</ele>
        <time>2018-04-15T07:00:29Z</time>
      </trkpt>
      <trkpt lat="43.5178" lon="5.89727">
        <ele>390</ele>
        <time>2018-04-15T07:00:38Z</time>
      </trkpt>
      <trkpt lat="43.51766" lon="5.89711">
        <ele>390</ele>
        <time>2018-04-15T07:00:48Z</time>
      </trkpt>
      <trkpt lat="43.51784" lon="5.89701">
        <ele>390</ele>
        <time>2018-04-15T07:01:01Z</time>
      </trkpt>
      <trkpt lat="43.51802" lon="5.89699">
        <ele>390</ele>
        <time>2018-04-15T07:01:07Z</time>
      </trkpt>
      <trkpt lat="43.51821" lon="5.89698">
        <ele>390</ele>
        <time>2018-04-15T07:01:12Z</time>
      </trkpt>
      <trkpt lat="43.51839" lon="5.89696">
        <ele>389</ele>
        <time>2018-04-15T07:01:17Z</time>
      </trkpt>
      <trkpt lat="43.51858" lon="5.89692">
        <ele>389</ele>
        <time>2018-04-15T07:01:22Z</time>
      </trkpt>
      <trkpt lat="43.51877" lon="5.89688">
        <ele>389</ele>
        <time>2018-04-15T07:01:27Z</time>
      </trkpt>
      <trkpt lat="43.51896" lon="5.89685">
        <ele>389</ele>
        <time>2018-04-15T07:01:33Z</time>
      </trkpt>
      <trkpt lat="43.51914" lon="5.89681">
        <ele>390</ele>
        <time>2018-04-15T07:01:38Z</time>
      </trkpt>
      <trkpt lat="43.51936" lon="5.89674">
        <ele>388</ele>
        <time>2018-04-15T07:01:43Z</time>
      </trkpt>
      <trkpt lat="43.51953" lon="5.89667">
        <ele>388</ele>
        <time>2018-04-15T07:01:47Z</time>
      </trkpt>
      <trkpt lat="43.51971" lon="5.89661">
        <ele>391</ele>
        <time>2018-04-15T07:01:51Z</time>
      </trkpt>
      <trkpt lat="43.51991" lon="5.89653">
        <ele>391</ele>
        <time>2018-04-15T07:01:56Z</time>
      </trkpt>
      <trkpt lat="43.52009" lon="5.89645">
        <ele>391</ele>
        <time>2018-04-15T07:02:01Z</time>
      </trkpt>
      <trkpt lat="43.5203" lon="5.89638">
        <ele>391</ele>
        <time>2018-04-15T07:02:07Z</time>
      </trkpt>
      <trkpt lat="43.5205" lon="5.8963">
        <ele>391</ele>
        <time>2018-04-15T07:02:12Z</time>
      </trkpt>
      <trkpt lat="43.52068" lon="5.89624">
        <ele>392</ele>
        <time>2018-04-15T07:02:17Z</time>
      </trkpt>
      <trkpt lat="43.52088" lon="5.89618">
        <ele>390</ele>
        <time>2018-04-15T07:02:22Z</time>
      </trkpt>
      <trkpt lat="43.52108" lon="5.8961">
        <ele>391</ele>
        <time>2018-04-15T07:02:27Z</time>
      </trkpt>
      <trkpt lat="43.52128" lon="5.89603">
        <ele>390</ele>
        <time>2018-04-15T07:02:32Z</time>
      </trkpt>
      <trkpt lat="43.52145" lon="5.89594">
        <ele>391</ele>
        <time>2018-04-15T07:02:37Z</time>
      </trkpt>
      <trkpt lat="43.52164" lon="5.89585">
        <ele>392</ele>
        <time>2018-04-15T07:02:42Z</time>
      </trkpt>
      <trkpt lat="43.52185" lon="5.89577">
        <ele>395</ele>
        <time>2018-04-15T07:02:47Z</time>
      </trkpt>
      <trkpt lat="43.52203" lon="5.8957">
        <ele>395</ele>
        <time>2018-04-15T07:02:52Z</time>
      </trkpt>
      <trkpt lat="43.52221" lon="5.89561">
        <ele>395</ele>
        <time>2018-04-15T07:02:56Z</time>
      </trkpt>
      <trkpt lat="43.52238" lon="5.89554">
        <ele>394</ele>
        <time>2018-04-15T07:02:59Z</time>
      </trkpt>
      <trkpt lat="43.52257" lon="5.89548">
        <ele>391</ele>
        <time>2018-04-15T07:03:02Z</time>
      </trkpt>
      <trkpt lat="43.52279" lon="5.89546">
        <ele>391</ele>
        <time>2018-04-15T07:03:06Z</time>
      </trkpt>
      <trkpt lat="43.52298" lon="5.89545">
        <ele>391</ele>
        <time>2018-04-15T07:03:11Z</time>
      </trkpt>
      <trkpt lat="43.52317" lon="5.89541">
        <ele>391</ele>
        <time>2018-04-15T07:03:18Z</time>
      </trkpt>
      <trkpt lat="43.52338" lon="5.89535">
        <ele>392</ele>
        <time>2018-04-15T07:03:25Z</time>
      </trkpt>
      <trkpt lat="43.52358" lon="5.89533">
        <ele>392</ele>
        <time>2018-04-15T07:03:30Z</time>
      </trkpt>
      <trkpt lat="43.52379" lon="5.89532">
        <ele>392</ele>
        <time>2018-04-15T07:03:35Z</time>
      </trkpt>
      <trkpt lat="43.52398" lon="5.89537">
        <ele>392</ele>
        <time>2018-04-15T07:03:39Z</time>
      </trkpt>
      <trkpt lat="43.52419" lon="5.89541">
        <ele>393</ele>
        <time>2018-04-15T07:03:44Z</time>
      </trkpt>
      <trkpt lat="43.52438" lon="5.89543">
        <ele>393</ele>
        <time>2018-04-15T07:03:48Z</time>
      </trkpt>
      <trkpt lat="43.52456" lon="5.89544">
        <ele>393</ele>
        <time>2018-04-15T07:03:52Z</time>
      </trkpt>
      <trkpt lat="43.52477" lon="5.89541">
        <ele>393</ele>
        <time>2018-04-15T07:03:57Z</time>
      </trkpt>
      <trkpt lat="43.52496" lon="5.89537">
        <ele>394</ele>
        <time>2018-04-15T07:04:04Z</time>
      </trkpt>
      <trkpt lat="43.52518" lon="5.89538">
        <ele>393</ele>
        <time>2018-04-15T07:04:09Z</time>
      </trkpt>
      <trkpt lat="43.5254" lon="5.89541">
        <ele>392</ele>
        <time>2018-04-15T07:04:12Z</time>
      </trkpt>
      <trkpt lat="43.52558" lon="5.89545">
        <ele>391</ele>
        <time>2018-04-15T07:04:14Z</time>
      </trkpt>
      <trkpt lat="43.52578" lon="5.89547">
        <ele>391</ele>
        <time>2018-04-15T07:04:17Z</time>
      </trkpt>
      <trkpt lat="43.526" lon="5.89551">
        <ele>389</ele>
        <time>2018-04-15T07:04:21Z</time>
      </trkpt>
      <trkpt lat="43.52623" lon="5.89553">
        <ele>388</ele>
        <time>2018-04-15T07:04:25Z</time>
      </trkpt>
      <trkpt lat="43.52647" lon="5.89553">
        <ele>388</ele>
        <time>2018-04-15T07:04:29Z</time>
      </trkpt>
      <trkpt lat="43.52665" lon="5.89553">
        <ele>387</ele>
        <time>2018-04-15T07:04:32Z</time>
      </trkpt>
      <trkpt lat="43.52686" lon="5.89555">
        <ele>385</ele>
        <time>2018-04-15T07:04:36Z</time>
      </trkpt>
      <trkpt lat="43.52706" lon="5.89555">
        <ele>385</ele>
        <time>2018-04-15T07:04:40Z</time>
      </trkpt>
      <trkpt lat="43.52725" lon="5.89554">
        <ele>385</ele>
        <time>2018-04-15T07:04:44Z</time>
      </trkpt>
      <trkpt lat="43.52747" lon="5.89555">
        <ele>384</ele>
        <time>2018-04-15T07:04:48Z</time>
      </trkpt>
      <trkpt lat="43.52766" lon="5.89549">
        <ele>381</ele>
        <time>2018-04-15T07:04:54Z</time>
      </trkpt>
      <trkpt lat="43.52784" lon="5.8954">
        <ele>382</ele>
        <time>2018-04-15T07:05:01Z</time>
      </trkpt>
      <trkpt lat="43.52802" lon="5.89531">
        <ele>382</ele>
        <time>2018-04-15T07:05:07Z</time>
      </trkpt>
      <trkpt lat="43.52812" lon="5.89552">
        <ele>380</ele>
        <time>2018-04-15T07:05:13Z</time>
      </trkpt>
      <trkpt lat="43.52812" lon="5.89577">
        <ele>378</ele>
        <time>2018-04-15T07:05:18Z</time>
      </trkpt>
      <trkpt lat="43.52803" lon="5.89604">
        <ele>372</ele>
        <time>2018-04-15T07:05:23Z</time>
      </trkpt>
      <trkpt lat="43.52798" lon="5.89636">
        <ele>371</ele>
        <time>2018-04-15T07:05:27Z</time>
      </trkpt>
      <trkpt lat="43.5279" lon="5.89664">
        <ele>370</ele>
        <time>2018-04-15T07:05:31Z</time>
      </trkpt>
      <trkpt lat="43.52776" lon="5.89689">
        <ele>364</ele>
        <time>2018-04-15T07:05:34Z</time>
      </trkpt>
      <trkpt lat="43.52768" lon="5.89714">
        <ele>363</ele>
        <time>2018-04-15T07:05:37Z</time>
      </trkpt>
      <trkpt lat="43.52758" lon="5.89738">
        <ele>362</ele>
        <time>2018-04-15T07:05:39Z</time>
      </trkpt>
      <trkpt lat="43.5275" lon="5.89764">
        <ele>360</ele>
        <time>2018-04-15T07:05:42Z</time>
      </trkpt>
      <trkpt lat="43.5274" lon="5.89786">
        <ele>358</ele>
        <time>2018-04-15T07:05:59Z</time>
      </trkpt>
      <trkpt lat="43.52727" lon="5.89803">
        <ele>357</ele>
        <time>2018-04-15T07:06:12Z</time>
      </trkpt>
      <trkpt lat="43.52722" lon="5.89829">
        <ele>356</ele>
        <time>2018-04-15T07:06:23Z</time>
      </trkpt>
      <trkpt lat="43.52712" lon="5.89851">
        <ele>353</ele>
        <time>2018-04-15T07:06:35Z</time>
      </trkpt>
      <trkpt lat="43.52693" lon="5.89855">
        <ele>353</ele>
        <time>2018-04-15T07:06:47Z</time>
      </trkpt>
      <trkpt lat="43.52678" lon="5.89872">
        <ele>353</ele>
        <time>2018-04-15T07:06:58Z</time>
      </trkpt>
      <trkpt lat="43.52659" lon="5.89886">
        <ele>353</ele>
        <time>2018-04-15T07:07:05Z</time>
      </trkpt>
      <trkpt lat="43.5264" lon="5.89889">
        <ele>353</ele>
        <time>2018-04-15T07:07:09Z</time>
      </trkpt>
      <trkpt lat="43.52622" lon="5.89885">
        <ele>354</ele>
        <time>2018-04-15T07:07:15Z</time>
      </trkpt>
      <trkpt lat="43.52602" lon="5.89884">
        <ele>354</ele>
        <time>2018-04-15T07:07:25Z</time>
      </trkpt>
      <trkpt lat="43.52585" lon="5.89894">
        <ele>354</ele>
        <time>2018-04-15T07:07:40Z</time>
      </trkpt>
      <trkpt lat="43.52567" lon="5.899">
        <ele>356</ele>
        <time>2018-04-15T07:08:07Z</time>
      </trkpt>
      <trkpt lat="43.52548" lon="5.89907">
        <ele>356</ele>
        <time>2018-04-15T07:08:26Z</time>
      </trkpt>
      <trkpt lat="43.52528" lon="5.8991">
        <ele>357</ele>
        <time>2018-04-15T07:08:39Z</time>
      </trkpt>
      <trkpt lat="43.5251" lon="5.89913">
        <ele>359</ele>
        <time>2018-04-15T07:08:50Z</time>
      </trkpt>
      <trkpt lat="43.52491" lon="5.89914">
        <ele>361</ele>
        <time>2018-04-15T07:09:11Z</time>
      </trkpt>
      <trkpt lat="43.52473" lon="5.89917">
        <ele>364</ele>
        <time>2018-04-15T07:09:23Z</time>
      </trkpt>
      <trkpt lat="43.52455" lon="5.89925">
        <ele>366</ele>
        <time>2018-04-15T07:09:37Z</time>
      </trkpt>
      <trkpt lat="43.52439" lon="5.89938">
        <ele>367</ele>
        <time>2018-04-15T07:09:47Z</time>
      </trkpt>
      <trkpt lat="43.52423" lon="5.89951">
        <ele>367</ele>
        <time>2018-04-15T07:09:58Z</time>
      </trkpt>
      <trkpt lat="43.52409" lon="5.89967">
        <ele>372</ele>
        <time>2018-04-15T07:10:11Z</time>
      </trkpt>
      <trkpt lat="43.52391" lon="5.89977">
        <ele>373</ele>
        <time>2018-04-15T07:10:21Z</time>
      </trkpt>
      <trkpt lat="43.52374" lon="5.89986">
        <ele>374</ele>
        <time>2018-04-15T07:10:34Z</time>
      </trkpt>
      <trkpt lat="43.52358" lon="5.89998">
        <ele>375</ele>
        <time>2018-04-15T07:10:45Z</time>
      </trkpt>
      <trkpt lat="43.52343" lon="5.90014">
        <ele>378</ele>
        <time>2018-04-15T07:10:58Z</time>
      </trkpt>
      <trkpt lat="43.52327" lon="5.9003">
        <ele>380</ele>
        <time>2018-04-15T07:11:07Z</time>
      </trkpt>
      <trkpt lat="43.52311" lon="5.90045">
        <ele>380</ele>
        <time>2018-04-15T07:11:18Z</time>
      </trkpt>
      <trkpt lat="43.52298" lon="5.90063">
        <ele>381</ele>
        <time>2018-04-15T07:11:28Z</time>
      </trkpt>
      <trkpt lat="43.52283" lon="5.9008">
        <ele>381</ele>
        <time>2018-04-15T07:11:39Z</time>
      </trkpt>
      <trkpt lat="43.52269" lon="5.90096">
        <ele>383</ele>
        <time>2018-04-15T07:11:51Z</time>
      </trkpt>
      <trkpt lat="43.52254" lon="5.90114">
        <ele>383</ele>
        <time>2018-04-15T07:12:00Z</time>
      </trkpt>
      <trkpt lat="43.52241" lon="5.90131">
        <ele>386</ele>
        <time>2018-04-15T07:12:12Z</time>
      </trkpt>
      <trkpt lat="43.52222" lon="5.90139">
        <ele>386</ele>
        <time>2018-04-15T07:12:21Z</time>
      </trkpt>
      <trkpt lat="43.52205" lon="5.90147">
        <ele>387</ele>
        <time>2018-04-15T07:12:30Z</time>
      </trkpt>
      <trkpt lat="43.52188" lon="5.90157">
        <ele>388</ele>
        <time>2018-04-15T07:12:39Z</time>
      </trkpt>
      <trkpt lat="43.52172" lon="5.90171">
        <ele>389</ele>
        <time>2018-04-15T07:12:48Z</time>
      </trkpt>
      <trkpt lat="43.52156" lon="5.90183">
        <ele>390</ele>
        <time>2018-04-15T07:12:56Z</time>
      </trkpt>
      <trkpt lat="43.52139" lon="5.90191">
        <ele>391</ele>
        <time>2018-04-15T07:13:04Z</time>
      </trkpt>
      <trkpt lat="43.52122" lon="5.90201">
        <ele>391</ele>
        <time>2018-04-15T07:13:12Z</time>
      </trkpt>
      <trkpt lat="43.52104" lon="5.90208">
        <ele>391</ele>
        <time>2018-04-15T07:13:19Z</time>
      </trkpt>
      <trkpt lat="43.52084" lon="5.90214">
        <ele>391</ele>
        <time>2018-04-15T07:13:28Z</time>
      </trkpt>
      <trkpt lat="43.52065" lon="5.90224">
        <ele>392</ele>
        <time>2018-04-15T07:13:36Z</time>
      </trkpt>
      <trkpt lat="43.52047" lon="5.90231">
        <ele>393</ele>
        <time>2018-04-15T07:13:42Z</time>
      </trkpt>
      <trkpt lat="43.52028" lon="5.90238">
        <ele>393</ele>
        <time>2018-04-15T07:13:48Z</time>
      </trkpt>
      <trkpt lat="43.5201" lon="5.90249">
        <ele>393</ele>
        <time>2018-04-15T07:13:54Z</time>
      </trkpt>
      <trkpt lat="43.51992" lon="5.90256">
        <ele>394</ele>
        <time>2018-04-15T07:14:01Z</time>
      </trkpt>
      <trkpt lat="43.51973" lon="5.90257">
        <ele>394</ele>
        <time>2018-04-15T07:14:07Z</time>
      </trkpt>
      <trkpt lat="43.51954" lon="5.90259">
        <ele>394</ele>
        <time>2018-04-15T07:14:14Z</time>
      </trkpt>
      <trkpt lat="43.51936" lon="5.90268">
        <ele>394</ele>
        <time>2018-04-15T07:14:22Z</time>
      </trkpt>
      <trkpt lat="43.51919" lon="5.90279">
        <ele>395</ele>
        <time>2018-04-15T07:14:29Z</time>
      </trkpt>
      <trkpt lat="43.51898" lon="5.90288">
        <ele>396</ele>
        <time>2018-04-15T07:14:36Z</time>
      </trkpt>
      <trkpt lat="43.5188" lon="5.90292">
        <ele>396</ele>
        <time>2018-04-15T07:14:43Z</time>
      </trkpt>
      <trkpt lat="43.5186" lon="5.90298">
        <ele>395</ele>
        <time>2018-04-15T07:14:50Z</time>
      </trkpt>
      <trkpt lat="43.51843" lon="5.90308">
        <ele>396</ele>
        <time>2018-04-15T07:14:55Z</time>
      </trkpt>
      <trkpt lat="43.51823" lon="5.90313">
        <ele>396</ele>
        <time>2018-04-15T07:15:02Z</time>
      </trkpt>
      <trkpt lat="43.51804" lon="5.90319">
        <ele>396</ele>
        <time>2018-04-15T07:15:09Z</time>
      </trkpt>
      <trkpt lat="43.51785" lon="5.90318">
        <ele>396</ele>
        <time>2018-04-15T07:15:16Z</time>
      </trkpt>
      <trkpt lat="43.51766" lon="5.9032">
        <ele>397</ele>
        <time>2018-04-15T07:15:22Z</time>
      </trkpt>
      <trkpt lat="43.51747" lon="5.90323">
        <ele>397</ele>
        <time>2018-04-15T07:15:28Z</time>
      </trkpt>
      <trkpt lat="43.51728" lon="5.90331">
        <ele>396</ele>
        <time>2018-04-15T07:15:35Z</time>
      </trkpt>
      <trkpt lat="43.51709" lon="5.9034">
        <ele>397</ele>
        <time>2018-04-15T07:15:43Z</time>
      </trkpt>
      <trkpt lat="43.51694" lon="5.90355">
        <ele>397</ele>
        <time>2018-04-15T07:15:50Z</time>
      </trkpt>
      <trkpt lat="43.51678" lon="5.90365">
        <ele>397</ele>
        <time>2018-04-15T07:15:55Z</time>
      </trkpt>
      <trkpt lat="43.51659" lon="5.90373">
        <ele>395</ele>
        <time>2018-04-15T07:16:02Z</time>
      </trkpt>
      <trkpt lat="43.5164" lon="5.90381">
        <ele>394</ele>
        <time>2018-04-15T07:16:09Z</time>
      </trkpt>
      <trkpt lat="43.51621" lon="5.90386">
        <ele>394</ele>
        <time>2018-04-15T07:16:17Z</time>
      </trkpt>
      <trkpt lat="43.51601" lon="5.90392">
        <ele>393</ele>
        <time>2018-04-15T07:16:24Z</time>
      </trkpt>
      <trkpt lat="43.51582" lon="5.90398">
        <ele>391</ele>
        <time>2018-04-15T07:16:30Z</time>
      </trkpt>
      <trkpt lat="43.51564" lon="5.90404">
        <ele>391</ele>
        <time>2018-04-15T07:16:36Z</time>
      </trkpt>
      <trkpt lat="43.51544" lon="5.90408">
        <ele>392</ele>
        <time>2018-04-15T07:16:42Z</time>
      </trkpt>
      <trkpt lat="43.51526" lon="5.90413">
        <ele>392</ele>
        <time>2018-04-15T07:16:48Z</time>
      </trkpt>
      <trkpt lat="43.51506" lon="5.90415">
        <ele>392</ele>
        <time>2018-04-15T07:16:54Z</time>
      </trkpt>
      <trkpt lat="43.51488" lon="5.90421">
        <ele>391</ele>
        <time>2018-04-15T07:17:02Z</time>
      </trkpt>
      <trkpt lat="43.51469" lon="5.90427">
        <ele>391</ele>
        <time>2018-04-15T07:17:08Z</time>
      </trkpt>
      <trkpt lat="43.5145" lon="5.90434">
        <ele>390</ele>
        <time>2018-04-15T07:17:13Z</time>
      </trkpt>
      <trkpt lat="43.51435" lon="5.90448">
        <ele>390</ele>
        <time>2018-04-15T07:17:18Z</time>
      </trkpt>
      <trkpt lat="43.51416" lon="5.90464">
        <ele>390</ele>
        <time>2018-04-15T07:17:24Z</time>
      </trkpt>
      <trkpt lat="43.51401" lon="5.90483">
        <ele>390</ele>
        <time>2018-04-15T07:17:30Z</time>
      </trkpt>
      <trkpt lat="43.51389" lon="5.90504">
        <ele>388</ele>
        <time>2018-04-15T07:17:36Z</time>
      </trkpt>
      <trkpt lat="43.51379" lon="5.90526">
        <ele>389</ele>
        <time>2018-04-15T07:17:42Z</time>
      </trkpt>
      <trkpt lat="43.5137" lon="5.90548">
        <ele>389</ele>
        <time>2018-04-15T07:17:47Z</time>
      </trkpt>
      <trkpt lat="43.51359" lon="5.90571">
        <ele>389</ele>
        <time>2018-04-15T07:17:53Z</time>
      </trkpt>
      <trkpt lat="43.51354" lon="5.90594">
        <ele>388</ele>
        <time>2018-04-15T07:18:00Z</time>
      </trkpt>
      <trkpt lat="43.51351" lon="5.9062">
        <ele>388</ele>
        <time>2018-04-15T07:18:06Z</time>
      </trkpt>
      <trkpt lat="43.51334" lon="5.90636">
        <ele>388</ele>
        <time>2018-04-15T07:19:37Z</time>
      </trkpt>
      <trkpt lat="43.51339" lon="5.90661">
        <ele>389</ele>
        <time>2018-04-15T07:22:22Z</time>
      </trkpt>
      <trkpt lat="43.51334" lon="5.90687">
        <ele>385</ele>
        <time>2018-04-15T07:22:29Z</time>
      </trkpt>
      <trkpt lat="43.51321" lon="5.90708">
        <ele>388</ele>
        <time>2018-04-15T07:22:37Z</time>
      </trkpt>
      <trkpt lat="43.5131" lon="5.9073">
        <ele>387</ele>
        <time>2018-04-15T07:22:44Z</time>
      </trkpt>
      <trkpt lat="43.51296" lon="5.90746">
        <ele>387</ele>
        <time>2018-04-15T07:22:49Z</time>
      </trkpt>
      <trkpt lat="43.51283" lon="5.90767">
        <ele>382</ele>
        <time>2018-04-15T07:22:55Z</time>
      </trkpt>
      <trkpt lat="43.51272" lon="5.90787">
        <ele>381</ele>
        <time>2018-04-15T07:23:00Z</time>
      </trkpt>
      <trkpt lat="43.51267" lon="5.90815">
        <ele>380</ele>
        <time>2018-04-15T07:23:06Z</time>
      </trkpt>
      <trkpt lat="43.51251" lon="5.90835">
        <ele>381</ele>
        <time>2018-04-15T07:23:13Z</time>
      </trkpt>
      <trkpt lat="43.51261" lon="5.90812">
        <ele>381</ele>
        <time>2018-04-15T07:23:59Z</time>
      </trkpt>
      <trkpt lat="43.51269" lon="5.90788">
        <ele>381</ele>
        <time>2018-04-15T07:24:07Z</time>
      </trkpt>
      <trkpt lat="43.51281" lon="5.90766">
        <ele>382</ele>
        <time>2018-04-15T07:24:18Z</time>
      </trkpt>
      <trkpt lat="43.51295" lon="5.90748">
        <ele>387</ele>
        <time>2018-04-15T07:24:26Z</time>
      </trkpt>
      <trkpt lat="43.51308" lon="5.9073">
        <ele>387</ele>
        <time>2018-04-15T07:24:32Z</time>
      </trkpt>
      <trkpt lat="43.51321" lon="5.90709">
        <ele>388</ele>
        <time>2018-04-15T07:24:40Z</time>
      </trkpt>
      <trkpt lat="43.51332" lon="5.90687">
        <ele>389</ele>
        <time>2018-04-15T07:24:47Z</time>
      </trkpt>
      <trkpt lat="43.51333" lon="5.9066">
        <ele>390</ele>
        <time>2018-04-15T07:24:55Z</time>
      </trkpt>
      <trkpt lat="43.51333" lon="5.90635">
        <ele>390</ele>
        <time>2018-04-15T07:25:03Z</time>
      </trkpt>
      <trkpt lat="43.51323" lon="5.90612">
        <ele>390</ele>
        <time>2018-04-15T07:25:12Z</time>
      </trkpt>
      <trkpt lat="43.51312" lon="5.90589">
        <ele>390</ele>
        <time>2018-04-15T07:25:19Z</time>
      </trkpt>
      <trkpt lat="43.51303" lon="5.90564">
        <ele>391</ele>
        <time>2018-04-15T07:25:27Z</time>
      </trkpt>
      <trkpt lat="43.51287" lon="5.90551">
        <ele>391</ele>
        <time>2018-04-15T07:25:34Z</time>
      </trkpt>
      <trkpt lat="43.51267" lon="5.90549">
        <ele>391</ele>
        <time>2018-04-15T07:25:42Z</time>
      </trkpt>
      <trkpt lat="43.51248" lon="5.90543">
        <ele>392</ele>
        <time>2018-04-15T07:25:50Z</time>
      </trkpt>
      <trkpt lat="43.51232" lon="5.90527">
        <ele>392</ele>
        <time>2018-04-15T07:25:58Z</time>
      </trkpt>
      <trkpt lat="43.51212" lon="5.90529">
        <ele>392</ele>
        <time>2018-04-15T07:26:06Z</time>
      </trkpt>
      <trkpt lat="43.51194" lon="5.90536">
        <ele>392</ele>
        <time>2018-04-15T07:26:12Z</time>
      </trkpt>
      <trkpt lat="43.51176" lon="5.90551">
        <ele>392</ele>
        <time>2018-04-15T07:26:18Z</time>
      </trkpt>
      <trkpt lat="43.51159" lon="5.90546">
        <ele>392</ele>
        <time>2018-04-15T07:26:24Z</time>
      </trkpt>
      <trkpt lat="43.51143" lon="5.9053">
        <ele>391</ele>
        <time>2018-04-15T07:26:31Z</time>
      </trkpt>
      <trkpt lat="43.51128" lon="5.90508">
        <ele>391</ele>
        <time>2018-04-15T07:26:37Z</time>
      </trkpt>
      <trkpt lat="43.51115" lon="5.90489">
        <ele>388</ele>
        <time>2018-04-15T07:26:42Z</time>
      </trkpt>
      <trkpt lat="43.51102" lon="5.90468">
        <ele>387</ele>
        <time>2018-04-15T07:26:47Z</time>
      </trkpt>
      <trkpt lat="43.51093" lon="5.90439">
        <ele>385</ele>
        <time>2018-04-15T07:26:52Z</time>
      </trkpt>
      <trkpt lat="43.51089" lon="5.90408">
        <ele>382</ele>
        <time>2018-04-15T07:26:56Z</time>
      </trkpt>
      <trkpt lat="43.51093" lon="5.90378">
        <ele>381</ele>
        <time>2018-04-15T07:27:00Z</time>
      </trkpt>
      <trkpt lat="43.51092" lon="5.90347">
        <ele>378</ele>
        <time>2018-04-15T07:27:05Z</time>
      </trkpt>
      <trkpt lat="43.51089" lon="5.9032">
        <ele>376</ele>
        <time>2018-04-15T07:27:09Z</time>
      </trkpt>
      <trkpt lat="43.51085" lon="5.90294">
        <ele>377</ele>
        <time>2018-04-15T07:27:13Z</time>
      </trkpt>
      <trkpt lat="43.51078" lon="5.90264">
        <ele>374</ele>
        <time>2018-04-15T07:27:17Z</time>
      </trkpt>
      <trkpt lat="43.5107" lon="5.90241">
        <ele>372</ele>
        <time>2018-04-15T07:27:21Z</time>
      </trkpt>
      <trkpt lat="43.51056" lon="5.90218">
        <ele>372</ele>
        <time>2018-04-15T07:27:25Z</time>
      </trkpt>
      <trkpt lat="43.51046" lon="5.90196">
        <ele>371</ele>
        <time>2018-04-15T07:27:29Z</time>
      </trkpt>
      <trkpt lat="43.51029" lon="5.90185">
        <ele>370</ele>
        <time>2018-04-15T07:27:35Z</time>
      </trkpt>
      <trkpt lat="43.51017" lon="5.90164">
        <ele>367</ele>
        <time>2018-04-15T07:27:43Z</time>
      </trkpt>
      <trkpt lat="43.51011" lon="5.90134">
        <ele>366</ele>
        <time>2018-04-15T07:27:49Z</time>
      </trkpt>
      <trkpt lat="43.50997" lon="5.90114">
        <ele>361</ele>
        <time>2018-04-15T07:27:55Z</time>
      </trkpt>
      <trkpt lat="43.50988" lon="5.90088">
        <ele>360</ele>
        <time>2018-04-15T07:28:02Z</time>
      </trkpt>
      <trkpt lat="43.50979" lon="5.90065">
        <ele>355</ele>
        <time>2018-04-15T07:28:10Z</time>
      </trkpt>
      <trkpt lat="43.50974" lon="5.90041">
        <ele>354</ele>
        <time>2018-04-15T07:28:17Z</time>
      </trkpt>
      <trkpt lat="43.50971" lon="5.90017">
        <ele>352</ele>
        <time>2018-04-15T07:28:25Z</time>
      </trkpt>
      <trkpt lat="43.50986" lon="5.90002">
        <ele>352</ele>
        <time>2018-04-15T07:28:52Z</time>
      </trkpt>
      <trkpt lat="43.51004" lon="5.9">
        <ele>352</ele>
        <time>2018-04-15T07:29:05Z</time>
      </trkpt>
      <trkpt lat="43.51022" lon="5.9">
        <ele>356</ele>
        <time>2018-04-15T07:29:14Z</time>
      </trkpt>
      <trkpt lat="43.51041" lon="5.89998">
        <ele>359</ele>
        <time>2018-04-15T07:29:23Z</time>
      </trkpt>
      <trkpt lat="43.51059" lon="5.89993">
        <ele>360</ele>
        <time>2018-04-15T07:29:34Z</time>
      </trkpt>
      <trkpt lat="43.51077" lon="5.89999">
        <ele>361</ele>
        <time>2018-04-15T07:29:43Z</time>
      </trkpt>
      <trkpt lat="43.51096" lon="5.90001">
        <ele>364</ele>
        <time>2018-04-15T07:29:53Z</time>
      </trkpt>
      <trkpt lat="43.51115" lon="5.90001">
        <ele>367</ele>
        <time>2018-04-15T07:30:01Z</time>
      </trkpt>
      <trkpt lat="43.51133" lon="5.89999">
        <ele>367</ele>
        <time>2018-04-15T07:30:11Z</time>
      </trkpt>
      <trkpt lat="43.51153" lon="5.9">
        <ele>368</ele>
        <time>2018-04-15T07:30:22Z</time>
      </trkpt>
      <trkpt lat="43.5117" lon="5.89994">
        <ele>369</ele>
        <time>2018-04-15T07:30:32Z</time>
      </trkpt>
      <trkpt lat="43.51186" lon="5.8998">
        <ele>372</ele>
        <time>2018-04-15T07:30:43Z</time>
      </trkpt>
      <trkpt lat="43.51202" lon="5.89964">
        <ele>373</ele>
        <time>2018-04-15T07:30:53Z</time>
      </trkpt>
      <trkpt lat="43.51216" lon="5.89948">
        <ele>374</ele>
        <time>2018-04-15T07:31:04Z</time>
      </trkpt>
      <trkpt lat="43.5123" lon="5.89931">
        <ele>374</ele>
        <time>2018-04-15T07:31:14Z</time>
      </trkpt>
      <trkpt lat="43.51245" lon="5.89912">
        <ele>376</ele>
        <time>2018-04-15T07:31:25Z</time>
      </trkpt>
      <trkpt lat="43.51258" lon="5.89895">
        <ele>378</ele>
        <time>2018-04-15T07:31:34Z</time>
      </trkpt>
      <trkpt lat="43.51273" lon="5.8988">
        <ele>379</ele>
        <time>2018-04-15T07:31:44Z</time>
      </trkpt>
      <trkpt lat="43.51291" lon="5.89867">
        <ele>379</ele>
        <time>2018-04-15T07:31:52Z</time>
      </trkpt>
      <trkpt lat="43.51307" lon="5.89854">
        <ele>380</ele>
        <time>2018-04-15T07:32:00Z</time>
      </trkpt>
      <trkpt lat="43.51323" lon="5.89838">
        <ele>380</ele>
        <time>2018-04-15T07:32:09Z</time>
      </trkpt>
      <trkpt lat="43.51337" lon="5.89821">
        <ele>382</ele>
        <time>2018-04-15T07:32:17Z</time>
      </trkpt>
      <trkpt lat="43.51351" lon="5.89803">
        <ele>384</ele>
        <time>2018-04-15T07:32:26Z</time>
      </trkpt>
      <trkpt lat="43.51365" lon="5.89787">
        <ele>384</ele>
        <time>2018-04-15T07:32:35Z</time>
      </trkpt>
      <trkpt lat="43.51378" lon="5.8977">
        <ele>385</ele>
        <time>2018-04-15T07:32:43Z</time>
      </trkpt>
      <trkpt lat="43.51393" lon="5.89753">
        <ele>385</ele>
        <time>2018-04-15T07:32:51Z</time>
      </trkpt>
      <trkpt lat="43.51407" lon="5.89736">
        <ele>387</ele>
        <time>2018-04-15T07:32:59Z</time>
      </trkpt>
      <trkpt lat="43.51424" lon="5.89721">
        <ele>389</ele>
        <time>2018-04-15T07:33:06Z</time>
      </trkpt>
      <trkpt lat="43.51441" lon="5.89708">
        <ele>389</ele>
        <time>2018-04-15T07:33:13Z</time>
      </trkpt>
      <trkpt lat="43.51459" lon="5.89699">
        <ele>390</ele>
        <time>2018-04-15T07:33:21Z</time>
      </trkpt>
      <trkpt lat="43.51475" lon="5.89689">
        <ele>390</ele>
        <time>2018-04-15T07:33:29Z</time>
      </trkpt>
      <trkpt lat="43.51494" lon="5.89681">
        <ele>390</ele>
        <time>2018-04-15T07:33:37Z</time>
      </trkpt>
      <trkpt lat="43.51513" lon="5.89672">
        <ele>391</ele>
        <time>2018-04-15T07:33:43Z</time>
      </trkpt>
      <trkpt lat="43.51531" lon="5.89666">
        <ele>393</ele>
        <time>2018-04-15T07:33:50Z</time>
      </trkpt>
      <trkpt lat="43.51551" lon="5.89662">
        <ele>393</ele>
        <time>2018-04-15T07:33:58Z</time>
      </trkpt>
      <trkpt lat="43.51568" lon="5.89653">
        <ele>393</ele>
        <time>2018-04-15T07:34:08Z</time>
      </trkpt>
      <trkpt lat="43.51585" lon="5.89643">
        <ele>394</ele>
        <time>2018-04-15T07:34:18Z</time>
      </trkpt>
      <trkpt lat="43.51606" lon="5.89644">
        <ele>394</ele>
        <time>2018-04-15T07:34:32Z</time>
      </trkpt>
      <trkpt lat="43.51627" lon="5.89649">
        <ele>394</ele>
        <time>2018-04-15T07:34:39Z</time>
      </trkpt>
      <trkpt lat="43.51647" lon="5.8965">
        <ele>394</ele>
        <time>2018-04-15T07:34:46Z</time>
      </trkpt>
      <trkpt lat="43.51667" lon="5.89657">
        <ele>394</ele>
        <time>2018-04-15T07:34:54Z</time>
      </trkpt>
      <trkpt lat="43.51687" lon="5.89661">
        <ele>394</ele>
        <time>2018-04-15T07:35:02Z</time>
      </trkpt>
      <trkpt lat="43.51709" lon="5.89668">
        <ele>392</ele>
        <time>2018-04-15T07:35:07Z</time>
      </trkpt>
      <trkpt lat="43.51729" lon="5.89676">
        <ele>392</ele>
        <time>2018-04-15T07:35:11Z</time>
      </trkpt>
      <trkpt lat="43.51748" lon="5.89683">
        <ele>392</ele>
        <time>2018-04-15T07:35:16Z</time>
      </trkpt>
      <trkpt lat="43.51769" lon="5.89688">
        <ele>391</ele>
        <time>2018-04-15T07:35:21Z</time>
      </trkpt>
      <trkpt lat="43.51791" lon="5.89691">
        <ele>390</ele>
        <time>2018-04-15T07:35:26Z</time>
      </trkpt>
      <trkpt lat="43.51811" lon="5.89693">
        <ele>390</ele>
        <time>2018-04-15T07:35:30Z</time>
      </trkpt>
      <trkpt lat="43.51832" lon="5.89694">
        <ele>390</ele>
        <time>2018-04-15T07:35:34Z</time>
      </trkpt>
      <trkpt lat="43.51852" lon="5.89692">
        <ele>389</ele>
        <time>2018-04-15T07:35:38Z</time>
      </trkpt>
      <trkpt lat="43.51875" lon="5.89689">
        <ele>389</ele>
        <time>2018-04-15T07:35:42Z</time>
      </trkpt>
      <trkpt lat="43.51897" lon="5.89689">
        <ele>389</ele>
        <time>2018-04-15T07:35:47Z</time>
      </trkpt>
      <trkpt lat="43.51918" lon="5.89686">
        <ele>388</ele>
        <time>2018-04-15T07:35:52Z</time>
      </trkpt>
      <trkpt lat="43.51936" lon="5.89682">
        <ele>388</ele>
        <time>2018-04-15T07:35:56Z</time>
      </trkpt>
      <trkpt lat="43.51957" lon="5.89674">
        <ele>388</ele>
        <time>2018-04-15T07:36:01Z</time>
      </trkpt>
      <trkpt lat="43.51975" lon="5.89667">
        <ele>391</ele>
        <time>2018-04-15T07:36:05Z</time>
      </trkpt>
      <trkpt lat="43.51996" lon="5.89659">
        <ele>390</ele>
        <time>2018-04-15T07:36:10Z</time>
      </trkpt>
      <trkpt lat="43.52015" lon="5.89652">
        <ele>390</ele>
        <time>2018-04-15T07:36:15Z</time>
      </trkpt>
      <trkpt lat="43.52036" lon="5.89645">
        <ele>391</ele>
        <time>2018-04-15T07:36:20Z</time>
      </trkpt>
      <trkpt lat="43.52056" lon="5.8964">
        <ele>391</ele>
        <time>2018-04-15T07:36:25Z</time>
      </trkpt>
      <trkpt lat="43.52074" lon="5.89633">
        <ele>391</ele>
        <time>2018-04-15T07:36:30Z</time>
      </trkpt>
      <trkpt lat="43.52092" lon="5.89625">
        <ele>390</ele>
        <time>2018-04-15T07:36:35Z</time>
      </trkpt>
      <trkpt lat="43.5211" lon="5.89617">
        <ele>390</ele>
        <time>2018-04-15T07:36:40Z</time>
      </trkpt>
      <trkpt lat="43.52129" lon="5.89608">
        <ele>390</ele>
        <time>2018-04-15T07:36:45Z</time>
      </trkpt>
      <trkpt lat="43.52148" lon="5.89597">
        <ele>391</ele>
        <time>2018-04-15T07:36:50Z</time>
      </trkpt>
      <trkpt lat="43.52166" lon="5.8959">
        <ele>392</ele>
        <time>2018-04-15T07:36:55Z</time>
      </trkpt>
      <trkpt lat="43.52187" lon="5.89585">
        <ele>388</ele>
        <time>2018-04-15T07:37:01Z</time>
      </trkpt>
      <trkpt lat="43.52205" lon="5.89575">
        <ele>395</ele>
        <time>2018-04-15T07:37:06Z</time>
      </trkpt>
      <trkpt lat="43.52225" lon="5.89564">
        <ele>394</ele>
        <time>2018-04-15T07:37:10Z</time>
      </trkpt>
      <trkpt lat="43.52248" lon="5.89555">
        <ele>393</ele>
        <time>2018-04-15T07:37:14Z</time>
      </trkpt>
      <trkpt lat="43.5227" lon="5.8955">
        <ele>391</ele>
        <time>2018-04-15T07:37:18Z</time>
      </trkpt>
      <trkpt lat="43.52288" lon="5.89552">
        <ele>390</ele>
        <time>2018-04-15T07:37:22Z</time>
      </trkpt>
      <trkpt lat="43.52307" lon="5.89556">
        <ele>389</ele>
        <time>2018-04-15T07:37:27Z</time>
      </trkpt>
      <trkpt lat="43.52328" lon="5.89563">
        <ele>387</ele>
        <time>2018-04-15T07:37:33Z</time>
      </trkpt>
      <trkpt lat="43.5235" lon="5.89566">
        <ele>387</ele>
        <time>2018-04-15T07:37:40Z</time>
      </trkpt>
      <trkpt lat="43.52371" lon="5.89562">
        <ele>389</ele>
        <time>2018-04-15T07:37:44Z</time>
      </trkpt>
      <trkpt lat="43.52398" lon="5.89556">
        <ele>390</ele>
        <time>2018-04-15T07:37:48Z</time>
      </trkpt>
      <trkpt lat="43.52415" lon="5.89568">
        <ele>388</ele>
        <time>2018-04-15T07:37:51Z</time>
      </trkpt>
      <trkpt lat="43.52432" lon="5.8958">
        <ele>388</ele>
        <time>2018-04-15T07:37:55Z</time>
      </trkpt>
      <trkpt lat="43.52453" lon="5.89586">
        <ele>381</ele>
        <time>2018-04-15T07:38:00Z</time>
      </trkpt>
      <trkpt lat="43.52473" lon="5.89589">
        <ele>380</ele>
        <time>2018-04-15T07:38:04Z</time>
      </trkpt>
      <trkpt lat="43.52492" lon="5.89592">
        <ele>381</ele>
        <time>2018-04-15T07:38:08Z</time>
      </trkpt>
      <trkpt lat="43.5251" lon="5.89594">
        <ele>381</ele>
        <time>2018-04-15T07:38:12Z</time>
      </trkpt>
      <trkpt lat="43.52532" lon="5.89599">
        <ele>379</ele>
        <time>2018-04-15T07:38:16Z</time>
      </trkpt>
      <trkpt lat="43.52552" lon="5.89603">
        <ele>379</ele>
        <time>2018-04-15T07:38:20Z</time>
      </trkpt>
      <trkpt lat="43.52573" lon="5.8961">
        <ele>379</ele>
        <time>2018-04-15T07:38:25Z</time>
      </trkpt>
      <trkpt lat="43.52592" lon="5.89616">
        <ele>379</ele>
        <time>2018-04-15T07:38:28Z</time>
      </trkpt>
      <trkpt lat="43.52609" lon="5.89625">
        <ele>378</ele>
        <time>2018-04-15T07:38:32Z</time>
      </trkpt>
      <trkpt lat="43.52629" lon="5.8963">
        <ele>377</ele>
        <time>2018-04-15T07:38:38Z</time>
      </trkpt>
      <trkpt lat="43.52649" lon="5.89631">
        <ele>377</ele>
        <time>2018-04-15T07:38:43Z</time>
      </trkpt>
      <trkpt lat="43.5267" lon="5.89634">
        <ele>375</ele>
        <time>2018-04-15T07:38:47Z</time>
      </trkpt>
      <trkpt lat="43.5269" lon="5.89638">
        <ele>375</ele>
        <time>2018-04-15T07:38:51Z</time>
      </trkpt>
      <trkpt lat="43.52709" lon="5.89642">
        <ele>374</ele>
        <time>2018-04-15T07:38:56Z</time>
      </trkpt>
      <trkpt lat="43.52728" lon="5.89646">
        <ele>373</ele>
        <time>2018-04-15T07:39:00Z</time>
      </trkpt>
      <trkpt lat="43.52743" lon="5.89663">
        <ele>371</ele>
        <time>2018-04-15T07:39:06Z</time>
      </trkpt>
      <trkpt lat="43.52754" lon="5.89687">
        <ele>366</ele>
        <time>2018-04-15T07:39:13Z</time>
      </trkpt>
      <trkpt lat="43.5275" lon="5.89712">
        <ele>364</ele>
        <time>2018-04-15T07:39:20Z</time>
      </trkpt>
      <trkpt lat="43.52749" lon="5.89741">
        <ele>363</ele>
        <time>2018-04-15T07:39:25Z</time>
      </trkpt>
      <trkpt lat="43.5275" lon="5.89769">
        <ele>359</ele>
        <time>2018-04-15T07:39:30Z</time>
      </trkpt>
      <trkpt lat="43.52739" lon="5.89793">
        <ele>357</ele>
        <time>2018-04-15T07:39:35Z</time>
      </trkpt>
      <trkpt lat="43.52733" lon="5.89817">
        <ele>356</ele>
        <time>2018-04-15T07:39:39Z</time>
      </trkpt>
      <trkpt lat="43.52727" lon="5.89844">
        <ele>353</ele>
        <time>2018-04-15T07:39:45Z</time>
      </trkpt>
      <trkpt lat="43.52711" lon="5.89857">
        <ele>353</ele>
        <time>2018-04-15T07:39:53Z</time>
      </trkpt>
      <trkpt lat="43.52693" lon="5.89863">
        <ele>353</ele>
        <time>2018-04-15T07:40:03Z</time>
      </trkpt>
      <trkpt lat="43.52677" lon="5.89875">
        <ele>353</ele>
        <time>2018-04-15T07:40:08Z</time>
      </trkpt>
      <trkpt lat="43.52661" lon="5.89887">
        <ele>353</ele>
        <time>2018-04-15T07:40:13Z</time>
      </trkpt>
      <trkpt lat="43.52642" lon="5.89894">
        <ele>353</ele>
        <time>2018-04-15T07:40:19Z</time>
      </trkpt>
      <trkpt lat="43.52623" lon="5.89888">
        <ele>354</ele>
        <time>2018-04-15T07:40:27Z</time>
      </trkpt>
      <trkpt lat="43.52607" lon="5.89874">
        <ele>354</ele>
        <time>2018-04-15T07:40:35Z</time>
      </trkpt>
      <trkpt lat="43.52595" lon="5.89854">
        <ele>354</ele>
        <time>2018-04-15T07:40:43Z</time>
      </trkpt>
      <trkpt lat="43.52585" lon="5.89833">
        <ele>354</ele>
        <time>2018-04-15T07:40:51Z</time>
      </trkpt>
      <trkpt lat="43.52572" lon="5.89814">
        <ele>358</ele>
        <time>2018-04-15T07:41:00Z</time>
      </trkpt>
      <trkpt lat="43.52558" lon="5.89798">
        <ele>359</ele>
        <time>2018-04-15T07:41:18Z</time>
      </trkpt>
      <trkpt lat="43.52541" lon="5.8979">
        <ele>360</ele>
        <time>2018-04-15T07:41:32Z</time>
      </trkpt>
      <trkpt lat="43.52522" lon="5.89787">
        <ele>360</ele>
        <time>2018-04-15T07:41:41Z</time>
      </trkpt>
      <trkpt lat="43.52507" lon="5.89769">
        <ele>362</ele>
        <time>2018-04-15T07:41:50Z</time>
      </trkpt>
      <trkpt lat="43.52489" lon="5.89758">
        <ele>363</ele>
        <time>2018-04-15T07:41:58Z</time>
      </trkpt>
      <trkpt lat="43.52475" lon="5.89741">
        <ele>367</ele>
        <time>2018-04-15T07:42:40Z</time>
      </trkpt>
      <trkpt lat="43.52461" lon="5.89723">
        <ele>368</ele>
        <time>2018-04-15T07:43:04Z</time>
      </trkpt>
      <trkpt lat="43.52442" lon="5.89718">
        <ele>368</ele>
        <time>2018-04-15T07:43:15Z</time>
      </trkpt>
      <trkpt lat="43.52423" lon="5.89717">
        <ele>368</ele>
        <time>2018-04-15T07:43:24Z</time>
      </trkpt>
      <trkpt lat="43.52403" lon="5.89723">
        <ele>367</ele>
        <time>2018-04-15T07:43:31Z</time>
      </trkpt>
      <trkpt lat="43.52386" lon="5.89718">
        <ele>368</ele>
        <time>2018-04-15T07:43:39Z</time>
      </trkpt>
      <trkpt lat="43.52367" lon="5.89719">
        <ele>368</ele>
        <time>2018-04-15T07:43:47Z</time>
      </trkpt>
      <trkpt lat="43.52349" lon="5.89732">
        <ele>367</ele>
        <time>2018-04-15T07:43:54Z</time>
      </trkpt>
      <trkpt lat="43.52333" lon="5.8975">
        <ele>364</ele>
        <time>2018-04-15T07:44:00Z</time>
      </trkpt>
      <trkpt lat="43.52324" lon="5.89775">
        <ele>367</ele>
        <time>2018-04-15T07:44:09Z</time>
      </trkpt>
      <trkpt lat="43.52307" lon="5.89766">
        <ele>367</ele>
        <time>2018-04-15T07:44:19Z</time>
      </trkpt>
      <trkpt lat="43.5229" lon="5.89751">
        <ele>368</ele>
        <time>2018-04-15T07:44:28Z</time>
      </trkpt>
      <trkpt lat="43.52271" lon="5.89744">
        <ele>369</ele>
        <time>2018-04-15T07:44:40Z</time>
      </trkpt>
      <trkpt lat="43.52251" lon="5.89738">
        <ele>369</ele>
        <time>2018-04-15T07:44:49Z</time>
      </trkpt>
      <trkpt lat="43.52233" lon="5.89726">
        <ele>373</ele>
        <time>2018-04-15T07:44:57Z</time>
      </trkpt>
      <trkpt lat="43.52214" lon="5.89729">
        <ele>374</ele>
        <time>2018-04-15T07:45:05Z</time>
      </trkpt>
      <trkpt lat="43.52197" lon="5.89737">
        <ele>375</ele>
        <time>2018-04-15T07:45:12Z</time>
      </trkpt>
      <trkpt lat="43.52178" lon="5.89744">
        <ele>375</ele>
        <time>2018-04-15T07:45:20Z</time>
      </trkpt>
      <trkpt lat="43.5216" lon="5.89739">
        <ele>377</ele>
        <time>2018-04-15T07:45:40Z</time>
      </trkpt>
      <trkpt lat="43.52164" lon="5.89715">
        <ele>379</ele>
        <time>2018-04-15T07:46:03Z</time>
      </trkpt>
      <trkpt lat="43.52159" lon="5.89691">
        <ele>380</ele>
        <time>2018-04-15T07:46:19Z</time>
      </trkpt>
      <trkpt lat="43.52156" lon="5.89665">
        <ele>384</ele>
        <time>2018-04-15T07:46:33Z</time>
      </trkpt>
      <trkpt lat="43.52144" lon="5.89645">
        <ele>387</ele>
        <time>2018-04-15T07:46:54Z</time>
      </trkpt>
      <trkpt lat="43.52131" lon="5.89626">
        <ele>389</ele>
        <time>2018-04-15T07:47:22Z</time>
      </trkpt>
      <trkpt lat="43.52139" lon="5.89603">
        <ele>390</ele>
        <time>2018-04-15T07:47:47Z</time>
      </trkpt>
      <trkpt lat="43.52157" lon="5.89596">
        <ele>391</ele>
        <time>2018-04-15T07:49:09Z</time>
      </trkpt>
      <trkpt lat="43.52176" lon="5.89588">
        <ele>390</ele>
        <time>2018-04-15T07:49:19Z</time>
      </trkpt>
      <trkpt lat="43.52194" lon="5.89582">
        <ele>395</ele>
        <time>2018-04-15T07:49:29Z</time>
      </trkpt>
      <trkpt lat="43.52214" lon="5.89573">
        <ele>394</ele>
        <time>2018-04-15T07:49:34Z</time>
      </trkpt>
      <trkpt lat="43.52232" lon="5.89565">
        <ele>393</ele>
        <time>2018-04-15T07:49:38Z</time>
      </trkpt>
      <trkpt lat="43.52251" lon="5.89559">
        <ele>389</ele>
        <time>2018-04-15T07:49:42Z</time>
      </trkpt>
      <trkpt lat="43.52271" lon="5.89554">
        <ele>390</ele>
        <time>2018-04-15T07:49:46Z</time>
      </trkpt>
      <trkpt lat="43.52293" lon="5.89554">
        <ele>390</ele>
        <time>2018-04-15T07:49:51Z</time>
      </trkpt>
      <trkpt lat="43.52313" lon="5.89553">
        <ele>390</ele>
        <time>2018-04-15T07:49:56Z</time>
      </trkpt>
      <trkpt lat="43.52332" lon="5.89552">
        <ele>389</ele>
        <time>2018-04-15T07:50:01Z</time>
      </trkpt>
      <trkpt lat="43.52354" lon="5.89549">
        <ele>390</ele>
        <time>2018-04-15T07:50:06Z</time>
      </trkpt>
      <trkpt lat="43.52373" lon="5.8955">
        <ele>390</ele>
        <time>2018-04-15T07:50:11Z</time>
      </trkpt>
      <trkpt lat="43.52392" lon="5.89548">
        <ele>391</ele>
        <time>2018-04-15T07:50:16Z</time>
      </trkpt>
      <trkpt lat="43.52412" lon="5.89546">
        <ele>391</ele>
        <time>2018-04-15T07:50:22Z</time>
      </trkpt>
      <trkpt lat="43.52432" lon="5.89548">
        <ele>392</ele>
        <time>2018-04-15T07:50:28Z</time>
      </trkpt>
      <trkpt lat="43.52452" lon="5.8955">
        <ele>392</ele>
        <time>2018-04-15T07:50:33Z</time>
      </trkpt>
      <trkpt lat="43.5247" lon="5.8955">
        <ele>392</ele>
        <time>2018-04-15T07:50:37Z</time>
      </trkpt>
      <trkpt lat="43.52488" lon="5.8955">
        <ele>391</ele>
        <time>2018-04-15T07:50:41Z</time>
      </trkpt>
      <trkpt lat="43.52508" lon="5.89553">
        <ele>390</ele>
        <time>2018-04-15T07:50:46Z</time>
      </trkpt>
      <trkpt lat="43.52528" lon="5.89554">
        <ele>390</ele>
        <time>2018-04-15T07:50:51Z</time>
      </trkpt>
      <trkpt lat="43.52548" lon="5.89555">
        <ele>390</ele>
        <time>2018-04-15T07:50:55Z</time>
      </trkpt>
      <trkpt lat="43.52568" lon="5.89556">
        <ele>390</ele>
        <time>2018-04-15T07:50:59Z</time>
      </trkpt>
      <trkpt lat="43.52587" lon="5.89557">
        <ele>388</ele>
        <time>2018-04-15T07:51:03Z</time>
      </trkpt>
      <trkpt lat="43.5261" lon="5.89553">
        <ele>388</ele>
        <time>2018-04-15T07:51:07Z</time>
      </trkpt>
      <trkpt lat="43.52633" lon="5.89551">
        <ele>388</ele>
        <time>2018-04-15T07:51:11Z</time>
      </trkpt>
      <trkpt lat="43.52655" lon="5.89552">
        <ele>388</ele>
        <time>2018-04-15T07:51:15Z</time>
      </trkpt>
      <trkpt lat="43.52678" lon="5.89551">
        <ele>386</ele>
        <time>2018-04-15T07:51:19Z</time>
      </trkpt>
      <trkpt lat="43.52699" lon="5.89554">
        <ele>385</ele>
        <time>2018-04-15T07:51:23Z</time>
      </trkpt>
      <trkpt lat="43.5272" lon="5.89557">
        <ele>384</ele>
        <time>2018-04-15T07:51:27Z</time>
      </trkpt>
      <trkpt lat="43.52744" lon="5.89558">
        <ele>383</ele>
        <time>2018-04-15T07:51:31Z</time>
      </trkpt>
      <trkpt lat="43.52765" lon="5.89557">
        <ele>381</ele>
        <time>2018-04-15T07:51:35Z</time>
      </trkpt>
      <trkpt lat="43.52789" lon="5.89555">
        <ele>380</ele>
        <time>2018-04-15T07:51:40Z</time>
      </trkpt>
      <trkpt lat="43.52809" lon="5.89549">
        <ele>380</ele>
        <time>2018-04-15T07:51:44Z</time>
      </trkpt>
      <trkpt lat="43.52829" lon="5.8954">
        <ele>380</ele>
        <time>2018-04-15T07:51:48Z</time>
      </trkpt>
      <trkpt lat="43.52848" lon="5.89532">
        <ele>378</ele>
        <time>2018-04-15T07:51:52Z</time>
      </trkpt>
      <trkpt lat="43.52869" lon="5.89521">
        <ele>378</ele>
        <time>2018-04-15T07:51:57Z</time>
      </trkpt>
      <trkpt lat="43.52887" lon="5.89514">
        <ele>378</ele>
        <time>2018-04-15T07:52:01Z</time>
      </trkpt>
      <trkpt lat="43.52904" lon="5.89507">
        <ele>379</ele>
        <time>2018-04-15T07:52:05Z</time>
      </trkpt>
      <trkpt lat="43.52924" lon="5.89501">
        <ele>378</ele>
        <time>2018-04-15T07:52:10Z</time>
      </trkpt>
      <trkpt lat="43.52942" lon="5.89495">
        <ele>383</ele>
        <time>2018-04-15T07:52:15Z</time>
      </trkpt>
      <trkpt lat="43.52961" lon="5.89487">
        <ele>383</ele>
        <time>2018-04-15T07:52:21Z</time>
      </trkpt>
      <trkpt lat="43.5298" lon="5.89476">
        <ele>383</ele>
        <time>2018-04-15T07:52:27Z</time>
      </trkpt>
      <trkpt lat="43.53" lon="5.89469">
        <ele>381</ele>
        <time>2018-04-15T07:52:34Z</time>
      </trkpt>
      <trkpt lat="43.53018" lon="5.89459">
        <ele>382</ele>
        <time>2018-04-15T07:52:39Z</time>
      </trkpt>
      <trkpt lat="43.53037" lon="5.89446">
        <ele>382</ele>
        <time>2018-04-15T07:52:45Z</time>
      </trkpt>
      <trkpt lat="43.53055" lon="5.89434">
        <ele>382</ele>
        <time>2018-04-15T07:52:52Z</time>
      </trkpt>
      <trkpt lat="43.5307" lon="5.8942">
        <ele>382</ele>
        <time>2018-04-15T07:53:01Z</time>
      </trkpt>
      <trkpt lat="43.53087" lon="5.89405">
        <ele>386</ele>
        <time>2018-04-15T07:53:09Z</time>
      </trkpt>
      <trkpt lat="43.53101" lon="5.89388">
        <ele>388</ele>
        <time>2018-04-15T07:53:15Z</time>
      </trkpt>
      <trkpt lat="43.53116" lon="5.89371">
        <ele>390</ele>
        <time>2018-04-15T07:53:23Z</time>
      </trkpt>
      <trkpt lat="43.53131" lon="5.89358">
        <ele>390</ele>
        <time>2018-04-15T07:53:32Z</time>
      </trkpt>
      <trkpt lat="43.53149" lon="5.89345">
        <ele>391</ele>
        <time>2018-04-15T07:53:40Z</time>
      </trkpt>
      <trkpt lat="43.53169" lon="5.89336">
        <ele>391</ele>
        <time>2018-04-15T07:53:46Z</time>
      </trkpt>
      <trkpt lat="43.53186" lon="5.89327">
        <ele>393</ele>
        <time>2018-04-15T07:53:57Z</time>
      </trkpt>
      <trkpt lat="43.53202" lon="5.89316">
        <ele>393</ele>
        <time>2018-04-15T07:54:06Z</time>
      </trkpt>
      <trkpt lat="43.5322" lon="5.89302">
        <ele>393</ele>
        <time>2018-04-15T07:54:14Z</time>
      </trkpt>
      <trkpt lat="43.53238" lon="5.89288">
        <ele>394</ele>
        <time>2018-04-15T07:54:21Z</time>
      </trkpt>
      <trkpt lat="43.53253" lon="5.89273">
        <ele>392</ele>
        <time>2018-04-15T07:54:28Z</time>
      </trkpt>
      <trkpt lat="43.5327" lon="5.89259">
        <ele>393</ele>
        <time>2018-04-15T07:54:36Z</time>
      </trkpt>
      <trkpt lat="43.53287" lon="5.89246">
        <ele>398</ele>
        <time>2018-04-15T07:54:45Z</time>
      </trkpt>
      <trkpt lat="43.53304" lon="5.89232">
        <ele>398</ele>
        <time>2018-04-15T07:54:54Z</time>
      </trkpt>
      <trkpt lat="43.5332" lon="5.89217">
        <ele>398</ele>
        <time>2018-04-15T07:55:01Z</time>
      </trkpt>
      <trkpt lat="43.53337" lon="5.89204">
        <ele>396</ele>
        <time>2018-04-15T07:55:09Z</time>
      </trkpt>
      <trkpt lat="43.53354" lon="5.89189">
        <ele>397</ele>
        <time>2018-04-15T07:55:16Z</time>
      </trkpt>
      <trkpt lat="43.5337" lon="5.89175">
        <ele>397</ele>
        <time>2018-04-15T07:55:22Z</time>
      </trkpt>
      <trkpt lat="43.53384" lon="5.8916">
        <ele>403</ele>
        <time>2018-04-15T07:55:29Z</time>
      </trkpt>
      <trkpt lat="43.534" lon="5.89144">
        <ele>402</ele>
        <time>2018-04-15T07:55:36Z</time>
      </trkpt>
      <trkpt lat="43.53418" lon="5.89129">
        <ele>398</ele>
        <time>2018-04-15T07:55:43Z</time>
      </trkpt>
      <trkpt lat="43.53433" lon="5.89114">
        <ele>398</ele>
        <time>2018-04-15T07:55:52Z</time>
      </trkpt>
      <trkpt lat="43.53447" lon="5.89097">
        <ele>398</ele>
        <time>2018-04-15T07:56:01Z</time>
      </trkpt>
      <trkpt lat="43.53455" lon="5.89074">
        <ele>398</ele>
        <time>2018-04-15T07:56:10Z</time>
      </trkpt>
      <trkpt lat="43.53459" lon="5.89048">
        <ele>398</ele>
        <time>2018-04-15T07:56:17Z</time>
      </trkpt>
      <trkpt lat="43.53453" lon="5.89022">
        <ele>399</ele>
        <time>2018-04-15T07:56:26Z</time>
      </trkpt>
      <trkpt lat="43.53437" lon="5.89007">
        <ele>401</ele>
        <time>2018-04-15T07:56:35Z</time>
      </trkpt>
      <trkpt lat="43.5342" lon="5.89">
        <ele>404</ele>
        <time>2018-04-15T07:56:43Z</time>
      </trkpt>
      <trkpt lat="43.53403" lon="5.88991">
        <ele>406</ele>
        <time>2018-04-15T07:56:49Z</time>
      </trkpt>
      <trkpt lat="43.53387" lon="5.88974">
        <ele>407</ele>
        <time>2018-04-15T07:56:57Z</time>
      </trkpt>
      <trkpt lat="43.53375" lon="5.88955">
        <ele>407</ele>
        <time>2018-04-15T07:57:04Z</time>
      </trkpt>
      <trkpt lat="43.53363" lon="5.88932">
        <ele>408</ele>
        <time>2018-04-15T07:57:11Z</time>
      </trkpt>
      <trkpt lat="43.53351" lon="5.88913">
        <ele>408</ele>
        <time>2018-04-15T07:57:17Z</time>
      </trkpt>
      <trkpt lat="43.5334" lon="5.88892">
        <ele>407</ele>
        <time>2018-04-15T07:57:22Z</time>
      </trkpt>
      <trkpt lat="43.53328" lon="5.88873">
        <ele>413</ele>
        <time>2018-04-15T07:57:27Z</time>
      </trkpt>
      <trkpt lat="43.53314" lon="5.88851">
        <ele>413</ele>
        <time>2018-04-15T07:57:33Z</time>
      </trkpt>
      <trkpt lat="43.53299" lon="5.88836">
        <ele>414</ele>
        <time>2018-04-15T07:57:39Z</time>
      </trkpt>
      <trkpt lat="43.53282" lon="5.88822">
        <ele>412</ele>
        <time>2018-04-15T07:57:45Z</time>
      </trkpt>
      <trkpt lat="43.53265" lon="5.88809">
        <ele>413</ele>
        <time>2018-04-15T07:57:51Z</time>
      </trkpt>
      <trkpt lat="43.53247" lon="5.88793">
        <ele>419</ele>
        <time>2018-04-15T07:57:58Z</time>
      </trkpt>
      <trkpt lat="43.53238" lon="5.8877">
        <ele>417</ele>
        <time>2018-04-15T07:58:04Z</time>
      </trkpt>
      <trkpt lat="43.53255" lon="5.88756">
        <ele>411</ele>
        <time>2018-04-15T07:58:11Z</time>
      </trkpt>
      <trkpt lat="43.5327" lon="5.88735">
        <ele>411</ele>
        <time>2018-04-15T07:58:18Z</time>
      </trkpt>
      <trkpt lat="43.53274" lon="5.88707">
        <ele>412</ele>
        <time>2018-04-15T07:58:22Z</time>
      </trkpt>
      <trkpt lat="43.53288" lon="5.88685">
        <ele>413</ele>
        <time>2018-04-15T07:58:29Z</time>
      </trkpt>
      <trkpt lat="43.53309" lon="5.88683">
        <ele>413</ele>
        <time>2018-04-15T07:58:34Z</time>
      </trkpt>
      <trkpt lat="43.53329" lon="5.88691">
        <ele>413</ele>
        <time>2018-04-15T07:58:40Z</time>
      </trkpt>
      <trkpt lat="43.53349" lon="5.88698">
        <ele>414</ele>
        <time>2018-04-15T07:58:46Z</time>
      </trkpt>
      <trkpt lat="43.53367" lon="5.88703">
        <ele>415</ele>
        <time>2018-04-15T07:58:52Z</time>
      </trkpt>
      <trkpt lat="43.53386" lon="5.8871">
        <ele>415</ele>
        <time>2018-04-15T07:58:59Z</time>
      </trkpt>
      <trkpt lat="43.53404" lon="5.88718">
        <ele>415</ele>
        <time>2018-04-15T07:59:07Z</time>
      </trkpt>
      <trkpt lat="43.53422" lon="5.88728">
        <ele>416</ele>
        <time>2018-04-15T07:59:16Z</time>
      </trkpt>
      <trkpt lat="43.53441" lon="5.88732">
        <ele>416</ele>
        <time>2018-04-15T07:59:24Z</time>
      </trkpt>
      <trkpt lat="43.5346" lon="5.88728">
        <ele>417</ele>
        <time>2018-04-15T07:59:33Z</time>
      </trkpt>
      <trkpt lat="43.5348" lon="5.8873">
        <ele>416</ele>
        <time>2018-04-15T07:59:45Z</time>
      </trkpt>
      <trkpt lat="43.53497" lon="5.88723">
        <ele>416</ele>
        <time>2018-04-15T07:59:54Z</time>
      </trkpt>
      <trkpt lat="43.53514" lon="5.8871">
        <ele>414</ele>
        <time>2018-04-15T08:00:02Z</time>
      </trkpt>
      <trkpt lat="43.53527" lon="5.8869">
        <ele>414</ele>
        <time>2018-04-15T08:00:10Z</time>
      </trkpt>
      <trkpt lat="43.53538" lon="5.8867">
        <ele>414</ele>
        <time>2018-04-15T08:00:17Z</time>
      </trkpt>
      <trkpt lat="43.53553" lon="5.88647">
        <ele>418</ele>
        <time>2018-04-15T08:00:25Z</time>
      </trkpt>
      <trkpt lat="43.53572" lon="5.88638">
        <ele>417</ele>
        <time>2018-04-15T08:00:31Z</time>
      </trkpt>
      <trkpt lat="43.5359" lon="5.88634">
        <ele>414</ele>
        <time>2018-04-15T08:00:37Z</time>
      </trkpt>
      <trkpt lat="43.53609" lon="5.88628">
        <ele>414</ele>
        <time>2018-04-15T08:00:44Z</time>
      </trkpt>
      <trkpt lat="43.53627" lon="5.88618">
        <ele>415</ele>
        <time>2018-04-15T08:00:52Z</time>
      </trkpt>
      <trkpt lat="43.53643" lon="5.88606">
        <ele>415</ele>
        <time>2018-04-15T08:01:00Z</time>
      </trkpt>
      <trkpt lat="43.53661" lon="5.88597">
        <ele>416</ele>
        <time>2018-04-15T08:01:07Z</time>
      </trkpt>
      <trkpt lat="43.53677" lon="5.88581">
        <ele>419</ele>
        <time>2018-04-15T08:01:14Z</time>
      </trkpt>
      <trkpt lat="43.53692" lon="5.88564">
        <ele>421</ele>
        <time>2018-04-15T08:01:22Z</time>
      </trkpt>
      <trkpt lat="43.53706" lon="5.88545">
        <ele>422</ele>
        <time>2018-04-15T08:01:30Z</time>
      </trkpt>
      <trkpt lat="43.53719" lon="5.88526">
        <ele>422</ele>
        <time>2018-04-15T08:01:38Z</time>
      </trkpt>
      <trkpt lat="43.5373" lon="5.88501">
        <ele>422</ele>
        <time>2018-04-15T08:01:46Z</time>
      </trkpt>
      <trkpt lat="43.53738" lon="5.88477">
        <ele>427</ele>
        <time>2018-04-15T08:01:56Z</time>
      </trkpt>
      <trkpt lat="43.53752" lon="5.88462">
        <ele>425</ele>
        <time>2018-04-15T08:02:03Z</time>
      </trkpt>
      <trkpt lat="43.53771" lon="5.88452">
        <ele>425</ele>
        <time>2018-04-15T08:02:10Z</time>
      </trkpt>
      <trkpt lat="43.53788" lon="5.88436">
        <ele>426</ele>
        <time>2018-04-15T08:02:14Z</time>
      </trkpt>
      <trkpt lat="43.53806" lon="5.88436">
        <ele>425</ele>
        <time>2018-04-15T08:02:21Z</time>
      </trkpt>
      <trkpt lat="43.53824" lon="5.8844">
        <ele>425</ele>
        <time>2018-04-15T08:02:28Z</time>
      </trkpt>
      <trkpt lat="43.53843" lon="5.88445">
        <ele>429</ele>
        <time>2018-04-15T08:02:34Z</time>
      </trkpt>
      <trkpt lat="43.53861" lon="5.88439">
        <ele>430</ele>
        <time>2018-04-15T08:02:47Z</time>
      </trkpt>
      <trkpt lat="43.53881" lon="5.88437">
        <ele>431</ele>
        <time>2018-04-15T08:02:58Z</time>
      </trkpt>
      <trkpt lat="43.53899" lon="5.88435">
        <ele>434</ele>
        <time>2018-04-15T08:03:07Z</time>
      </trkpt>
      <trkpt lat="43.53919" lon="5.88436">
        <ele>438</ele>
        <time>2018-04-15T08:03:19Z</time>
      </trkpt>
      <trkpt lat="43.53938" lon="5.88438">
        <ele>438</ele>
        <time>2018-04-15T08:03:28Z</time>
      </trkpt>
      <trkpt lat="43.53957" lon="5.88448">
        <ele>438</ele>
        <time>2018-04-15T08:03:39Z</time>
      </trkpt>
      <trkpt lat="43.53975" lon="5.88454">
        <ele>438</ele>
        <time>2018-04-15T08:03:47Z</time>
      </trkpt>
      <trkpt lat="43.53993" lon="5.88453">
        <ele>438</ele>
        <time>2018-04-15T08:03:57Z</time>
      </trkpt>
      <trkpt lat="43.54012" lon="5.88453">
        <ele>437</ele>
        <time>2018-04-15T08:04:06Z</time>
      </trkpt>
      <trkpt lat="43.54029" lon="5.88444">
        <ele>437</ele>
        <time>2018-04-15T08:04:14Z</time>
      </trkpt>
      <trkpt lat="43.54047" lon="5.88435">
        <ele>437</ele>
        <time>2018-04-15T08:04:21Z</time>
      </trkpt>
      <trkpt lat="43.54068" lon="5.88426">
        <ele>436</ele>
        <time>2018-04-15T08:04:28Z</time>
      </trkpt>
      <trkpt lat="43.54086" lon="5.88414">
        <ele>438</ele>
        <time>2018-04-15T08:04:34Z</time>
      </trkpt>
      <trkpt lat="43.54104" lon="5.88399">
        <ele>440</ele>
        <time>2018-04-15T08:04:40Z</time>
      </trkpt>
      <trkpt lat="43.5412" lon="5.88384">
        <ele>441</ele>
        <time>2018-04-15T08:04:46Z</time>
      </trkpt>
      <trkpt lat="43.54138" lon="5.8837">
        <ele>442</ele>
        <time>2018-04-15T08:04:53Z</time>
      </trkpt>
      <trkpt lat="43.54154" lon="5.88357">
        <ele>442</ele>
        <time>2018-04-15T08:05:00Z</time>
      </trkpt>
      <trkpt lat="43.54173" lon="5.88344">
        <ele>443</ele>
        <time>2018-04-15T08:05:05Z</time>
      </trkpt>
      <trkpt lat="43.54193" lon="5.88337">
        <ele>443</ele>
        <time>2018-04-15T08:05:11Z</time>
      </trkpt>
      <trkpt lat="43.54213" lon="5.88332">
        <ele>447</ele>
        <time>2018-04-15T08:05:19Z</time>
      </trkpt>
      <trkpt lat="43.54232" lon="5.88328">
        <ele>446</ele>
        <time>2018-04-15T08:06:42Z</time>
      </trkpt>
      <trkpt lat="43.5425" lon="5.88323">
        <ele>446</ele>
        <time>2018-04-15T08:07:02Z</time>
      </trkpt>
      <trkpt lat="43.54267" lon="5.88313">
        <ele>446</ele>
        <time>2018-04-15T08:07:14Z</time>
      </trkpt>
      <trkpt lat="43.54282" lon="5.883">
        <ele>447</ele>
        <time>2018-04-15T08:07:22Z</time>
      </trkpt>
      <trkpt lat="43.54301" lon="5.88287">
        <ele>448</ele>
        <time>2018-04-15T08:07:29Z</time>
      </trkpt>
      <trkpt lat="43.54318" lon="5.88274">
        <ele>448</ele>
        <time>2018-04-15T08:07:34Z</time>
      </trkpt>
      <trkpt lat="43.54336" lon="5.88259">
        <ele>449</ele>
        <time>2018-04-15T08:07:41Z</time>
      </trkpt>
      <trkpt lat="43.54354" lon="5.88248">
        <ele>451</ele>
        <time>2018-04-15T08:07:49Z</time>
      </trkpt>
      <trkpt lat="43.54369" lon="5.88235">
        <ele>451</ele>
        <time>2018-04-15T08:07:55Z</time>
      </trkpt>
      <trkpt lat="43.54388" lon="5.88219">
        <ele>450</ele>
        <time>2018-04-15T08:08:01Z</time>
      </trkpt>
      <trkpt lat="43.54404" lon="5.88203">
        <ele>451</ele>
        <time>2018-04-15T08:08:08Z</time>
      </trkpt>
      <trkpt lat="43.54422" lon="5.88192">
        <ele>448</ele>
        <time>2018-04-15T08:08:14Z</time>
      </trkpt>
      <trkpt lat="43.54438" lon="5.88179">
        <ele>448</ele>
        <time>2018-04-15T08:08:21Z</time>
      </trkpt>
      <trkpt lat="43.54441" lon="5.88152">
        <ele>453</ele>
        <time>2018-04-15T08:08:30Z</time>
      </trkpt>
      <trkpt lat="43.54453" lon="5.88132">
        <ele>454</ele>
        <time>2018-04-15T08:08:41Z</time>
      </trkpt>
      <trkpt lat="43.54466" lon="5.88115">
        <ele>454</ele>
        <time>2018-04-15T08:08:49Z</time>
      </trkpt>
      <trkpt lat="43.54478" lon="5.88094">
        <ele>454</ele>
        <time>2018-04-15T08:08:59Z</time>
      </trkpt>
      <trkpt lat="43.54493" lon="5.88076">
        <ele>456</ele>
        <time>2018-04-15T08:09:06Z</time>
      </trkpt>
      <trkpt lat="43.54507" lon="5.88058">
        <ele>453</ele>
        <time>2018-04-15T08:09:14Z</time>
      </trkpt>
      <trkpt lat="43.54517" lon="5.88032">
        <ele>454</ele>
        <time>2018-04-15T08:09:21Z</time>
      </trkpt>
      <trkpt lat="43.54534" lon="5.8802">
        <ele>454</ele>
        <time>2018-04-15T08:09:26Z</time>
      </trkpt>
      <trkpt lat="43.54548" lon="5.88005">
        <ele>454</ele>
        <time>2018-04-15T08:09:31Z</time>
      </trkpt>
      <trkpt lat="43.54563" lon="5.87986">
        <ele>457</ele>
        <time>2018-04-15T08:09:49Z</time>
      </trkpt>
      <trkpt lat="43.54579" lon="5.87968">
        <ele>457</ele>
        <time>2018-04-15T08:10:17Z</time>
      </trkpt>
      <trkpt lat="43.54596" lon="5.87958">
        <ele>456</ele>
        <time>2018-04-15T08:10:27Z</time>
      </trkpt>
      <trkpt lat="43.54611" lon="5.8794">
        <ele>457</ele>
        <time>2018-04-15T08:10:38Z</time>
      </trkpt>
      <trkpt lat="43.54627" lon="5.87929">
        <ele>457</ele>
        <time>2018-04-15T08:10:46Z</time>
      </trkpt>
      <trkpt lat="43.54639" lon="5.87909">
        <ele>460</ele>
        <time>2018-04-15T08:10:55Z</time>
      </trkpt>
      <trkpt lat="43.54651" lon="5.87888">
        <ele>460</ele>
        <time>2018-04-15T08:11:04Z</time>
      </trkpt>
      <trkpt lat="43.54664" lon="5.8787">
        <ele>460</ele>
        <time>2018-04-15T08:11:13Z</time>
      </trkpt>
      <trkpt lat="43.54682" lon="5.87881">
        <ele>456</ele>
        <time>2018-04-15T08:12:09Z</time>
      </trkpt>
      <trkpt lat="43.54697" lon="5.87894">
        <ele>456</ele>
        <time>2018-04-15T08:12:16Z</time>
      </trkpt>
      <trkpt lat="43.54711" lon="5.87912">
        <ele>455</ele>
        <time>2018-04-15T08:12:25Z</time>
      </trkpt>
      <trkpt lat="43.54726" lon="5.87933">
        <ele>454</ele>
        <time>2018-04-15T08:12:32Z</time>
      </trkpt>
      <trkpt lat="43.54741" lon="5.8795">
        <ele>454</ele>
        <time>2018-04-15T08:12:36Z</time>
      </trkpt>
      <trkpt lat="43.54746" lon="5.87979">
        <ele>454</ele>
        <time>2018-04-15T08:12:42Z</time>
      </trkpt>
      <trkpt lat="43.54752" lon="5.88005">
        <ele>454</ele>
        <time>2018-04-15T08:12:47Z</time>
      </trkpt>
      <trkpt lat="43.54754" lon="5.88034">
        <ele>454</ele>
        <time>2018-04-15T08:12:52Z</time>
      </trkpt>
      <trkpt lat="43.54753" lon="5.88062">
        <ele>455</ele>
        <time>2018-04-15T08:12:58Z</time>
      </trkpt>
      <trkpt lat="43.54754" lon="5.88091">
        <ele>455</ele>
        <time>2018-04-15T08:13:04Z</time>
      </trkpt>
      <trkpt lat="43.54754" lon="5.88118">
        <ele>454</ele>
        <time>2018-04-15T08:13:09Z</time>
      </trkpt>
      <trkpt lat="43.54757" lon="5.88144">
        <ele>454</ele>
        <time>2018-04-15T08:13:15Z</time>
      </trkpt>
      <trkpt lat="43.5476" lon="5.88171">
        <ele>454</ele>
        <time>2018-04-15T08:13:20Z</time>
      </trkpt>
      <trkpt lat="43.54761" lon="5.88204">
        <ele>453</ele>
        <time>2018-04-15T08:13:24Z</time>
      </trkpt>
      <trkpt lat="43.54759" lon="5.88233">
        <ele>453</ele>
        <time>2018-04-15T08:13:27Z</time>
      </trkpt>
      <trkpt lat="43.54761" lon="5.88261">
        <ele>452</ele>
        <time>2018-04-15T08:13:32Z</time>
      </trkpt>
      <trkpt lat="43.54773" lon="5.8829">
        <ele>450</ele>
        <time>2018-04-15T08:13:37Z</time>
      </trkpt>
      <trkpt lat="43.54785" lon="5.88313">
        <ele>449</ele>
        <time>2018-04-15T08:13:40Z</time>
      </trkpt>
      <trkpt lat="43.54796" lon="5.88342">
        <ele>446</ele>
        <time>2018-04-15T08:13:43Z</time>
      </trkpt>
      <trkpt lat="43.54806" lon="5.88367">
        <ele>445</ele>
        <time>2018-04-15T08:13:46Z</time>
      </trkpt>
      <trkpt lat="43.54818" lon="5.88391">
        <ele>444</ele>
        <time>2018-04-15T08:13:49Z</time>
      </trkpt>
      <trkpt lat="43.54831" lon="5.88417">
        <ele>441</ele>
        <time>2018-04-15T08:13:52Z</time>
      </trkpt>
      <trkpt lat="43.54842" lon="5.88445">
        <ele>434</ele>
        <time>2018-04-15T08:13:56Z</time>
      </trkpt>
      <trkpt lat="43.54839" lon="5.88475">
        <ele>432</ele>
        <time>2018-04-15T08:14:00Z</time>
      </trkpt>
      <trkpt lat="43.54833" lon="5.885">
        <ele>431</ele>
        <time>2018-04-15T08:14:03Z</time>
      </trkpt>
      <trkpt lat="43.54847" lon="5.88521">
        <ele>426</ele>
        <time>2018-04-15T08:14:10Z</time>
      </trkpt>
      <trkpt lat="43.54859" lon="5.88545">
        <ele>424</ele>
        <time>2018-04-15T08:14:14Z</time>
      </trkpt>
      <trkpt lat="43.54868" lon="5.88573">
        <ele>422</ele>
        <time>2018-04-15T08:14:17Z</time>
      </trkpt>
      <trkpt lat="43.54874" lon="5.88599">
        <ele>417</ele>
        <time>2018-04-15T08:14:20Z</time>
      </trkpt>
      <trkpt lat="43.54881" lon="5.88628">
        <ele>415</ele>
        <time>2018-04-15T08:14:24Z</time>
      </trkpt>
      <trkpt lat="43.54886" lon="5.88657">
        <ele>414</ele>
        <time>2018-04-15T08:14:28Z</time>
      </trkpt>
      <trkpt lat="43.54892" lon="5.88682">
        <ele>409</ele>
        <time>2018-04-15T08:14:31Z</time>
      </trkpt>
      <trkpt lat="43.54901" lon="5.88707">
        <ele>409</ele>
        <time>2018-04-15T08:14:34Z</time>
      </trkpt>
      <trkpt lat="43.54909" lon="5.88741">
        <ele>406</ele>
        <time>2018-04-15T08:14:38Z</time>
      </trkpt>
      <trkpt lat="43.54913" lon="5.88765">
        <ele>404</ele>
        <time>2018-04-15T08:14:41Z</time>
      </trkpt>
      <trkpt lat="43.54919" lon="5.88789">
        <ele>402</ele>
        <time>2018-04-15T08:14:44Z</time>
      </trkpt>
      <trkpt lat="43.54931" lon="5.88809">
        <ele>401</ele>
        <time>2018-04-15T08:14:50Z</time>
      </trkpt>
      <trkpt lat="43.54949" lon="5.88811">
        <ele>402</ele>
        <time>2018-04-15T08:14:58Z</time>
      </trkpt>
      <trkpt lat="43.54967" lon="5.88803">
        <ele>402</ele>
        <time>2018-04-15T08:15:14Z</time>
      </trkpt>
      <trkpt lat="43.54981" lon="5.88785">
        <ele>402</ele>
        <time>2018-04-15T08:15:23Z</time>
      </trkpt>
      <trkpt lat="43.54992" lon="5.88764">
        <ele>402</ele>
        <time>2018-04-15T08:15:34Z</time>
      </trkpt>
      <trkpt lat="43.55008" lon="5.88743">
        <ele>405</ele>
        <time>2018-04-15T08:15:46Z</time>
      </trkpt>
      <trkpt lat="43.55026" lon="5.88737">
        <ele>407</ele>
        <time>2018-04-15T08:15:54Z</time>
      </trkpt>
      <trkpt lat="43.55044" lon="5.88747">
        <ele>410</ele>
        <time>2018-04-15T08:16:08Z</time>
      </trkpt>
      <trkpt lat="43.55061" lon="5.88759">
        <ele>413</ele>
        <time>2018-04-15T08:16:19Z</time>
      </trkpt>
      <trkpt lat="43.55078" lon="5.88773">
        <ele>414</ele>
        <time>2018-04-15T08:16:32Z</time>
      </trkpt>
      <trkpt lat="43.55094" lon="5.88784">
        <ele>423</ele>
        <time>2018-04-15T08:16:44Z</time>
      </trkpt>
      <trkpt lat="43.5511" lon="5.88799">
        <ele>425</ele>
        <time>2018-04-15T08:16:54Z</time>
      </trkpt>
      <trkpt lat="43.55127" lon="5.88811">
        <ele>426</ele>
        <time>2018-04-15T08:17:08Z</time>
      </trkpt>
      <trkpt lat="43.55143" lon="5.88823">
        <ele>428</ele>
        <time>2018-04-15T08:17:20Z</time>
      </trkpt>
      <trkpt lat="43.55161" lon="5.88833">
        <ele>431</ele>
        <time>2018-04-15T08:17:32Z</time>
      </trkpt>
      <trkpt lat="43.55165" lon="5.88857">
        <ele>429</ele>
        <time>2018-04-15T08:17:50Z</time>
      </trkpt>
      <trkpt lat="43.5518" lon="5.88872">
        <ele>431</ele>
        <time>2018-04-15T08:18:01Z</time>
      </trkpt>
      <trkpt lat="43.55198" lon="5.88874">
        <ele>431</ele>
        <time>2018-04-15T08:18:13Z</time>
      </trkpt>
      <trkpt lat="43.55217" lon="5.88889">
        <ele>431</ele>
        <time>2018-04-15T08:18:20Z</time>
      </trkpt>
      <trkpt lat="43.5523" lon="5.88909">
        <ele>430</ele>
        <time>2018-04-15T08:18:23Z</time>
      </trkpt>
      <trkpt lat="43.55233" lon="5.88939">
        <ele>427</ele>
        <time>2018-04-15T08:18:28Z</time>
      </trkpt>
      <trkpt lat="43.55237" lon="5.88964">
        <ele>427</ele>
        <time>2018-04-15T08:18:34Z</time>
      </trkpt>
      <trkpt lat="43.55248" lon="5.88985">
        <ele>426</ele>
        <time>2018-04-15T08:18:44Z</time>
      </trkpt>
      <trkpt lat="43.5526" lon="5.89009">
        <ele>427</ele>
        <time>2018-04-15T08:18:52Z</time>
      </trkpt>
      <trkpt lat="43.55277" lon="5.89027">
        <ele>429</ele>
        <time>2018-04-15T08:18:58Z</time>
      </trkpt>
      <trkpt lat="43.55287" lon="5.8905">
        <ele>430</ele>
        <time>2018-04-15T08:19:05Z</time>
      </trkpt>
      <trkpt lat="43.553" lon="5.89067">
        <ele>431</ele>
        <time>2018-04-15T08:21:23Z</time>
      </trkpt>
      <trkpt lat="43.55317" lon="5.89057">
        <ele>432</ele>
        <time>2018-04-15T08:21:29Z</time>
      </trkpt>
      <trkpt lat="43.55335" lon="5.89046">
        <ele>436</ele>
        <time>2018-04-15T08:21:38Z</time>
      </trkpt>
      <trkpt lat="43.55353" lon="5.89037">
        <ele>437</ele>
        <time>2018-04-15T08:21:47Z</time>
      </trkpt>
      <trkpt lat="43.55371" lon="5.89028">
        <ele>437</ele>
        <time>2018-04-15T08:21:55Z</time>
      </trkpt>
      <trkpt lat="43.55388" lon="5.89021">
        <ele>438</ele>
        <time>2018-04-15T08:22:03Z</time>
      </trkpt>
      <trkpt lat="43.55405" lon="5.8901">
        <ele>438</ele>
        <time>2018-04-15T08:22:12Z</time>
      </trkpt>
      <trkpt lat="43.55423" lon="5.88996">
        <ele>440</ele>
        <time>2018-04-15T08:22:21Z</time>
      </trkpt>
      <trkpt lat="43.55438" lon="5.88984">
        <ele>441</ele>
        <time>2018-04-15T08:22:32Z</time>
      </trkpt>
      <trkpt lat="43.55455" lon="5.88971">
        <ele>441</ele>
        <time>2018-04-15T08:22:42Z</time>
      </trkpt>
      <trkpt lat="43.55473" lon="5.8896">
        <ele>442</ele>
        <time>2018-04-15T08:22:51Z</time>
      </trkpt>
      <trkpt lat="43.5549" lon="5.88948">
        <ele>442</ele>
        <time>2018-04-15T08:23:00Z</time>
      </trkpt>
      <trkpt lat="43.55508" lon="5.8894">
        <ele>444</ele>
        <time>2018-04-15T08:23:07Z</time>
      </trkpt>
      <trkpt lat="43.55527" lon="5.88935">
        <ele>444</ele>
        <time>2018-04-15T08:23:15Z</time>
      </trkpt>
      <trkpt lat="43.55545" lon="5.88933">
        <ele>444</ele>
        <time>2018-04-15T08:23:23Z</time>
      </trkpt>
      <trkpt lat="43.55563" lon="5.88919">
        <ele>444</ele>
        <time>2018-04-15T08:23:32Z</time>
      </trkpt>
      <trkpt lat="43.5558" lon="5.88905">
        <ele>444</ele>
        <time>2018-04-15T08:23:43Z</time>
      </trkpt>
      <trkpt lat="43.55595" lon="5.88887">
        <ele>447</ele>
        <time>2018-04-15T08:23:53Z</time>
      </trkpt>
      <trkpt lat="43.5561" lon="5.88869">
        <ele>447</ele>
        <time>2018-04-15T08:24:01Z</time>
      </trkpt>
      <trkpt lat="43.55628" lon="5.88857">
        <ele>448</ele>
        <time>2018-04-15T08:24:08Z</time>
      </trkpt>
      <trkpt lat="43.55643" lon="5.88841">
        <ele>448</ele>
        <time>2018-04-15T08:24:18Z</time>
      </trkpt>
      <trkpt lat="43.55658" lon="5.88826">
        <ele>449</ele>
        <time>2018-04-15T08:24:26Z</time>
      </trkpt>
      <trkpt lat="43.55672" lon="5.88812">
        <ele>450</ele>
        <time>2018-04-15T08:24:34Z</time>
      </trkpt>
      <trkpt lat="43.55692" lon="5.88805">
        <ele>451</ele>
        <time>2018-04-15T08:24:42Z</time>
      </trkpt>
      <trkpt lat="43.5571" lon="5.88806">
        <ele>451</ele>
        <time>2018-04-15T08:24:51Z</time>
      </trkpt>
      <trkpt lat="43.55729" lon="5.88802">
        <ele>452</ele>
        <time>2018-04-15T08:24:59Z</time>
      </trkpt>
      <trkpt lat="43.55747" lon="5.88797">
        <ele>452</ele>
        <time>2018-04-15T08:25:06Z</time>
      </trkpt>
      <trkpt lat="43.55767" lon="5.88792">
        <ele>454</ele>
        <time>2018-04-15T08:25:14Z</time>
      </trkpt>
      <trkpt lat="43.55785" lon="5.88787">
        <ele>454</ele>
        <time>2018-04-15T08:25:22Z</time>
      </trkpt>
      <trkpt lat="43.55803" lon="5.88782">
        <ele>455</ele>
        <time>2018-04-15T08:25:31Z</time>
      </trkpt>
      <trkpt lat="43.55823" lon="5.88774">
        <ele>456</ele>
        <time>2018-04-15T08:25:41Z</time>
      </trkpt>
      <trkpt lat="43.55841" lon="5.88763">
        <ele>458</ele>
        <time>2018-04-15T08:25:51Z</time>
      </trkpt>
      <trkpt lat="43.55858" lon="5.88749">
        <ele>459</ele>
        <time>2018-04-15T08:25:58Z</time>
      </trkpt>
      <trkpt lat="43.55876" lon="5.8874">
        <ele>459</ele>
        <time>2018-04-15T08:26:06Z</time>
      </trkpt>
      <trkpt lat="43.55893" lon="5.88727">
        <ele>459</ele>
        <time>2018-04-15T08:26:12Z</time>
      </trkpt>
      <trkpt lat="43.55912" lon="5.88718">
        <ele>460</ele>
        <time>2018-04-15T08:26:18Z</time>
      </trkpt>
      <trkpt lat="43.55931" lon="5.88717">
        <ele>460</ele>
        <time>2018-04-15T08:26:25Z</time>
      </trkpt>
      <trkpt lat="43.55951" lon="5.88716">
        <ele>460</ele>
        <time>2018-04-15T08:26:33Z</time>
      </trkpt>
      <trkpt lat="43.55972" lon="5.88716">
        <ele>460</ele>
        <time>2018-04-15T08:26:40Z</time>
      </trkpt>
      <trkpt lat="43.55992" lon="5.88714">
        <ele>460</ele>
        <time>2018-04-15T08:26:48Z</time>
      </trkpt>
      <trkpt lat="43.56009" lon="5.88709">
        <ele>459</ele>
        <time>2018-04-15T08:26:55Z</time>
      </trkpt>
      <trkpt lat="43.56029" lon="5.88711">
        <ele>459</ele>
        <time>2018-04-15T08:27:02Z</time>
      </trkpt>
      <trkpt lat="43.56048" lon="5.88714">
        <ele>459</ele>
        <time>2018-04-15T08:27:08Z</time>
      </trkpt>
      <trkpt lat="43.5603" lon="5.88707">
        <ele>460</ele>
        <time>2018-04-15T08:29:44Z</time>
      </trkpt>
      <trkpt lat="43.56011" lon="5.88697">
        <ele>460</ele>
        <time>2018-04-15T08:29:52Z</time>
      </trkpt>
      <trkpt lat="43.55994" lon="5.88687">
        <ele>460</ele>
        <time>2018-04-15T08:29:59Z</time>
      </trkpt>
      <trkpt lat="43.55978" lon="5.88674">
        <ele>460</ele>
        <time>2018-04-15T08:30:07Z</time>
      </trkpt>
      <trkpt lat="43.55959" lon="5.88665">
        <ele>462</ele>
        <time>2018-04-15T08:30:15Z</time>
      </trkpt>
      <trkpt lat="43.55939" lon="5.88656">
        <ele>462</ele>
        <time>2018-04-15T08:30:21Z</time>
      </trkpt>
      <trkpt lat="43.55921" lon="5.88644">
        <ele>462</ele>
        <time>2018-04-15T08:30:28Z</time>
      </trkpt>
      <trkpt lat="43.55905" lon="5.88633">
        <ele>460</ele>
        <time>2018-04-15T08:30:34Z</time>
      </trkpt>
      <trkpt lat="43.55888" lon="5.88617">
        <ele>460</ele>
        <time>2018-04-15T08:30:42Z</time>
      </trkpt>
      <trkpt lat="43.55869" lon="5.88611">
        <ele>460</ele>
        <time>2018-04-15T08:31:19Z</time>
      </trkpt>
      <trkpt lat="43.55845" lon="5.8861">
        <ele>459</ele>
        <time>2018-04-15T08:32:22Z</time>
      </trkpt>
      <trkpt lat="43.5583" lon="5.88594">
        <ele>455</ele>
        <time>2018-04-15T08:59:38Z</time>
      </trkpt>
      <trkpt lat="43.55812" lon="5.88585">
        <ele>454</ele>
        <time>2018-04-15T08:59:44Z</time>
      </trkpt>
      <trkpt lat="43.55795" lon="5.88577">
        <ele>451</ele>
        <time>2018-04-15T08:59:49Z</time>
      </trkpt>
      <trkpt lat="43.55779" lon="5.88564">
        <ele>450</ele>
        <time>2018-04-15T08:59:54Z</time>
      </trkpt>
      <trkpt lat="43.55768" lon="5.88542">
        <ele>449</ele>
        <time>2018-04-15T09:00:00Z</time>
      </trkpt>
      <trkpt lat="43.55757" lon="5.8852">
        <ele>448</ele>
        <time>2018-04-15T09:00:06Z</time>
      </trkpt>
      <trkpt lat="43.55739" lon="5.88508">
        <ele>444</ele>
        <time>2018-04-15T09:00:17Z</time>
      </trkpt>
      <trkpt lat="43.55719" lon="5.88502">
        <ele>443</ele>
        <time>2018-04-15T09:00:23Z</time>
      </trkpt>
      <trkpt lat="43.55699" lon="5.88505">
        <ele>443</ele>
        <time>2018-04-15T09:00:29Z</time>
      </trkpt>
      <trkpt lat="43.5568" lon="5.88497">
        <ele>443</ele>
        <time>2018-04-15T09:00:35Z</time>
      </trkpt>
      <trkpt lat="43.55665" lon="5.8848">
        <ele>442</ele>
        <time>2018-04-15T09:00:42Z</time>
      </trkpt>
      <trkpt lat="43.55647" lon="5.88483">
        <ele>443</ele>
        <time>2018-04-15T09:00:59Z</time>
      </trkpt>
      <trkpt lat="43.55642" lon="5.8851">
        <ele>442</ele>
        <time>2018-04-15T09:01:08Z</time>
      </trkpt>
      <trkpt lat="43.55634" lon="5.88535">
        <ele>442</ele>
        <time>2018-04-15T09:01:18Z</time>
      </trkpt>
      <trkpt lat="43.55617" lon="5.88546">
        <ele>442</ele>
        <time>2018-04-15T09:01:28Z</time>
      </trkpt>
      <trkpt lat="43.55597" lon="5.88544">
        <ele>442</ele>
        <time>2018-04-15T09:01:36Z</time>
      </trkpt>
      <trkpt lat="43.55584" lon="5.88561">
        <ele>442</ele>
        <time>2018-04-15T09:01:59Z</time>
      </trkpt>
      <trkpt lat="43.55569" lon="5.88545">
        <ele>443</ele>
        <time>2018-04-15T09:02:11Z</time>
      </trkpt>
      <trkpt lat="43.55554" lon="5.8853">
        <ele>444</ele>
        <time>2018-04-15T09:02:23Z</time>
      </trkpt>
      <trkpt lat="43.55538" lon="5.8852">
        <ele>444</ele>
        <time>2018-04-15T09:02:42Z</time>
      </trkpt>
      <trkpt lat="43.55519" lon="5.88511">
        <ele>444</ele>
        <time>2018-04-15T09:02:52Z</time>
      </trkpt>
      <trkpt lat="43.55503" lon="5.88494">
        <ele>446</ele>
        <time>2018-04-15T09:03:03Z</time>
      </trkpt>
      <trkpt lat="43.55488" lon="5.88479">
        <ele>447</ele>
        <time>2018-04-15T09:03:13Z</time>
      </trkpt>
      <trkpt lat="43.55473" lon="5.88464">
        <ele>447</ele>
        <time>2018-04-15T09:03:22Z</time>
      </trkpt>
      <trkpt lat="43.55456" lon="5.88451">
        <ele>447</ele>
        <time>2018-04-15T09:03:33Z</time>
      </trkpt>
      <trkpt lat="43.55442" lon="5.88433">
        <ele>448</ele>
        <time>2018-04-15T09:03:43Z</time>
      </trkpt>
      <trkpt lat="43.55428" lon="5.88416">
        <ele>448</ele>
        <time>2018-04-15T09:03:52Z</time>
      </trkpt>
      <trkpt lat="43.55411" lon="5.88428">
        <ele>445</ele>
        <time>2018-04-15T09:04:09Z</time>
      </trkpt>
      <trkpt lat="43.55398" lon="5.88446">
        <ele>442</ele>
        <time>2018-04-15T09:04:23Z</time>
      </trkpt>
      <trkpt lat="43.55386" lon="5.88467">
        <ele>442</ele>
        <time>2018-04-15T09:04:34Z</time>
      </trkpt>
      <trkpt lat="43.55375" lon="5.88487">
        <ele>441</ele>
        <time>2018-04-15T09:04:42Z</time>
      </trkpt>
      <trkpt lat="43.55363" lon="5.88509">
        <ele>442</ele>
        <time>2018-04-15T09:04:51Z</time>
      </trkpt>
      <trkpt lat="43.55349" lon="5.88525">
        <ele>442</ele>
        <time>2018-04-15T09:04:59Z</time>
      </trkpt>
      <trkpt lat="43.5533" lon="5.88537">
        <ele>436</ele>
        <time>2018-04-15T09:05:10Z</time>
      </trkpt>
      <trkpt lat="43.55315" lon="5.88553">
        <ele>437</ele>
        <time>2018-04-15T09:05:18Z</time>
      </trkpt>
      <trkpt lat="43.55301" lon="5.88572">
        <ele>437</ele>
        <time>2018-04-15T09:05:24Z</time>
      </trkpt>
      <trkpt lat="43.5529" lon="5.88592">
        <ele>441</ele>
        <time>2018-04-15T09:05:30Z</time>
      </trkpt>
      <trkpt lat="43.55279" lon="5.88612">
        <ele>441</ele>
        <time>2018-04-15T09:05:38Z</time>
      </trkpt>
      <trkpt lat="43.55272" lon="5.88637">
        <ele>442</ele>
        <time>2018-04-15T09:05:50Z</time>
      </trkpt>
      <trkpt lat="43.55266" lon="5.88662">
        <ele>443</ele>
        <time>2018-04-15T09:05:58Z</time>
      </trkpt>
      <trkpt lat="43.55256" lon="5.88683">
        <ele>442</ele>
        <time>2018-04-15T09:06:07Z</time>
      </trkpt>
      <trkpt lat="43.55252" lon="5.8871">
        <ele>441</ele>
        <time>2018-04-15T09:06:16Z</time>
      </trkpt>
      <trkpt lat="43.5525" lon="5.88735">
        <ele>439</ele>
        <time>2018-04-15T09:06:27Z</time>
      </trkpt>
      <trkpt lat="43.55245" lon="5.88761">
        <ele>438</ele>
        <time>2018-04-15T09:06:40Z</time>
      </trkpt>
      <trkpt lat="43.55245" lon="5.88786">
        <ele>436</ele>
        <time>2018-04-15T09:06:52Z</time>
      </trkpt>
      <trkpt lat="43.55225" lon="5.88801">
        <ele>435</ele>
        <time>2018-04-15T09:06:56Z</time>
      </trkpt>
      <trkpt lat="43.5522" lon="5.88826">
        <ele>434</ele>
        <time>2018-04-15T09:07:06Z</time>
      </trkpt>
      <trkpt lat="43.55215" lon="5.8885">
        <ele>432</ele>
        <time>2018-04-15T09:07:17Z</time>
      </trkpt>
      <trkpt lat="43.55211" lon="5.88875">
        <ele>431</ele>
        <time>2018-04-15T09:07:27Z</time>
      </trkpt>
      <trkpt lat="43.55198" lon="5.88891">
        <ele>431</ele>
        <time>2018-04-15T09:07:53Z</time>
      </trkpt>
      <trkpt lat="43.55212" lon="5.8891">
        <ele>430</ele>
        <time>2018-04-15T09:09:02Z</time>
      </trkpt>
      <trkpt lat="43.55223" lon="5.88931">
        <ele>427</ele>
        <time>2018-04-15T09:09:08Z</time>
      </trkpt>
      <trkpt lat="43.55229" lon="5.88958">
        <ele>427</ele>
        <time>2018-04-15T09:09:13Z</time>
      </trkpt>
      <trkpt lat="43.55234" lon="5.88985">
        <ele>426</ele>
        <time>2018-04-15T09:09:21Z</time>
      </trkpt>
      <trkpt lat="43.55239" lon="5.8901">
        <ele>425</ele>
        <time>2018-04-15T09:09:30Z</time>
      </trkpt>
      <trkpt lat="43.55252" lon="5.89029">
        <ele>428</ele>
        <time>2018-04-15T09:09:36Z</time>
      </trkpt>
      <trkpt lat="43.55266" lon="5.89048">
        <ele>429</ele>
        <time>2018-04-15T09:09:43Z</time>
      </trkpt>
      <trkpt lat="43.55274" lon="5.89071">
        <ele>430</ele>
        <time>2018-04-15T09:09:53Z</time>
      </trkpt>
      <trkpt lat="43.55268" lon="5.89096">
        <ele>432</ele>
        <time>2018-04-15T09:10:04Z</time>
      </trkpt>
      <trkpt lat="43.55253" lon="5.89114">
        <ele>432</ele>
        <time>2018-04-15T09:10:12Z</time>
      </trkpt>
      <trkpt lat="43.5524" lon="5.89134">
        <ele>427</ele>
        <time>2018-04-15T09:10:18Z</time>
      </trkpt>
      <trkpt lat="43.55227" lon="5.89156">
        <ele>428</ele>
        <time>2018-04-15T09:10:23Z</time>
      </trkpt>
      <trkpt lat="43.55216" lon="5.89178">
        <ele>428</ele>
        <time>2018-04-15T09:10:28Z</time>
      </trkpt>
      <trkpt lat="43.55207" lon="5.89202">
        <ele>428</ele>
        <time>2018-04-15T09:10:32Z</time>
      </trkpt>
      <trkpt lat="43.55194" lon="5.89227">
        <ele>427</ele>
        <time>2018-04-15T09:10:37Z</time>
      </trkpt>
      <trkpt lat="43.55184" lon="5.89252">
        <ele>425</ele>
        <time>2018-04-15T09:10:42Z</time>
      </trkpt>
      <trkpt lat="43.55177" lon="5.89277">
        <ele>425</ele>
        <time>2018-04-15T09:10:47Z</time>
      </trkpt>
      <trkpt lat="43.55159" lon="5.89299">
        <ele>419</ele>
        <time>2018-04-15T09:10:53Z</time>
      </trkpt>
      <trkpt lat="43.55137" lon="5.89303">
        <ele>418</ele>
        <time>2018-04-15T09:10:57Z</time>
      </trkpt>
      <trkpt lat="43.55118" lon="5.89296">
        <ele>418</ele>
        <time>2018-04-15T09:11:01Z</time>
      </trkpt>
      <trkpt lat="43.55097" lon="5.89289">
        <ele>417</ele>
        <time>2018-04-15T09:11:05Z</time>
      </trkpt>
      <trkpt lat="43.55078" lon="5.89279">
        <ele>414</ele>
        <time>2018-04-15T09:11:09Z</time>
      </trkpt>
      <trkpt lat="43.55058" lon="5.89271">
        <ele>414</ele>
        <time>2018-04-15T09:11:13Z</time>
      </trkpt>
      <trkpt lat="43.55037" lon="5.89257">
        <ele>415</ele>
        <time>2018-04-15T09:11:18Z</time>
      </trkpt>
      <trkpt lat="43.5502" lon="5.89247">
        <ele>416</ele>
        <time>2018-04-15T09:11:22Z</time>
      </trkpt>
      <trkpt lat="43.55001" lon="5.89241">
        <ele>416</ele>
        <time>2018-04-15T09:11:26Z</time>
      </trkpt>
      <trkpt lat="43.54982" lon="5.89239">
        <ele>416</ele>
        <time>2018-04-15T09:11:30Z</time>
      </trkpt>
      <trkpt lat="43.5496" lon="5.89238">
        <ele>416</ele>
        <time>2018-04-15T09:11:35Z</time>
      </trkpt>
      <trkpt lat="43.54943" lon="5.89242">
        <ele>416</ele>
        <time>2018-04-15T09:11:40Z</time>
      </trkpt>
      <trkpt lat="43.54921" lon="5.89242">
        <ele>416</ele>
        <time>2018-04-15T09:11:46Z</time>
      </trkpt>
      <trkpt lat="43.549" lon="5.8924">
        <ele>415</ele>
        <time>2018-04-15T09:11:52Z</time>
      </trkpt>
      <trkpt lat="43.54881" lon="5.8924">
        <ele>415</ele>
        <time>2018-04-15T09:11:57Z</time>
      </trkpt>
      <trkpt lat="43.54861" lon="5.89242">
        <ele>415</ele>
        <time>2018-04-15T09:12:02Z</time>
      </trkpt>
      <trkpt lat="43.54843" lon="5.89242">
        <ele>415</ele>
        <time>2018-04-15T09:12:06Z</time>
      </trkpt>
      <trkpt lat="43.54824" lon="5.89244">
        <ele>414</ele>
        <time>2018-04-15T09:12:11Z</time>
      </trkpt>
      <trkpt lat="43.54806" lon="5.89246">
        <ele>414</ele>
        <time>2018-04-15T09:12:15Z</time>
      </trkpt>
      <trkpt lat="43.54786" lon="5.89251">
        <ele>415</ele>
        <time>2018-04-15T09:12:20Z</time>
      </trkpt>
      <trkpt lat="43.54767" lon="5.89256">
        <ele>414</ele>
        <time>2018-04-15T09:12:24Z</time>
      </trkpt>
      <trkpt lat="43.54746" lon="5.89261">
        <ele>413</ele>
        <time>2018-04-15T09:12:29Z</time>
      </trkpt>
      <trkpt lat="43.54728" lon="5.89265">
        <ele>414</ele>
        <time>2018-04-15T09:12:32Z</time>
      </trkpt>
      <trkpt lat="43.54706" lon="5.89272">
        <ele>414</ele>
        <time>2018-04-15T09:12:36Z</time>
      </trkpt>
      <trkpt lat="43.54688" lon="5.8928">
        <ele>414</ele>
        <time>2018-04-15T09:12:41Z</time>
      </trkpt>
      <trkpt lat="43.54669" lon="5.89293">
        <ele>414</ele>
        <time>2018-04-15T09:12:47Z</time>
      </trkpt>
      <trkpt lat="43.54652" lon="5.89304">
        <ele>411</ele>
        <time>2018-04-15T09:12:51Z</time>
      </trkpt>
      <trkpt lat="43.54635" lon="5.89312">
        <ele>411</ele>
        <time>2018-04-15T09:12:54Z</time>
      </trkpt>
      <trkpt lat="43.54613" lon="5.89322">
        <ele>410</ele>
        <time>2018-04-15T09:12:58Z</time>
      </trkpt>
      <trkpt lat="43.54593" lon="5.89328">
        <ele>408</ele>
        <time>2018-04-15T09:13:01Z</time>
      </trkpt>
      <trkpt lat="43.54572" lon="5.89328">
        <ele>405</ele>
        <time>2018-04-15T09:13:04Z</time>
      </trkpt>
      <trkpt lat="43.54554" lon="5.89326">
        <ele>404</ele>
        <time>2018-04-15T09:13:06Z</time>
      </trkpt>
      <trkpt lat="43.54531" lon="5.8932">
        <ele>402</ele>
        <time>2018-04-15T09:13:09Z</time>
      </trkpt>
      <trkpt lat="43.54507" lon="5.89312">
        <ele>400</ele>
        <time>2018-04-15T09:13:12Z</time>
      </trkpt>
      <trkpt lat="43.54482" lon="5.89315">
        <ele>395</ele>
        <time>2018-04-15T09:13:15Z</time>
      </trkpt>
      <trkpt lat="43.54463" lon="5.8933">
        <ele>394</ele>
        <time>2018-04-15T09:13:18Z</time>
      </trkpt>
      <trkpt lat="43.5444" lon="5.89339">
        <ele>393</ele>
        <time>2018-04-15T09:13:21Z</time>
      </trkpt>
      <trkpt lat="43.54423" lon="5.89354">
        <ele>393</ele>
        <time>2018-04-15T09:18:22Z</time>
      </trkpt>
      <trkpt lat="43.54416" lon="5.89378">
        <ele>388</ele>
        <time>2018-04-15T09:18:33Z</time>
      </trkpt>
      <trkpt lat="43.54412" lon="5.89406">
        <ele>389</ele>
        <time>2018-04-15T09:18:42Z</time>
      </trkpt>
      <trkpt lat="43.54419" lon="5.8943">
        <ele>393</ele>
        <time>2018-04-15T09:18:53Z</time>
      </trkpt>
      <trkpt lat="43.54425" lon="5.89455">
        <ele>396</ele>
        <time>2018-04-15T09:19:02Z</time>
      </trkpt>
      <trkpt lat="43.54433" lon="5.89479">
        <ele>397</ele>
        <time>2018-04-15T09:19:09Z</time>
      </trkpt>
      <trkpt lat="43.54434" lon="5.89507">
        <ele>398</ele>
        <time>2018-04-15T09:19:16Z</time>
      </trkpt>
      <trkpt lat="43.5443" lon="5.89536">
        <ele>399</ele>
        <time>2018-04-15T09:19:22Z</time>
      </trkpt>
      <trkpt lat="43.54425" lon="5.89562">
        <ele>399</ele>
        <time>2018-04-15T09:19:27Z</time>
      </trkpt>
      <trkpt lat="43.54421" lon="5.89587">
        <ele>396</ele>
        <time>2018-04-15T09:19:33Z</time>
      </trkpt>
      <trkpt lat="43.54415" lon="5.89612">
        <ele>397</ele>
        <time>2018-04-15T09:19:41Z</time>
      </trkpt>
      <trkpt lat="43.54406" lon="5.89635">
        <ele>398</ele>
        <time>2018-04-15T09:19:49Z</time>
      </trkpt>
      <trkpt lat="43.54399" lon="5.89661">
        <ele>398</ele>
        <time>2018-04-15T09:19:57Z</time>
      </trkpt>
      <trkpt lat="43.54397" lon="5.89687">
        <ele>399</ele>
        <time>2018-04-15T09:20:03Z</time>
      </trkpt>
      <trkpt lat="43.54391" lon="5.89711">
        <ele>400</ele>
        <time>2018-04-15T09:20:12Z</time>
      </trkpt>
      <trkpt lat="43.54408" lon="5.89721">
        <ele>399</ele>
        <time>2018-04-15T09:20:19Z</time>
      </trkpt>
      <trkpt lat="43.54428" lon="5.89726">
        <ele>400</ele>
        <time>2018-04-15T09:20:27Z</time>
      </trkpt>
      <trkpt lat="43.54446" lon="5.89736">
        <ele>400</ele>
        <time>2018-04-15T09:20:34Z</time>
      </trkpt>
      <trkpt lat="43.54465" lon="5.89731">
        <ele>401</ele>
        <time>2018-04-15T09:20:41Z</time>
      </trkpt>
      <trkpt lat="43.54482" lon="5.89717">
        <ele>402</ele>
        <time>2018-04-15T09:20:48Z</time>
      </trkpt>
      <trkpt lat="43.54498" lon="5.89704">
        <ele>402</ele>
        <time>2018-04-15T09:20:56Z</time>
      </trkpt>
      <trkpt lat="43.54514" lon="5.89689">
        <ele>405</ele>
        <time>2018-04-15T09:21:03Z</time>
      </trkpt>
      <trkpt lat="43.5453" lon="5.89677">
        <ele>405</ele>
        <time>2018-04-15T09:21:09Z</time>
      </trkpt>
      <trkpt lat="43.54549" lon="5.89666">
        <ele>405</ele>
        <time>2018-04-15T09:21:17Z</time>
      </trkpt>
      <trkpt lat="43.54565" lon="5.89651">
        <ele>405</ele>
        <time>2018-04-15T09:21:23Z</time>
      </trkpt>
      <trkpt lat="43.54583" lon="5.89637">
        <ele>406</ele>
        <time>2018-04-15T09:21:30Z</time>
      </trkpt>
      <trkpt lat="43.546" lon="5.89631">
        <ele>405</ele>
        <time>2018-04-15T09:21:37Z</time>
      </trkpt>
      <trkpt lat="43.5462" lon="5.89635">
        <ele>405</ele>
        <time>2018-04-15T09:21:44Z</time>
      </trkpt>
      <trkpt lat="43.54637" lon="5.89649">
        <ele>405</ele>
        <time>2018-04-15T09:21:53Z</time>
      </trkpt>
      <trkpt lat="43.54647" lon="5.89673">
        <ele>403</ele>
        <time>2018-04-15T09:22:02Z</time>
      </trkpt>
      <trkpt lat="43.54663" lon="5.89693">
        <ele>403</ele>
        <time>2018-04-15T09:22:07Z</time>
      </trkpt>
      <trkpt lat="43.54671" lon="5.89718">
        <ele>404</ele>
        <time>2018-04-15T09:22:14Z</time>
      </trkpt>
      <trkpt lat="43.54671" lon="5.89744">
        <ele>404</ele>
        <time>2018-04-15T09:22:21Z</time>
      </trkpt>
      <trkpt lat="43.54678" lon="5.89771">
        <ele>405</ele>
        <time>2018-04-15T09:22:29Z</time>
      </trkpt>
      <trkpt lat="43.54675" lon="5.89798">
        <ele>406</ele>
        <time>2018-04-15T09:22:38Z</time>
      </trkpt>
      <trkpt lat="43.54672" lon="5.89823">
        <ele>405</ele>
        <time>2018-04-15T09:22:46Z</time>
      </trkpt>
      <trkpt lat="43.54663" lon="5.89848">
        <ele>408</ele>
        <time>2018-04-15T09:22:54Z</time>
      </trkpt>
      <trkpt lat="43.54669" lon="5.89873">
        <ele>407</ele>
        <time>2018-04-15T09:23:02Z</time>
      </trkpt>
      <trkpt lat="43.54679" lon="5.89895">
        <ele>408</ele>
        <time>2018-04-15T09:23:11Z</time>
      </trkpt>
      <trkpt lat="43.54693" lon="5.89912">
        <ele>408</ele>
        <time>2018-04-15T09:23:16Z</time>
      </trkpt>
      <trkpt lat="43.54705" lon="5.89934">
        <ele>409</ele>
        <time>2018-04-15T09:23:20Z</time>
      </trkpt>
      <trkpt lat="43.54707" lon="5.89959">
        <ele>410</ele>
        <time>2018-04-15T09:23:29Z</time>
      </trkpt>
      <trkpt lat="43.54718" lon="5.89979">
        <ele>410</ele>
        <time>2018-04-15T09:23:35Z</time>
      </trkpt>
      <trkpt lat="43.54734" lon="5.89992">
        <ele>410</ele>
        <time>2018-04-15T09:23:50Z</time>
      </trkpt>
      <trkpt lat="43.54752" lon="5.89997">
        <ele>410</ele>
        <time>2018-04-15T09:24:01Z</time>
      </trkpt>
      <trkpt lat="43.5477" lon="5.89993">
        <ele>412</ele>
        <time>2018-04-15T09:24:11Z</time>
      </trkpt>
      <trkpt lat="43.54788" lon="5.89989">
        <ele>412</ele>
        <time>2018-04-15T09:24:19Z</time>
      </trkpt>
      <trkpt lat="43.54808" lon="5.89987">
        <ele>414</ele>
        <time>2018-04-15T09:24:29Z</time>
      </trkpt>
      <trkpt lat="43.54828" lon="5.89985">
        <ele>414</ele>
        <time>2018-04-15T09:24:38Z</time>
      </trkpt>
      <trkpt lat="43.54846" lon="5.8998">
        <ele>418</ele>
        <time>2018-04-15T09:24:48Z</time>
      </trkpt>
      <trkpt lat="43.54865" lon="5.89974">
        <ele>419</ele>
        <time>2018-04-15T09:24:58Z</time>
      </trkpt>
      <trkpt lat="43.54884" lon="5.89976">
        <ele>420</ele>
        <time>2018-04-15T09:25:08Z</time>
      </trkpt>
      <trkpt lat="43.54899" lon="5.89991">
        <ele>421</ele>
        <time>2018-04-15T09:25:18Z</time>
      </trkpt>
      <trkpt lat="43.54914" lon="5.90012">
        <ele>421</ele>
        <time>2018-04-15T09:25:28Z</time>
      </trkpt>
      <trkpt lat="43.5493" lon="5.9003">
        <ele>422</ele>
        <time>2018-04-15T09:25:36Z</time>
      </trkpt>
      <trkpt lat="43.54946" lon="5.90043">
        <ele>422</ele>
        <time>2018-04-15T09:25:43Z</time>
      </trkpt>
      <trkpt lat="43.54965" lon="5.90057">
        <ele>421</ele>
        <time>2018-04-15T09:25:47Z</time>
      </trkpt>
      <trkpt lat="43.54985" lon="5.90062">
        <ele>421</ele>
        <time>2018-04-15T09:25:52Z</time>
      </trkpt>
      <trkpt lat="43.55004" lon="5.90071">
        <ele>421</ele>
        <time>2018-04-15T09:25:57Z</time>
      </trkpt>
      <trkpt lat="43.55024" lon="5.90068">
        <ele>422</ele>
        <time>2018-04-15T09:26:03Z</time>
      </trkpt>
      <trkpt lat="43.55044" lon="5.90066">
        <ele>423</ele>
        <time>2018-04-15T09:26:09Z</time>
      </trkpt>
      <trkpt lat="43.55061" lon="5.90078">
        <ele>423</ele>
        <time>2018-04-15T09:26:17Z</time>
      </trkpt>
      <trkpt lat="43.55075" lon="5.90096">
        <ele>423</ele>
        <time>2018-04-15T09:26:25Z</time>
      </trkpt>
      <trkpt lat="43.55093" lon="5.90103">
        <ele>425</ele>
        <time>2018-04-15T09:27:04Z</time>
      </trkpt>
      <trkpt lat="43.55105" lon="5.90084">
        <ele>425</ele>
        <time>2018-04-15T09:27:14Z</time>
      </trkpt>
      <trkpt lat="43.55109" lon="5.90059">
        <ele>426</ele>
        <time>2018-04-15T09:27:21Z</time>
      </trkpt>
      <trkpt lat="43.5512" lon="5.9004">
        <ele>426</ele>
        <time>2018-04-15T09:27:28Z</time>
      </trkpt>
      <trkpt lat="43.55129" lon="5.90015">
        <ele>427</ele>
        <time>2018-04-15T09:27:36Z</time>
      </trkpt>
      <trkpt lat="43.55135" lon="5.89992">
        <ele>429</ele>
        <time>2018-04-15T09:27:44Z</time>
      </trkpt>
      <trkpt lat="43.55139" lon="5.89965">
        <ele>430</ele>
        <time>2018-04-15T09:27:54Z</time>
      </trkpt>
      <trkpt lat="43.55145" lon="5.89939">
        <ele>431</ele>
        <time>2018-04-15T09:28:03Z</time>
      </trkpt>
      <trkpt lat="43.5515" lon="5.89915">
        <ele>434</ele>
        <time>2018-04-15T09:28:11Z</time>
      </trkpt>
      <trkpt lat="43.55164" lon="5.89896">
        <ele>434</ele>
        <time>2018-04-15T09:28:19Z</time>
      </trkpt>
      <trkpt lat="43.55177" lon="5.89878">
        <ele>435</ele>
        <time>2018-04-15T09:28:28Z</time>
      </trkpt>
      <trkpt lat="43.55175" lon="5.89851">
        <ele>436</ele>
        <time>2018-04-15T09:28:40Z</time>
      </trkpt>
      <trkpt lat="43.55177" lon="5.89875">
        <ele>435</ele>
        <time>2018-04-15T09:29:26Z</time>
      </trkpt>
      <trkpt lat="43.55164" lon="5.89895">
        <ele>434</ele>
        <time>2018-04-15T09:29:34Z</time>
      </trkpt>
      <trkpt lat="43.55154" lon="5.89917">
        <ele>434</ele>
        <time>2018-04-15T09:29:47Z</time>
      </trkpt>
      <trkpt lat="43.55149" lon="5.89945">
        <ele>431</ele>
        <time>2018-04-15T09:29:56Z</time>
      </trkpt>
      <trkpt lat="43.55146" lon="5.89973">
        <ele>430</ele>
        <time>2018-04-15T09:30:02Z</time>
      </trkpt>
      <trkpt lat="43.55141" lon="5.89998">
        <ele>429</ele>
        <time>2018-04-15T09:30:08Z</time>
      </trkpt>
      <trkpt lat="43.55134" lon="5.90024">
        <ele>427</ele>
        <time>2018-04-15T09:30:14Z</time>
      </trkpt>
      <trkpt lat="43.5512" lon="5.90058">
        <ele>426</ele>
        <time>2018-04-15T09:30:19Z</time>
      </trkpt>
      <trkpt lat="43.55112" lon="5.90083">
        <ele>426</ele>
        <time>2018-04-15T09:30:22Z</time>
      </trkpt>
      <trkpt lat="43.55098" lon="5.901">
        <ele>425</ele>
        <time>2018-04-15T09:30:30Z</time>
      </trkpt>
      <trkpt lat="43.55081" lon="5.90089">
        <ele>423</ele>
        <time>2018-04-15T09:30:38Z</time>
      </trkpt>
      <trkpt lat="43.55063" lon="5.90076">
        <ele>423</ele>
        <time>2018-04-15T09:30:44Z</time>
      </trkpt>
      <trkpt lat="43.55043" lon="5.90077">
        <ele>423</ele>
        <time>2018-04-15T09:30:49Z</time>
      </trkpt>
      <trkpt lat="43.55024" lon="5.90077">
        <ele>422</ele>
        <time>2018-04-15T09:30:54Z</time>
      </trkpt>
      <trkpt lat="43.55003" lon="5.9007">
        <ele>421</ele>
        <time>2018-04-15T09:31:00Z</time>
      </trkpt>
      <trkpt lat="43.54984" lon="5.9006">
        <ele>421</ele>
        <time>2018-04-15T09:31:05Z</time>
      </trkpt>
      <trkpt lat="43.54966" lon="5.90051">
        <ele>422</ele>
        <time>2018-04-15T09:31:11Z</time>
      </trkpt>
      <trkpt lat="43.54946" lon="5.90041">
        <ele>422</ele>
        <time>2018-04-15T09:31:18Z</time>
      </trkpt>
      <trkpt lat="43.5493" lon="5.90028">
        <ele>422</ele>
        <time>2018-04-15T09:31:25Z</time>
      </trkpt>
      <trkpt lat="43.54917" lon="5.90011">
        <ele>421</ele>
        <time>2018-04-15T09:31:32Z</time>
      </trkpt>
      <trkpt lat="43.54901" lon="5.89995">
        <ele>421</ele>
        <time>2018-04-15T09:31:38Z</time>
      </trkpt>
      <trkpt lat="43.54884" lon="5.89987">
        <ele>420</ele>
        <time>2018-04-15T09:31:43Z</time>
      </trkpt>
      <trkpt lat="43.54864" lon="5.89988">
        <ele>419</ele>
        <time>2018-04-15T09:31:48Z</time>
      </trkpt>
      <trkpt lat="43.54845" lon="5.89991">
        <ele>418</ele>
        <time>2018-04-15T09:31:52Z</time>
      </trkpt>
      <trkpt lat="43.54826" lon="5.89992">
        <ele>415</ele>
        <time>2018-04-15T09:31:56Z</time>
      </trkpt>
      <trkpt lat="43.54806" lon="5.89994">
        <ele>414</ele>
        <time>2018-04-15T09:32:00Z</time>
      </trkpt>
      <trkpt lat="43.54788" lon="5.90002">
        <ele>412</ele>
        <time>2018-04-15T09:32:05Z</time>
      </trkpt>
      <trkpt lat="43.54769" lon="5.90006">
        <ele>411</ele>
        <time>2018-04-15T09:32:31Z</time>
      </trkpt>
      <trkpt lat="43.5475" lon="5.90003">
        <ele>410</ele>
        <time>2018-04-15T09:32:50Z</time>
      </trkpt>
      <trkpt lat="43.54732" lon="5.9001">
        <ele>412</ele>
        <time>2018-04-15T09:32:57Z</time>
      </trkpt>
      <trkpt lat="43.54722" lon="5.89988">
        <ele>410</ele>
        <time>2018-04-15T09:33:04Z</time>
      </trkpt>
      <trkpt lat="43.54717" lon="5.89961">
        <ele>410</ele>
        <time>2018-04-15T09:33:10Z</time>
      </trkpt>
      <trkpt lat="43.54715" lon="5.89935">
        <ele>409</ele>
        <time>2018-04-15T09:33:15Z</time>
      </trkpt>
      <trkpt lat="43.54696" lon="5.89924">
        <ele>409</ele>
        <time>2018-04-15T09:33:21Z</time>
      </trkpt>
      <trkpt lat="43.54688" lon="5.89901">
        <ele>408</ele>
        <time>2018-04-15T09:33:27Z</time>
      </trkpt>
      <trkpt lat="43.54682" lon="5.89873">
        <ele>407</ele>
        <time>2018-04-15T09:33:32Z</time>
      </trkpt>
      <trkpt lat="43.54669" lon="5.89848">
        <ele>406</ele>
        <time>2018-04-15T09:33:36Z</time>
      </trkpt>
      <trkpt lat="43.54654" lon="5.89827">
        <ele>407</ele>
        <time>2018-04-15T09:33:40Z</time>
      </trkpt>
      <trkpt lat="43.54646" lon="5.89802">
        <ele>408</ele>
        <time>2018-04-15T09:33:45Z</time>
      </trkpt>
      <trkpt lat="43.54649" lon="5.89775">
        <ele>407</ele>
        <time>2018-04-15T09:33:50Z</time>
      </trkpt>
      <trkpt lat="43.54653" lon="5.89745">
        <ele>404</ele>
        <time>2018-04-15T09:33:55Z</time>
      </trkpt>
      <trkpt lat="43.54657" lon="5.89721">
        <ele>404</ele>
        <time>2018-04-15T09:33:59Z</time>
      </trkpt>
      <trkpt lat="43.54658" lon="5.89693">
        <ele>403</ele>
        <time>2018-04-15T09:34:04Z</time>
      </trkpt>
      <trkpt lat="43.54646" lon="5.89668">
        <ele>403</ele>
        <time>2018-04-15T09:34:10Z</time>
      </trkpt>
      <trkpt lat="43.5463" lon="5.89652">
        <ele>405</ele>
        <time>2018-04-15T09:34:15Z</time>
      </trkpt>
      <trkpt lat="43.5461" lon="5.89645">
        <ele>405</ele>
        <time>2018-04-15T09:34:20Z</time>
      </trkpt>
      <trkpt lat="43.54589" lon="5.89647">
        <ele>404</ele>
        <time>2018-04-15T09:34:25Z</time>
      </trkpt>
      <trkpt lat="43.54569" lon="5.89658">
        <ele>405</ele>
        <time>2018-04-15T09:34:31Z</time>
      </trkpt>
      <trkpt lat="43.54552" lon="5.89672">
        <ele>405</ele>
        <time>2018-04-15T09:34:37Z</time>
      </trkpt>
      <trkpt lat="43.54533" lon="5.89683">
        <ele>405</ele>
        <time>2018-04-15T09:34:42Z</time>
      </trkpt>
      <trkpt lat="43.54517" lon="5.89694">
        <ele>405</ele>
        <time>2018-04-15T09:34:46Z</time>
      </trkpt>
      <trkpt lat="43.545" lon="5.89711">
        <ele>402</ele>
        <time>2018-04-15T09:34:51Z</time>
      </trkpt>
      <trkpt lat="43.54483" lon="5.89729">
        <ele>402</ele>
        <time>2018-04-15T09:34:57Z</time>
      </trkpt>
      <trkpt lat="43.54468" lon="5.89741">
        <ele>401</ele>
        <time>2018-04-15T09:35:04Z</time>
      </trkpt>
      <trkpt lat="43.54449" lon="5.89738">
        <ele>400</ele>
        <time>2018-04-15T09:35:09Z</time>
      </trkpt>
      <trkpt lat="43.54429" lon="5.89734">
        <ele>400</ele>
        <time>2018-04-15T09:35:15Z</time>
      </trkpt>
      <trkpt lat="43.54409" lon="5.8973">
        <ele>399</ele>
        <time>2018-04-15T09:35:22Z</time>
      </trkpt>
      <trkpt lat="43.54389" lon="5.89719">
        <ele>400</ele>
        <time>2018-04-15T09:35:28Z</time>
      </trkpt>
      <trkpt lat="43.54373" lon="5.89701">
        <ele>400</ele>
        <time>2018-04-15T09:35:33Z</time>
      </trkpt>
      <trkpt lat="43.54376" lon="5.89674">
        <ele>399</ele>
        <time>2018-04-15T09:35:39Z</time>
      </trkpt>
      <trkpt lat="43.54388" lon="5.89654">
        <ele>398</ele>
        <time>2018-04-15T09:35:44Z</time>
      </trkpt>
      <trkpt lat="43.54399" lon="5.8963">
        <ele>398</ele>
        <time>2018-04-15T09:35:49Z</time>
      </trkpt>
      <trkpt lat="43.5441" lon="5.89608">
        <ele>397</ele>
        <time>2018-04-15T09:35:53Z</time>
      </trkpt>
      <trkpt lat="43.54422" lon="5.89582">
        <ele>396</ele>
        <time>2018-04-15T09:35:58Z</time>
      </trkpt>
      <trkpt lat="43.54429" lon="5.89559">
        <ele>399</ele>
        <time>2018-04-15T09:36:02Z</time>
      </trkpt>
      <trkpt lat="43.54436" lon="5.89532">
        <ele>400</ele>
        <time>2018-04-15T09:36:07Z</time>
      </trkpt>
      <trkpt lat="43.54435" lon="5.89505">
        <ele>398</ele>
        <time>2018-04-15T09:36:13Z</time>
      </trkpt>
      <trkpt lat="43.54426" lon="5.89478">
        <ele>396</ele>
        <time>2018-04-15T09:36:20Z</time>
      </trkpt>
      <trkpt lat="43.54418" lon="5.89452">
        <ele>396</ele>
        <time>2018-04-15T09:36:25Z</time>
      </trkpt>
      <trkpt lat="43.54416" lon="5.89427">
        <ele>389</ele>
        <time>2018-04-15T09:36:32Z</time>
      </trkpt>
      <trkpt lat="43.5442" lon="5.89402">
        <ele>392</ele>
        <time>2018-04-15T09:36:37Z</time>
      </trkpt>
      <trkpt lat="43.54425" lon="5.89376">
        <ele>393</ele>
        <time>2018-04-15T09:36:44Z</time>
      </trkpt>
      <trkpt lat="43.54429" lon="5.89348">
        <ele>393</ele>
        <time>2018-04-15T09:36:51Z</time>
      </trkpt>
      <trkpt lat="43.5443" lon="5.8932">
        <ele>392</ele>
        <time>2018-04-15T09:36:57Z</time>
      </trkpt>
      <trkpt lat="43.54437" lon="5.89294">
        <ele>394</ele>
        <time>2018-04-15T09:37:03Z</time>
      </trkpt>
      <trkpt lat="43.54445" lon="5.89271">
        <ele>394</ele>
        <time>2018-04-15T09:37:08Z</time>
      </trkpt>
      <trkpt lat="43.54453" lon="5.89246">
        <ele>396</ele>
        <time>2018-04-15T09:37:14Z</time>
      </trkpt>
      <trkpt lat="43.54448" lon="5.89222">
        <ele>396</ele>
        <time>2018-04-15T09:37:19Z</time>
      </trkpt>
      <trkpt lat="43.5444" lon="5.89196">
        <ele>396</ele>
        <time>2018-04-15T09:37:25Z</time>
      </trkpt>
      <trkpt lat="43.5443" lon="5.89171">
        <ele>395</ele>
        <time>2018-04-15T09:37:31Z</time>
      </trkpt>
      <trkpt lat="43.54421" lon="5.89149">
        <ele>396</ele>
        <time>2018-04-15T09:37:36Z</time>
      </trkpt>
      <trkpt lat="43.54419" lon="5.89121">
        <ele>397</ele>
        <time>2018-04-15T09:37:42Z</time>
      </trkpt>
      <trkpt lat="43.54422" lon="5.89094">
        <ele>396</ele>
        <time>2018-04-15T09:37:48Z</time>
      </trkpt>
      <trkpt lat="43.54431" lon="5.89072">
        <ele>396</ele>
        <time>2018-04-15T09:37:53Z</time>
      </trkpt>
      <trkpt lat="43.54439" lon="5.89044">
        <ele>397</ele>
        <time>2018-04-15T09:37:56Z</time>
      </trkpt>
      <trkpt lat="43.5445" lon="5.89024">
        <ele>397</ele>
        <time>2018-04-15T09:38:00Z</time>
      </trkpt>
      <trkpt lat="43.54464" lon="5.89007">
        <ele>397</ele>
        <time>2018-04-15T09:38:06Z</time>
      </trkpt>
      <trkpt lat="43.54484" lon="5.89001">
        <ele>397</ele>
        <time>2018-04-15T09:38:12Z</time>
      </trkpt>
      <trkpt lat="43.54502" lon="5.88991">
        <ele>397</ele>
        <time>2018-04-15T09:38:18Z</time>
      </trkpt>
      <trkpt lat="43.5452" lon="5.88984">
        <ele>398</ele>
        <time>2018-04-15T09:38:37Z</time>
      </trkpt>
      <trkpt lat="43.54539" lon="5.88977">
        <ele>399</ele>
        <time>2018-04-15T09:38:46Z</time>
      </trkpt>
      <trkpt lat="43.54559" lon="5.88965">
        <ele>400</ele>
        <time>2018-04-15T09:38:53Z</time>
      </trkpt>
      <trkpt lat="43.54578" lon="5.88957">
        <ele>400</ele>
        <time>2018-04-15T09:38:59Z</time>
      </trkpt>
      <trkpt lat="43.54595" lon="5.88948">
        <ele>400</ele>
        <time>2018-04-15T09:39:05Z</time>
      </trkpt>
      <trkpt lat="43.54613" lon="5.88936">
        <ele>400</ele>
        <time>2018-04-15T09:39:10Z</time>
      </trkpt>
      <trkpt lat="43.54631" lon="5.8893">
        <ele>400</ele>
        <time>2018-04-15T09:39:15Z</time>
      </trkpt>
      <trkpt lat="43.54649" lon="5.88929">
        <ele>400</ele>
        <time>2018-04-15T09:39:20Z</time>
      </trkpt>
      <trkpt lat="43.54669" lon="5.88924">
        <ele>399</ele>
        <time>2018-04-15T09:39:26Z</time>
      </trkpt>
      <trkpt lat="43.5469" lon="5.88921">
        <ele>400</ele>
        <time>2018-04-15T09:39:33Z</time>
      </trkpt>
      <trkpt lat="43.54714" lon="5.88914">
        <ele>400</ele>
        <time>2018-04-15T09:41:08Z</time>
      </trkpt>
      <trkpt lat="43.54734" lon="5.88913">
        <ele>400</ele>
        <time>2018-04-15T09:41:16Z</time>
      </trkpt>
      <trkpt lat="43.54753" lon="5.88913">
        <ele>399</ele>
        <time>2018-04-15T09:41:22Z</time>
      </trkpt>
      <trkpt lat="43.54773" lon="5.88916">
        <ele>400</ele>
        <time>2018-04-15T09:41:29Z</time>
      </trkpt>
      <trkpt lat="43.54793" lon="5.88917">
        <ele>401</ele>
        <time>2018-04-15T09:41:36Z</time>
      </trkpt>
      <trkpt lat="43.54814" lon="5.88917">
        <ele>401</ele>
        <time>2018-04-15T09:41:43Z</time>
      </trkpt>
      <trkpt lat="43.54834" lon="5.88915">
        <ele>399</ele>
        <time>2018-04-15T09:41:51Z</time>
      </trkpt>
      <trkpt lat="43.54853" lon="5.88913">
        <ele>400</ele>
        <time>2018-04-15T09:41:59Z</time>
      </trkpt>
      <trkpt lat="43.54872" lon="5.88907">
        <ele>400</ele>
        <time>2018-04-15T09:42:09Z</time>
      </trkpt>
      <trkpt lat="43.54888" lon="5.88892">
        <ele>400</ele>
        <time>2018-04-15T09:42:16Z</time>
      </trkpt>
      <trkpt lat="43.54903" lon="5.88877">
        <ele>400</ele>
        <time>2018-04-15T09:42:24Z</time>
      </trkpt>
      <trkpt lat="43.54916" lon="5.88858">
        <ele>400</ele>
        <time>2018-04-15T09:42:33Z</time>
      </trkpt>
      <trkpt lat="43.54924" lon="5.88834">
        <ele>400</ele>
        <time>2018-04-15T09:42:44Z</time>
      </trkpt>
      <trkpt lat="43.54915" lon="5.8881">
        <ele>402</ele>
        <time>2018-04-15T09:42:53Z</time>
      </trkpt>
      <trkpt lat="43.54914" lon="5.88785">
        <ele>404</ele>
        <time>2018-04-15T09:43:03Z</time>
      </trkpt>
      <trkpt lat="43.54909" lon="5.8876">
        <ele>404</ele>
        <time>2018-04-15T09:43:14Z</time>
      </trkpt>
      <trkpt lat="43.54903" lon="5.88735">
        <ele>407</ele>
        <time>2018-04-15T09:43:24Z</time>
      </trkpt>
      <trkpt lat="43.54893" lon="5.88713">
        <ele>408</ele>
        <time>2018-04-15T09:43:36Z</time>
      </trkpt>
      <trkpt lat="43.54888" lon="5.88689">
        <ele>409</ele>
        <time>2018-04-15T09:43:47Z</time>
      </trkpt>
      <trkpt lat="43.54884" lon="5.88664">
        <ele>414</ele>
        <time>2018-04-15T09:43:58Z</time>
      </trkpt>
      <trkpt lat="43.54879" lon="5.88639">
        <ele>415</ele>
        <time>2018-04-15T09:44:10Z</time>
      </trkpt>
      <trkpt lat="43.54874" lon="5.88615">
        <ele>416</ele>
        <time>2018-04-15T09:44:21Z</time>
      </trkpt>
      <trkpt lat="43.5487" lon="5.88591">
        <ele>417</ele>
        <time>2018-04-15T09:44:32Z</time>
      </trkpt>
      <trkpt lat="43.54862" lon="5.88567">
        <ele>423</ele>
        <time>2018-04-15T09:44:44Z</time>
      </trkpt>
      <trkpt lat="43.54852" lon="5.88546">
        <ele>424</ele>
        <time>2018-04-15T09:44:55Z</time>
      </trkpt>
      <trkpt lat="43.54835" lon="5.88534">
        <ele>425</ele>
        <time>2018-04-15T09:45:08Z</time>
      </trkpt>
      <trkpt lat="43.54831" lon="5.88509">
        <ele>430</ele>
        <time>2018-04-15T09:45:21Z</time>
      </trkpt>
      <trkpt lat="43.54841" lon="5.88488">
        <ele>431</ele>
        <time>2018-04-15T09:45:34Z</time>
      </trkpt>
      <trkpt lat="43.54845" lon="5.88462">
        <ele>432</ele>
        <time>2018-04-15T09:45:48Z</time>
      </trkpt>
      <trkpt lat="43.54839" lon="5.88438">
        <ele>435</ele>
        <time>2018-04-15T09:46:03Z</time>
      </trkpt>
      <trkpt lat="43.54829" lon="5.88417">
        <ele>440</ele>
        <time>2018-04-15T09:46:17Z</time>
      </trkpt>
      <trkpt lat="43.54818" lon="5.88396">
        <ele>444</ele>
        <time>2018-04-15T09:46:32Z</time>
      </trkpt>
      <trkpt lat="43.54806" lon="5.88377">
        <ele>445</ele>
        <time>2018-04-15T09:46:44Z</time>
      </trkpt>
      <trkpt lat="43.54796" lon="5.88355">
        <ele>446</ele>
        <time>2018-04-15T09:46:55Z</time>
      </trkpt>
      <trkpt lat="43.54785" lon="5.88334">
        <ele>446</ele>
        <time>2018-04-15T09:47:06Z</time>
      </trkpt>
      <trkpt lat="43.54776" lon="5.88311">
        <ele>450</ele>
        <time>2018-04-15T09:47:16Z</time>
      </trkpt>
      <trkpt lat="43.54768" lon="5.88288">
        <ele>450</ele>
        <time>2018-04-15T09:47:26Z</time>
      </trkpt>
      <trkpt lat="43.54761" lon="5.88265">
        <ele>452</ele>
        <time>2018-04-15T09:47:35Z</time>
      </trkpt>
      <trkpt lat="43.54766" lon="5.88241">
        <ele>453</ele>
        <time>2018-04-15T09:47:44Z</time>
      </trkpt>
      <trkpt lat="43.54768" lon="5.88215">
        <ele>453</ele>
        <time>2018-04-15T09:47:53Z</time>
      </trkpt>
      <trkpt lat="43.54768" lon="5.88189">
        <ele>453</ele>
        <time>2018-04-15T09:48:02Z</time>
      </trkpt>
      <trkpt lat="43.54762" lon="5.88165">
        <ele>454</ele>
        <time>2018-04-15T09:48:11Z</time>
      </trkpt>
      <trkpt lat="43.54762" lon="5.88138">
        <ele>454</ele>
        <time>2018-04-15T09:48:20Z</time>
      </trkpt>
      <trkpt lat="43.54762" lon="5.88111">
        <ele>455</ele>
        <time>2018-04-15T09:48:27Z</time>
      </trkpt>
      <trkpt lat="43.5476" lon="5.88085">
        <ele>455</ele>
        <time>2018-04-15T09:48:34Z</time>
      </trkpt>
      <trkpt lat="43.54762" lon="5.88057">
        <ele>454</ele>
        <time>2018-04-15T09:48:41Z</time>
      </trkpt>
      <trkpt lat="43.54757" lon="5.8803">
        <ele>454</ele>
        <time>2018-04-15T09:48:48Z</time>
      </trkpt>
      <trkpt lat="43.54752" lon="5.88006">
        <ele>454</ele>
        <time>2018-04-15T09:48:55Z</time>
      </trkpt>
      <trkpt lat="43.5475" lon="5.87979">
        <ele>452</ele>
        <time>2018-04-15T09:49:01Z</time>
      </trkpt>
      <trkpt lat="43.54738" lon="5.87959">
        <ele>455</ele>
        <time>2018-04-15T09:49:08Z</time>
      </trkpt>
      <trkpt lat="43.54725" lon="5.87941">
        <ele>455</ele>
        <time>2018-04-15T09:49:15Z</time>
      </trkpt>
      <trkpt lat="43.54712" lon="5.87923">
        <ele>455</ele>
        <time>2018-04-15T09:49:22Z</time>
      </trkpt>
      <trkpt lat="43.54699" lon="5.87905">
        <ele>456</ele>
        <time>2018-04-15T09:49:29Z</time>
      </trkpt>
      <trkpt lat="43.54682" lon="5.87888">
        <ele>456</ele>
        <time>2018-04-15T09:49:37Z</time>
      </trkpt>
      <trkpt lat="43.54668" lon="5.87871">
        <ele>457</ele>
        <time>2018-04-15T09:49:45Z</time>
      </trkpt>
      <trkpt lat="43.54653" lon="5.87887">
        <ele>460</ele>
        <time>2018-04-15T09:49:52Z</time>
      </trkpt>
      <trkpt lat="43.54641" lon="5.87906">
        <ele>460</ele>
        <time>2018-04-15T09:49:58Z</time>
      </trkpt>
      <trkpt lat="43.54626" lon="5.87924">
        <ele>457</ele>
        <time>2018-04-15T09:50:04Z</time>
      </trkpt>
      <trkpt lat="43.54611" lon="5.87937">
        <ele>457</ele>
        <time>2018-04-15T09:50:08Z</time>
      </trkpt>
      <trkpt lat="43.54597" lon="5.87958">
        <ele>456</ele>
        <time>2018-04-15T09:50:13Z</time>
      </trkpt>
      <trkpt lat="43.54579" lon="5.87967">
        <ele>457</ele>
        <time>2018-04-15T09:50:18Z</time>
      </trkpt>
      <trkpt lat="43.54565" lon="5.87987">
        <ele>456</ele>
        <time>2018-04-15T09:50:52Z</time>
      </trkpt>
      <trkpt lat="43.54546" lon="5.87992">
        <ele>458</ele>
        <time>2018-04-15T09:51:16Z</time>
      </trkpt>
      <trkpt lat="43.54534" lon="5.88012">
        <ele>454</ele>
        <time>2018-04-15T09:51:25Z</time>
      </trkpt>
      <trkpt lat="43.54522" lon="5.88034">
        <ele>454</ele>
        <time>2018-04-15T09:51:34Z</time>
      </trkpt>
      <trkpt lat="43.54507" lon="5.88052">
        <ele>454</ele>
        <time>2018-04-15T09:51:42Z</time>
      </trkpt>
      <trkpt lat="43.54495" lon="5.88072">
        <ele>457</ele>
        <time>2018-04-15T09:51:48Z</time>
      </trkpt>
      <trkpt lat="43.54482" lon="5.88091">
        <ele>454</ele>
        <time>2018-04-15T09:51:54Z</time>
      </trkpt>
      <trkpt lat="43.54469" lon="5.88109">
        <ele>454</ele>
        <time>2018-04-15T09:51:59Z</time>
      </trkpt>
      <trkpt lat="43.54457" lon="5.88127">
        <ele>454</ele>
        <time>2018-04-15T09:52:04Z</time>
      </trkpt>
      <trkpt lat="43.5445" lon="5.88156">
        <ele>453</ele>
        <time>2018-04-15T09:52:10Z</time>
      </trkpt>
      <trkpt lat="43.54442" lon="5.88178">
        <ele>448</ele>
        <time>2018-04-15T09:52:14Z</time>
      </trkpt>
      <trkpt lat="43.54421" lon="5.88188">
        <ele>448</ele>
        <time>2018-04-15T09:52:19Z</time>
      </trkpt>
      <trkpt lat="43.54403" lon="5.88202">
        <ele>451</ele>
        <time>2018-04-15T09:52:24Z</time>
      </trkpt>
      <trkpt lat="43.54389" lon="5.88216">
        <ele>451</ele>
        <time>2018-04-15T09:52:28Z</time>
      </trkpt>
      <trkpt lat="43.5437" lon="5.88234">
        <ele>451</ele>
        <time>2018-04-15T09:52:33Z</time>
      </trkpt>
      <trkpt lat="43.54352" lon="5.88245">
        <ele>451</ele>
        <time>2018-04-15T09:52:37Z</time>
      </trkpt>
      <trkpt lat="43.54337" lon="5.88258">
        <ele>449</ele>
        <time>2018-04-15T09:52:41Z</time>
      </trkpt>
      <trkpt lat="43.54317" lon="5.88269">
        <ele>449</ele>
        <time>2018-04-15T09:52:47Z</time>
      </trkpt>
      <trkpt lat="43.543" lon="5.88281">
        <ele>448</ele>
        <time>2018-04-15T09:52:52Z</time>
      </trkpt>
      <trkpt lat="43.54283" lon="5.88295">
        <ele>447</ele>
        <time>2018-04-15T09:52:57Z</time>
      </trkpt>
      <trkpt lat="43.54264" lon="5.8831">
        <ele>446</ele>
        <time>2018-04-15T09:53:02Z</time>
      </trkpt>
      <trkpt lat="43.54246" lon="5.88322">
        <ele>446</ele>
        <time>2018-04-15T09:53:06Z</time>
      </trkpt>
      <trkpt lat="43.54226" lon="5.88331">
        <ele>446</ele>
        <time>2018-04-15T09:53:10Z</time>
      </trkpt>
      <trkpt lat="43.54207" lon="5.88337">
        <ele>443</ele>
        <time>2018-04-15T09:53:14Z</time>
      </trkpt>
      <trkpt lat="43.54184" lon="5.8834">
        <ele>443</ele>
        <time>2018-04-15T09:53:18Z</time>
      </trkpt>
      <trkpt lat="43.54162" lon="5.88346">
        <ele>443</ele>
        <time>2018-04-15T09:53:22Z</time>
      </trkpt>
      <trkpt lat="43.54145" lon="5.88359">
        <ele>442</ele>
        <time>2018-04-15T09:53:26Z</time>
      </trkpt>
      <trkpt lat="43.54128" lon="5.88374">
        <ele>442</ele>
        <time>2018-04-15T09:53:30Z</time>
      </trkpt>
      <trkpt lat="43.54111" lon="5.88389">
        <ele>441</ele>
        <time>2018-04-15T09:53:34Z</time>
      </trkpt>
      <trkpt lat="43.54093" lon="5.88406">
        <ele>439</ele>
        <time>2018-04-15T09:53:38Z</time>
      </trkpt>
      <trkpt lat="43.54077" lon="5.88421">
        <ele>437</ele>
        <time>2018-04-15T09:53:42Z</time>
      </trkpt>
      <trkpt lat="43.5406" lon="5.8843">
        <ele>436</ele>
        <time>2018-04-15T09:53:46Z</time>
      </trkpt>
      <trkpt lat="43.54039" lon="5.88442">
        <ele>437</ele>
        <time>2018-04-15T09:53:51Z</time>
      </trkpt>
      <trkpt lat="43.5402" lon="5.8845">
        <ele>437</ele>
        <time>2018-04-15T09:53:56Z</time>
      </trkpt>
      <trkpt lat="43.54003" lon="5.88461">
        <ele>437</ele>
        <time>2018-04-15T09:54:00Z</time>
      </trkpt>
      <trkpt lat="43.53983" lon="5.88468">
        <ele>437</ele>
        <time>2018-04-15T09:54:04Z</time>
      </trkpt>
      <trkpt lat="43.53963" lon="5.88464">
        <ele>437</ele>
        <time>2018-04-15T09:54:08Z</time>
      </trkpt>
      <trkpt lat="43.53944" lon="5.88454">
        <ele>437</ele>
        <time>2018-04-15T09:54:12Z</time>
      </trkpt>
      <trkpt lat="43.53924" lon="5.88447">
        <ele>438</ele>
        <time>2018-04-15T09:54:16Z</time>
      </trkpt>
      <trkpt lat="43.53904" lon="5.88446">
        <ele>433</ele>
        <time>2018-04-15T09:54:20Z</time>
      </trkpt>
      <trkpt lat="43.53885" lon="5.8844">
        <ele>432</ele>
        <time>2018-04-15T09:54:24Z</time>
      </trkpt>
      <trkpt lat="43.53866" lon="5.8844">
        <ele>430</ele>
        <time>2018-04-15T09:54:28Z</time>
      </trkpt>
      <trkpt lat="43.53846" lon="5.88449">
        <ele>429</ele>
        <time>2018-04-15T09:54:32Z</time>
      </trkpt>
      <trkpt lat="43.53825" lon="5.88443">
        <ele>425</ele>
        <time>2018-04-15T09:54:36Z</time>
      </trkpt>
      <trkpt lat="43.53808" lon="5.88428">
        <ele>425</ele>
        <time>2018-04-15T09:54:41Z</time>
      </trkpt>
      <trkpt lat="43.5379" lon="5.88427">
        <ele>426</ele>
        <time>2018-04-15T09:54:45Z</time>
      </trkpt>
      <trkpt lat="43.53773" lon="5.88437">
        <ele>426</ele>
        <time>2018-04-15T09:54:49Z</time>
      </trkpt>
      <trkpt lat="43.53756" lon="5.8845">
        <ele>425</ele>
        <time>2018-04-15T09:54:53Z</time>
      </trkpt>
      <trkpt lat="43.53748" lon="5.88476">
        <ele>427</ele>
        <time>2018-04-15T09:54:59Z</time>
      </trkpt>
      <trkpt lat="43.53738" lon="5.885">
        <ele>425</ele>
        <time>2018-04-15T09:55:05Z</time>
      </trkpt>
      <trkpt lat="43.53723" lon="5.88521">
        <ele>422</ele>
        <time>2018-04-15T09:55:10Z</time>
      </trkpt>
      <trkpt lat="43.53708" lon="5.8854">
        <ele>422</ele>
        <time>2018-04-15T09:55:14Z</time>
      </trkpt>
      <trkpt lat="43.53694" lon="5.88557">
        <ele>421</ele>
        <time>2018-04-15T09:55:18Z</time>
      </trkpt>
      <trkpt lat="43.53679" lon="5.88573">
        <ele>419</ele>
        <time>2018-04-15T09:55:21Z</time>
      </trkpt>
      <trkpt lat="43.53661" lon="5.88586">
        <ele>416</ele>
        <time>2018-04-15T09:55:25Z</time>
      </trkpt>
      <trkpt lat="43.53642" lon="5.88601">
        <ele>415</ele>
        <time>2018-04-15T09:55:30Z</time>
      </trkpt>
      <trkpt lat="43.53625" lon="5.88617">
        <ele>415</ele>
        <time>2018-04-15T09:55:35Z</time>
      </trkpt>
      <trkpt lat="43.53608" lon="5.88626">
        <ele>414</ele>
        <time>2018-04-15T09:55:39Z</time>
      </trkpt>
      <trkpt lat="43.53589" lon="5.88633">
        <ele>414</ele>
        <time>2018-04-15T09:55:43Z</time>
      </trkpt>
      <trkpt lat="43.5357" lon="5.88636">
        <ele>418</ele>
        <time>2018-04-15T09:55:47Z</time>
      </trkpt>
      <trkpt lat="43.53555" lon="5.88649">
        <ele>418</ele>
        <time>2018-04-15T09:55:52Z</time>
      </trkpt>
      <trkpt lat="43.53541" lon="5.88669">
        <ele>414</ele>
        <time>2018-04-15T09:55:57Z</time>
      </trkpt>
      <trkpt lat="43.53527" lon="5.88686">
        <ele>415</ele>
        <time>2018-04-15T09:56:02Z</time>
      </trkpt>
      <trkpt lat="43.53513" lon="5.88706">
        <ele>414</ele>
        <time>2018-04-15T09:56:07Z</time>
      </trkpt>
      <trkpt lat="43.53496" lon="5.88722">
        <ele>417</ele>
        <time>2018-04-15T09:56:13Z</time>
      </trkpt>
      <trkpt lat="43.53478" lon="5.88733">
        <ele>416</ele>
        <time>2018-04-15T09:56:19Z</time>
      </trkpt>
      <trkpt lat="43.5346" lon="5.88734">
        <ele>416</ele>
        <time>2018-04-15T09:56:26Z</time>
      </trkpt>
      <trkpt lat="43.5344" lon="5.88737">
        <ele>416</ele>
        <time>2018-04-15T09:56:32Z</time>
      </trkpt>
      <trkpt lat="43.53419" lon="5.88732">
        <ele>415</ele>
        <time>2018-04-15T09:56:37Z</time>
      </trkpt>
      <trkpt lat="43.53401" lon="5.88722">
        <ele>415</ele>
        <time>2018-04-15T09:56:41Z</time>
      </trkpt>
      <trkpt lat="43.53381" lon="5.88711">
        <ele>415</ele>
        <time>2018-04-15T09:56:45Z</time>
      </trkpt>
      <trkpt lat="43.53363" lon="5.88705">
        <ele>414</ele>
        <time>2018-04-15T09:56:48Z</time>
      </trkpt>
      <trkpt lat="43.53345" lon="5.88698">
        <ele>414</ele>
        <time>2018-04-15T09:56:51Z</time>
      </trkpt>
      <trkpt lat="43.53324" lon="5.88684">
        <ele>414</ele>
        <time>2018-04-15T09:56:55Z</time>
      </trkpt>
      <trkpt lat="43.53304" lon="5.8867">
        <ele>414</ele>
        <time>2018-04-15T09:56:59Z</time>
      </trkpt>
      <trkpt lat="43.53285" lon="5.88677">
        <ele>413</ele>
        <time>2018-04-15T09:57:03Z</time>
      </trkpt>
      <trkpt lat="43.53278" lon="5.88705">
        <ele>412</ele>
        <time>2018-04-15T09:57:08Z</time>
      </trkpt>
      <trkpt lat="43.53273" lon="5.88733">
        <ele>411</ele>
        <time>2018-04-15T09:57:14Z</time>
      </trkpt>
      <trkpt lat="43.53255" lon="5.88748">
        <ele>411</ele>
        <time>2018-04-15T09:57:21Z</time>
      </trkpt>
      <trkpt lat="43.53238" lon="5.88761">
        <ele>415</ele>
        <time>2018-04-15T09:57:27Z</time>
      </trkpt>
      <trkpt lat="43.53242" lon="5.88788">
        <ele>418</ele>
        <time>2018-04-15T09:57:34Z</time>
      </trkpt>
      <trkpt lat="43.53258" lon="5.88802">
        <ele>413</ele>
        <time>2018-04-15T09:57:40Z</time>
      </trkpt>
      <trkpt lat="43.53277" lon="5.88818">
        <ele>412</ele>
        <time>2018-04-15T09:57:46Z</time>
      </trkpt>
      <trkpt lat="43.53294" lon="5.88834">
        <ele>415</ele>
        <time>2018-04-15T09:57:51Z</time>
      </trkpt>
      <trkpt lat="43.53309" lon="5.88849">
        <ele>413</ele>
        <time>2018-04-15T09:57:56Z</time>
      </trkpt>
      <trkpt lat="43.53322" lon="5.88872">
        <ele>413</ele>
        <time>2018-04-15T09:58:01Z</time>
      </trkpt>
      <trkpt lat="43.53334" lon="5.88893">
        <ele>407</ele>
        <time>2018-04-15T09:58:06Z</time>
      </trkpt>
      <trkpt lat="43.53345" lon="5.88915">
        <ele>408</ele>
        <time>2018-04-15T09:58:16Z</time>
      </trkpt>
      <trkpt lat="43.53335" lon="5.88939">
        <ele>409</ele>
        <time>2018-04-15T09:58:25Z</time>
      </trkpt>
      <trkpt lat="43.53331" lon="5.88967">
        <ele>417</ele>
        <time>2018-04-15T09:58:32Z</time>
      </trkpt>
      <trkpt lat="43.53325" lon="5.88993">
        <ele>416</ele>
        <time>2018-04-15T09:58:39Z</time>
      </trkpt>
      <trkpt lat="43.53317" lon="5.89018">
        <ele>416</ele>
        <time>2018-04-15T09:58:48Z</time>
      </trkpt>
      <trkpt lat="43.5331" lon="5.89043">
        <ele>417</ele>
        <time>2018-04-15T09:58:58Z</time>
      </trkpt>
      <trkpt lat="43.53297" lon="5.89024">
        <ele>417</ele>
        <time>2018-04-15T09:59:29Z</time>
      </trkpt>
      <trkpt lat="43.53283" lon="5.89006">
        <ele>419</ele>
        <time>2018-04-15T09:59:42Z</time>
      </trkpt>
      <trkpt lat="43.53264" lon="5.89013">
        <ele>421</ele>
        <time>2018-04-15T09:59:51Z</time>
      </trkpt>
      <trkpt lat="43.53247" lon="5.89024">
        <ele>425</ele>
        <time>2018-04-15T10:00:00Z</time>
      </trkpt>
      <trkpt lat="43.53229" lon="5.89031">
        <ele>426</ele>
        <time>2018-04-15T10:00:12Z</time>
      </trkpt>
      <trkpt lat="43.53217" lon="5.89052">
        <ele>425</ele>
        <time>2018-04-15T10:00:21Z</time>
      </trkpt>
      <trkpt lat="43.53205" lon="5.89075">
        <ele>424</ele>
        <time>2018-04-15T10:00:28Z</time>
      </trkpt>
      <trkpt lat="43.53191" lon="5.89092">
        <ele>419</ele>
        <time>2018-04-15T10:00:34Z</time>
      </trkpt>
      <trkpt lat="43.53178" lon="5.89113">
        <ele>418</ele>
        <time>2018-04-15T10:00:39Z</time>
      </trkpt>
      <trkpt lat="43.5316" lon="5.89126">
        <ele>423</ele>
        <time>2018-04-15T10:00:44Z</time>
      </trkpt>
      <trkpt lat="43.53142" lon="5.89138">
        <ele>423</ele>
        <time>2018-04-15T10:00:50Z</time>
      </trkpt>
      <trkpt lat="43.53125" lon="5.8915">
        <ele>423</ele>
        <time>2018-04-15T10:00:56Z</time>
      </trkpt>
      <trkpt lat="43.53114" lon="5.89171">
        <ele>416</ele>
        <time>2018-04-15T10:01:02Z</time>
      </trkpt>
      <trkpt lat="43.53096" lon="5.89185">
        <ele>417</ele>
        <time>2018-04-15T10:01:08Z</time>
      </trkpt>
      <trkpt lat="43.53077" lon="5.89195">
        <ele>420</ele>
        <time>2018-04-15T10:01:13Z</time>
      </trkpt>
      <trkpt lat="43.53058" lon="5.89204">
        <ele>420</ele>
        <time>2018-04-15T10:01:19Z</time>
      </trkpt>
      <trkpt lat="43.53039" lon="5.89213">
        <ele>420</ele>
        <time>2018-04-15T10:01:24Z</time>
      </trkpt>
      <trkpt lat="43.5302" lon="5.89228">
        <ele>419</ele>
        <time>2018-04-15T10:01:28Z</time>
      </trkpt>
      <trkpt lat="43.53001" lon="5.89245">
        <ele>416</ele>
        <time>2018-04-15T10:01:32Z</time>
      </trkpt>
      <trkpt lat="43.52987" lon="5.89269">
        <ele>415</ele>
        <time>2018-04-15T10:01:36Z</time>
      </trkpt>
      <trkpt lat="43.52973" lon="5.8929">
        <ele>414</ele>
        <time>2018-04-15T10:01:41Z</time>
      </trkpt>
      <trkpt lat="43.52954" lon="5.89303">
        <ele>414</ele>
        <time>2018-04-15T10:01:46Z</time>
      </trkpt>
      <trkpt lat="43.52934" lon="5.89314">
        <ele>414</ele>
        <time>2018-04-15T10:01:51Z</time>
      </trkpt>
      <trkpt lat="43.52918" lon="5.89333">
        <ele>412</ele>
        <time>2018-04-15T10:01:56Z</time>
      </trkpt>
      <trkpt lat="43.52901" lon="5.89346">
        <ele>409</ele>
        <time>2018-04-15T10:02:00Z</time>
      </trkpt>
      <trkpt lat="43.52882" lon="5.8936">
        <ele>407</ele>
        <time>2018-04-15T10:02:05Z</time>
      </trkpt>
      <trkpt lat="43.52861" lon="5.89369">
        <ele>407</ele>
        <time>2018-04-15T10:02:10Z</time>
      </trkpt>
      <trkpt lat="43.52842" lon="5.89377">
        <ele>406</ele>
        <time>2018-04-15T10:02:14Z</time>
      </trkpt>
      <trkpt lat="43.52824" lon="5.89389">
        <ele>409</ele>
        <time>2018-04-15T10:02:18Z</time>
      </trkpt>
      <trkpt lat="43.52814" lon="5.89411">
        <ele>406</ele>
        <time>2018-04-15T10:02:24Z</time>
      </trkpt>
      <trkpt lat="43.52823" lon="5.89435">
        <ele>396</ele>
        <time>2018-04-15T10:02:33Z</time>
      </trkpt>
      <trkpt lat="43.52825" lon="5.8946">
        <ele>393</ele>
        <time>2018-04-15T10:02:41Z</time>
      </trkpt>
      <trkpt lat="43.52837" lon="5.89484">
        <ele>387</ele>
        <time>2018-04-15T10:02:50Z</time>
      </trkpt>
      <trkpt lat="43.52841" lon="5.8951">
        <ele>381</ele>
        <time>2018-04-15T10:02:57Z</time>
      </trkpt>
      <trkpt lat="43.52835" lon="5.89536">
        <ele>378</ele>
        <time>2018-04-15T10:03:21Z</time>
      </trkpt>
      <trkpt lat="43.52818" lon="5.89549">
        <ele>380</ele>
        <time>2018-04-15T10:04:32Z</time>
      </trkpt>
      <trkpt lat="43.52799" lon="5.89559">
        <ele>380</ele>
        <time>2018-04-15T10:04:41Z</time>
      </trkpt>
      <trkpt lat="43.52782" lon="5.89566">
        <ele>380</ele>
        <time>2018-04-15T10:04:47Z</time>
      </trkpt>
      <trkpt lat="43.52763" lon="5.89569">
        <ele>380</ele>
        <time>2018-04-15T10:04:53Z</time>
      </trkpt>
      <trkpt lat="43.52742" lon="5.89569">
        <ele>382</ele>
        <time>2018-04-15T10:04:59Z</time>
      </trkpt>
      <trkpt lat="43.52722" lon="5.8957">
        <ele>383</ele>
        <time>2018-04-15T10:05:05Z</time>
      </trkpt>
      <trkpt lat="43.52701" lon="5.8957">
        <ele>384</ele>
        <time>2018-04-15T10:05:11Z</time>
      </trkpt>
      <trkpt lat="43.52681" lon="5.89571">
        <ele>384</ele>
        <time>2018-04-15T10:05:17Z</time>
      </trkpt>
      <trkpt lat="43.52661" lon="5.89571">
        <ele>384</ele>
        <time>2018-04-15T10:05:23Z</time>
      </trkpt>
      <trkpt lat="43.52637" lon="5.89568">
        <ele>387</ele>
        <time>2018-04-15T10:05:29Z</time>
      </trkpt>
      <trkpt lat="43.52617" lon="5.89567">
        <ele>387</ele>
        <time>2018-04-15T10:05:34Z</time>
      </trkpt>
      <trkpt lat="43.52595" lon="5.89567">
        <ele>387</ele>
        <time>2018-04-15T10:05:40Z</time>
      </trkpt>
      <trkpt lat="43.52575" lon="5.89567">
        <ele>388</ele>
        <time>2018-04-15T10:05:46Z</time>
      </trkpt>
      <trkpt lat="43.52555" lon="5.89568">
        <ele>389</ele>
        <time>2018-04-15T10:05:52Z</time>
      </trkpt>
      <trkpt lat="43.52535" lon="5.89568">
        <ele>389</ele>
        <time>2018-04-15T10:05:58Z</time>
      </trkpt>
      <trkpt lat="43.52514" lon="5.89567">
        <ele>388</ele>
        <time>2018-04-15T10:06:03Z</time>
      </trkpt>
      <trkpt lat="43.52495" lon="5.89567">
        <ele>388</ele>
        <time>2018-04-15T10:06:08Z</time>
      </trkpt>
      <trkpt lat="43.52475" lon="5.89566">
        <ele>390</ele>
        <time>2018-04-15T10:06:13Z</time>
      </trkpt>
      <trkpt lat="43.52455" lon="5.89566">
        <ele>390</ele>
        <time>2018-04-15T10:06:18Z</time>
      </trkpt>
      <trkpt lat="43.52436" lon="5.89565">
        <ele>390</ele>
        <time>2018-04-15T10:06:23Z</time>
      </trkpt>
      <trkpt lat="43.52416" lon="5.89564">
        <ele>389</ele>
        <time>2018-04-15T10:06:28Z</time>
      </trkpt>
      <trkpt lat="43.52395" lon="5.89558">
        <ele>390</ele>
        <time>2018-04-15T10:06:32Z</time>
      </trkpt>
      <trkpt lat="43.52376" lon="5.89556">
        <ele>390</ele>
        <time>2018-04-15T10:06:36Z</time>
      </trkpt>
      <trkpt lat="43.52358" lon="5.89556">
        <ele>389</ele>
        <time>2018-04-15T10:06:40Z</time>
      </trkpt>
      <trkpt lat="43.5234" lon="5.89558">
        <ele>388</ele>
        <time>2018-04-15T10:06:44Z</time>
      </trkpt>
      <trkpt lat="43.52318" lon="5.89561">
        <ele>388</ele>
        <time>2018-04-15T10:06:49Z</time>
      </trkpt>
      <trkpt lat="43.523" lon="5.8956">
        <ele>389</ele>
        <time>2018-04-15T10:06:53Z</time>
      </trkpt>
      <trkpt lat="43.5228" lon="5.89559">
        <ele>390</ele>
        <time>2018-04-15T10:06:57Z</time>
      </trkpt>
      <trkpt lat="43.52258" lon="5.89561">
        <ele>389</ele>
        <time>2018-04-15T10:07:02Z</time>
      </trkpt>
      <trkpt lat="43.5224" lon="5.89568">
        <ele>391</ele>
        <time>2018-04-15T10:07:08Z</time>
      </trkpt>
      <trkpt lat="43.52221" lon="5.89577">
        <ele>393</ele>
        <time>2018-04-15T10:07:14Z</time>
      </trkpt>
      <trkpt lat="43.52203" lon="5.89585">
        <ele>386</ele>
        <time>2018-04-15T10:07:20Z</time>
      </trkpt>
      <trkpt lat="43.52184" lon="5.89592">
        <ele>388</ele>
        <time>2018-04-15T10:07:25Z</time>
      </trkpt>
      <trkpt lat="43.52165" lon="5.89598">
        <ele>391</ele>
        <time>2018-04-15T10:07:30Z</time>
      </trkpt>
      <trkpt lat="43.52145" lon="5.89606">
        <ele>390</ele>
        <time>2018-04-15T10:07:35Z</time>
      </trkpt>
      <trkpt lat="43.52125" lon="5.89614">
        <ele>390</ele>
        <time>2018-04-15T10:07:40Z</time>
      </trkpt>
      <trkpt lat="43.52106" lon="5.89621">
        <ele>390</ele>
        <time>2018-04-15T10:07:45Z</time>
      </trkpt>
      <trkpt lat="43.52086" lon="5.8963">
        <ele>389</ele>
        <time>2018-04-15T10:07:50Z</time>
      </trkpt>
      <trkpt lat="43.52068" lon="5.89638">
        <ele>391</ele>
        <time>2018-04-15T10:07:54Z</time>
      </trkpt>
      <trkpt lat="43.5205" lon="5.89644">
        <ele>391</ele>
        <time>2018-04-15T10:07:58Z</time>
      </trkpt>
      <trkpt lat="43.52032" lon="5.89649">
        <ele>391</ele>
        <time>2018-04-15T10:08:02Z</time>
      </trkpt>
      <trkpt lat="43.52012" lon="5.89655">
        <ele>390</ele>
        <time>2018-04-15T10:08:06Z</time>
      </trkpt>
      <trkpt lat="43.51991" lon="5.89664">
        <ele>390</ele>
        <time>2018-04-15T10:08:11Z</time>
      </trkpt>
      <trkpt lat="43.51974" lon="5.8967">
        <ele>388</ele>
        <time>2018-04-15T10:08:15Z</time>
      </trkpt>
      <trkpt lat="43.51952" lon="5.89678">
        <ele>388</ele>
        <time>2018-04-15T10:08:20Z</time>
      </trkpt>
      <trkpt lat="43.51933" lon="5.89686">
        <ele>388</ele>
        <time>2018-04-15T10:08:25Z</time>
      </trkpt>
      <trkpt lat="43.51914" lon="5.89692">
        <ele>389</ele>
        <time>2018-04-15T10:08:30Z</time>
      </trkpt>
      <trkpt lat="43.51896" lon="5.89696">
        <ele>389</ele>
        <time>2018-04-15T10:08:35Z</time>
      </trkpt>
      <trkpt lat="43.51876" lon="5.89698">
        <ele>389</ele>
        <time>2018-04-15T10:08:40Z</time>
      </trkpt>
      <trkpt lat="43.51856" lon="5.89701">
        <ele>389</ele>
        <time>2018-04-15T10:08:45Z</time>
      </trkpt>
      <trkpt lat="43.51836" lon="5.89704">
        <ele>389</ele>
        <time>2018-04-15T10:08:50Z</time>
      </trkpt>
      <trkpt lat="43.51817" lon="5.89705">
        <ele>390</ele>
        <time>2018-04-15T10:08:55Z</time>
      </trkpt>
      <trkpt lat="43.51796" lon="5.89706">
        <ele>390</ele>
        <time>2018-04-15T10:09:01Z</time>
      </trkpt>
      <trkpt lat="43.51774" lon="5.89704">
        <ele>390</ele>
        <time>2018-04-15T10:09:07Z</time>
      </trkpt>
      <trkpt lat="43.51755" lon="5.89699">
        <ele>390</ele>
        <time>2018-04-15T10:09:13Z</time>
      </trkpt>
      <trkpt lat="43.51738" lon="5.89691">
        <ele>392</ele>
        <time>2018-04-15T10:09:19Z</time>
      </trkpt>
      <trkpt lat="43.51718" lon="5.89682">
        <ele>392</ele>
        <time>2018-04-15T10:09:25Z</time>
      </trkpt>
      <trkpt lat="43.517" lon="5.89678">
        <ele>392</ele>
        <time>2018-04-15T10:09:31Z</time>
      </trkpt>
      <trkpt lat="43.51681" lon="5.89676">
        <ele>392</ele>
        <time>2018-04-15T10:09:37Z</time>
      </trkpt>
      <trkpt lat="43.51663" lon="5.89671">
        <ele>393</ele>
        <time>2018-04-15T10:09:43Z</time>
      </trkpt>
      <trkpt lat="43.51644" lon="5.89666">
        <ele>394</ele>
        <time>2018-04-15T10:09:50Z</time>
      </trkpt>
      <trkpt lat="43.51626" lon="5.89661">
        <ele>394</ele>
        <time>2018-04-15T10:09:57Z</time>
      </trkpt>
      <trkpt lat="43.51607" lon="5.89657">
        <ele>394</ele>
        <time>2018-04-15T10:10:05Z</time>
      </trkpt>
      <trkpt lat="43.5159" lon="5.89646">
        <ele>394</ele>
        <time>2018-04-15T10:10:12Z</time>
      </trkpt>
      <trkpt lat="43.51591" lon="5.8962">
        <ele>395</ele>
        <time>2018-04-15T10:10:23Z</time>
      </trkpt>
      <trkpt lat="43.51585" lon="5.89596">
        <ele>395</ele>
        <time>2018-04-15T10:10:34Z</time>
      </trkpt>
      <trkpt lat="43.51575" lon="5.89573">
        <ele>397</ele>
        <time>2018-04-15T10:10:44Z</time>
      </trkpt>
      <trkpt lat="43.5156" lon="5.89558">
        <ele>398</ele>
        <time>2018-04-15T10:10:53Z</time>
      </trkpt>
      <trkpt lat="43.51544" lon="5.89541">
        <ele>399</ele>
        <time>2018-04-15T10:11:01Z</time>
      </trkpt>
      <trkpt lat="43.51525" lon="5.89537">
        <ele>399</ele>
        <time>2018-04-15T10:11:09Z</time>
      </trkpt>
      <trkpt lat="43.51507" lon="5.89529">
        <ele>400</ele>
        <time>2018-04-15T10:11:16Z</time>
      </trkpt>
      <trkpt lat="43.51488" lon="5.89519">
        <ele>401</ele>
        <time>2018-04-15T10:11:25Z</time>
      </trkpt>
      <trkpt lat="43.5147" lon="5.89512">
        <ele>402</ele>
        <time>2018-04-15T10:11:33Z</time>
      </trkpt>
      <trkpt lat="43.51452" lon="5.89505">
        <ele>402</ele>
        <time>2018-04-15T10:11:41Z</time>
      </trkpt>
      <trkpt lat="43.51434" lon="5.89494">
        <ele>406</ele>
        <time>2018-04-15T10:11:52Z</time>
      </trkpt>
      <trkpt lat="43.51417" lon="5.89483">
        <ele>407</ele>
        <time>2018-04-15T10:12:02Z</time>
      </trkpt>
      <trkpt lat="43.51403" lon="5.89467">
        <ele>409</ele>
        <time>2018-04-15T10:12:13Z</time>
      </trkpt>
      <trkpt lat="43.51387" lon="5.89454">
        <ele>410</ele>
        <time>2018-04-15T10:12:24Z</time>
      </trkpt>
      <trkpt lat="43.51369" lon="5.89445">
        <ele>410</ele>
        <time>2018-04-15T10:12:34Z</time>
      </trkpt>
      <trkpt lat="43.5135" lon="5.89441">
        <ele>411</ele>
        <time>2018-04-15T10:12:44Z</time>
      </trkpt>
      <trkpt lat="43.51332" lon="5.8944">
        <ele>412</ele>
        <time>2018-04-15T10:12:52Z</time>
      </trkpt>
      <trkpt lat="43.51313" lon="5.8944">
        <ele>412</ele>
        <time>2018-04-15T10:13:00Z</time>
      </trkpt>
      <trkpt lat="43.51294" lon="5.89434">
        <ele>412</ele>
        <time>2018-04-15T10:13:07Z</time>
      </trkpt>
      <trkpt lat="43.51276" lon="5.89419">
        <ele>412</ele>
        <time>2018-04-15T10:13:14Z</time>
      </trkpt>
      <trkpt lat="43.51264" lon="5.89397">
        <ele>411</ele>
        <time>2018-04-15T10:13:20Z</time>
      </trkpt>
      <trkpt lat="43.51252" lon="5.89378">
        <ele>410</ele>
        <time>2018-04-15T10:13:25Z</time>
      </trkpt>
      <trkpt lat="43.51235" lon="5.89365">
        <ele>409</ele>
        <time>2018-04-15T10:13:30Z</time>
      </trkpt>
      <trkpt lat="43.51218" lon="5.89346">
        <ele>408</ele>
        <time>2018-04-15T10:13:35Z</time>
      </trkpt>
      <trkpt lat="43.51202" lon="5.89328">
        <ele>406</ele>
        <time>2018-04-15T10:13:39Z</time>
      </trkpt>
      <trkpt lat="43.51182" lon="5.89318">
        <ele>406</ele>
        <time>2018-04-15T10:13:43Z</time>
      </trkpt>
      <trkpt lat="43.5116" lon="5.89312">
        <ele>405</ele>
        <time>2018-04-15T10:13:47Z</time>
      </trkpt>
      <trkpt lat="43.51141" lon="5.89308">
        <ele>405</ele>
        <time>2018-04-15T10:13:51Z</time>
      </trkpt>
      <trkpt lat="43.5112" lon="5.893">
        <ele>404</ele>
        <time>2018-04-15T10:13:56Z</time>
      </trkpt>
      <trkpt lat="43.51101" lon="5.89294">
        <ele>404</ele>
        <time>2018-04-15T10:14:01Z</time>
      </trkpt>
      <trkpt lat="43.5108" lon="5.89278">
        <ele>403</ele>
        <time>2018-04-15T10:15:24Z</time>
      </trkpt>
      <trkpt lat="43.51086" lon="5.89254">
        <ele>402</ele>
        <time>2018-04-15T10:15:34Z</time>
      </trkpt>
      <trkpt lat="43.51093" lon="5.8923">
        <ele>401</ele>
        <time>2018-04-15T10:15:40Z</time>
      </trkpt>
      <trkpt lat="43.51105" lon="5.89211">
        <ele>400</ele>
        <time>2018-04-15T10:15:46Z</time>
      </trkpt>
      <trkpt lat="43.51116" lon="5.8919">
        <ele>399</ele>
        <time>2018-04-15T10:15:52Z</time>
      </trkpt>
      <trkpt lat="43.51134" lon="5.8917">
        <ele>398</ele>
        <time>2018-04-15T10:15:57Z</time>
      </trkpt>
      <trkpt lat="43.5115" lon="5.89157">
        <ele>396</ele>
        <time>2018-04-15T10:16:01Z</time>
      </trkpt>
      <trkpt lat="43.51168" lon="5.89145">
        <ele>394</ele>
        <time>2018-04-15T10:16:05Z</time>
      </trkpt>
      <trkpt lat="43.51183" lon="5.89127">
        <ele>394</ele>
        <time>2018-04-15T10:16:09Z</time>
      </trkpt>
      <trkpt lat="43.51199" lon="5.89112">
        <ele>393</ele>
        <time>2018-04-15T10:16:13Z</time>
      </trkpt>
      <trkpt lat="43.51215" lon="5.89094">
        <ele>393</ele>
        <time>2018-04-15T10:16:17Z</time>
      </trkpt>
      <trkpt lat="43.51231" lon="5.89077">
        <ele>390</ele>
        <time>2018-04-15T10:16:21Z</time>
      </trkpt>
      <trkpt lat="43.51245" lon="5.89059">
        <ele>390</ele>
        <time>2018-04-15T10:16:25Z</time>
      </trkpt>
      <trkpt lat="43.5126" lon="5.89045">
        <ele>388</ele>
        <time>2018-04-15T10:16:28Z</time>
      </trkpt>
      <trkpt lat="43.51276" lon="5.89024">
        <ele>387</ele>
        <time>2018-04-15T10:16:32Z</time>
      </trkpt>
      <trkpt lat="43.51289" lon="5.89002">
        <ele>387</ele>
        <time>2018-04-15T10:16:36Z</time>
      </trkpt>
      <trkpt lat="43.51301" lon="5.88979">
        <ele>382</ele>
        <time>2018-04-15T10:16:40Z</time>
      </trkpt>
      <trkpt lat="43.5131" lon="5.88952">
        <ele>380</ele>
        <time>2018-04-15T10:16:44Z</time>
      </trkpt>
      <trkpt lat="43.51315" lon="5.88927">
        <ele>378</ele>
        <time>2018-04-15T10:16:48Z</time>
      </trkpt>
      <trkpt lat="43.51317" lon="5.88899">
        <ele>373</ele>
        <time>2018-04-15T10:16:52Z</time>
      </trkpt>
      <trkpt lat="43.51319" lon="5.8887">
        <ele>371</ele>
        <time>2018-04-15T10:16:56Z</time>
      </trkpt>
      <trkpt lat="43.51315" lon="5.88843">
        <ele>369</ele>
        <time>2018-04-15T10:17:00Z</time>
      </trkpt>
      <trkpt lat="43.513" lon="5.88828">
        <ele>365</ele>
        <time>2018-04-15T10:17:05Z</time>
      </trkpt>
      <trkpt lat="43.51288" lon="5.88807">
        <ele>365</ele>
        <time>2018-04-15T10:17:13Z</time>
      </trkpt>
      <trkpt lat="43.51286" lon="5.8878">
        <ele>364</ele>
        <time>2018-04-15T10:17:20Z</time>
      </trkpt>
      <trkpt lat="43.51269" lon="5.88761">
        <ele>362</ele>
        <time>2018-04-15T10:17:26Z</time>
      </trkpt>
      <trkpt lat="43.51249" lon="5.88742">
        <ele>359</ele>
        <time>2018-04-15T10:17:30Z</time>
      </trkpt>
      <trkpt lat="43.51234" lon="5.88726">
        <ele>360</ele>
        <time>2018-04-15T10:17:33Z</time>
      </trkpt>
      <trkpt lat="43.51213" lon="5.88721">
        <ele>360</ele>
        <time>2018-04-15T10:17:37Z</time>
      </trkpt>
      <trkpt lat="43.51191" lon="5.88717">
        <ele>360</ele>
        <time>2018-04-15T10:17:41Z</time>
      </trkpt>
      <trkpt lat="43.51169" lon="5.88717">
        <ele>360</ele>
        <time>2018-04-15T10:17:45Z</time>
      </trkpt>
      <trkpt lat="43.51152" lon="5.88707">
        <ele>361</ele>
        <time>2018-04-15T10:17:49Z</time>
      </trkpt>
      <trkpt lat="43.51137" lon="5.8869">
        <ele>361</ele>
        <time>2018-04-15T10:17:53Z</time>
      </trkpt>
      <trkpt lat="43.51116" lon="5.88686">
        <ele>361</ele>
        <time>2018-04-15T10:17:57Z</time>
      </trkpt>
      <trkpt lat="43.51104" lon="5.88661">
        <ele>359</ele>
        <time>2018-04-15T10:18:02Z</time>
      </trkpt>
      <trkpt lat="43.51102" lon="5.88635">
        <ele>358</ele>
        <time>2018-04-15T10:18:05Z</time>
      </trkpt>
      <trkpt lat="43.511" lon="5.88606">
        <ele>357</ele>
        <time>2018-04-15T10:18:08Z</time>
      </trkpt>
      <trkpt lat="43.51095" lon="5.88582">
        <ele>353</ele>
        <time>2018-04-15T10:18:11Z</time>
      </trkpt>
      <trkpt lat="43.51081" lon="5.88558">
        <ele>351</ele>
        <time>2018-04-15T10:18:15Z</time>
      </trkpt>
      <trkpt lat="43.51061" lon="5.88538">
        <ele>350</ele>
        <time>2018-04-15T10:18:19Z</time>
      </trkpt>
      <trkpt lat="43.51044" lon="5.88525">
        <ele>350</ele>
        <time>2018-04-15T10:18:22Z</time>
      </trkpt>
      <trkpt lat="43.51028" lon="5.88512">
        <ele>348</ele>
        <time>2018-04-15T10:18:25Z</time>
      </trkpt>
      <trkpt lat="43.5101" lon="5.88504">
        <ele>344</ele>
        <time>2018-04-15T10:18:28Z</time>
      </trkpt>
      <trkpt lat="43.50986" lon="5.88502">
        <ele>345</ele>
        <time>2018-04-15T10:18:32Z</time>
      </trkpt>
      <trkpt lat="43.50967" lon="5.88501">
        <ele>348</ele>
        <time>2018-04-15T10:18:35Z</time>
      </trkpt>
      <trkpt lat="43.50944" lon="5.88501">
        <ele>348</ele>
        <time>2018-04-15T10:18:39Z</time>
      </trkpt>
      <trkpt lat="43.50924" lon="5.8849">
        <ele>342</ele>
        <time>2018-04-15T10:18:43Z</time>
      </trkpt>
      <trkpt lat="43.50907" lon="5.88471">
        <ele>339</ele>
        <time>2018-04-15T10:18:47Z</time>
      </trkpt>
      <trkpt lat="43.50892" lon="5.88457">
        <ele>338</ele>
        <time>2018-04-15T10:18:50Z</time>
      </trkpt>
      <trkpt lat="43.50871" lon="5.88442">
        <ele>337</ele>
        <time>2018-04-15T10:18:54Z</time>
      </trkpt>
      <trkpt lat="43.5085" lon="5.88425">
        <ele>334</ele>
        <time>2018-04-15T10:18:58Z</time>
      </trkpt>
      <trkpt lat="43.50833" lon="5.88413">
        <ele>329</ele>
        <time>2018-04-15T10:19:01Z</time>
      </trkpt>
      <trkpt lat="43.5082" lon="5.88393">
        <ele>329</ele>
        <time>2018-04-15T10:19:04Z</time>
      </trkpt>
      <trkpt lat="43.5082" lon="5.88365">
        <ele>329</ele>
        <time>2018-04-15T10:19:07Z</time>
      </trkpt>
      <trkpt lat="43.50822" lon="5.88339">
        <ele>330</ele>
        <time>2018-04-15T10:19:10Z</time>
      </trkpt>
      <trkpt lat="43.50816" lon="5.88314">
        <ele>334</ele>
        <time>2018-04-15T10:19:13Z</time>
      </trkpt>
      <trkpt lat="43.50796" lon="5.88297">
        <ele>335</ele>
        <time>2018-04-15T10:19:17Z</time>
      </trkpt>
      <trkpt lat="43.50773" lon="5.88297">
        <ele>334</ele>
        <time>2018-04-15T10:19:21Z</time>
      </trkpt>
      <trkpt lat="43.50755" lon="5.88304">
        <ele>333</ele>
        <time>2018-04-15T10:19:24Z</time>
      </trkpt>
      <trkpt lat="43.50735" lon="5.88324">
        <ele>332</ele>
        <time>2018-04-15T10:19:28Z</time>
      </trkpt>
      <trkpt lat="43.50725" lon="5.88345">
        <ele>328</ele>
        <time>2018-04-15T10:19:31Z</time>
      </trkpt>
      <trkpt lat="43.50713" lon="5.88365">
        <ele>329</ele>
        <time>2018-04-15T10:19:34Z</time>
      </trkpt>
      <trkpt lat="43.50701" lon="5.88384">
        <ele>328</ele>
        <time>2018-04-15T10:19:37Z</time>
      </trkpt>
      <trkpt lat="43.50688" lon="5.88402">
        <ele>326</ele>
        <time>2018-04-15T10:19:40Z</time>
      </trkpt>
      <trkpt lat="43.50673" lon="5.88426">
        <ele>324</ele>
        <time>2018-04-15T10:19:44Z</time>
      </trkpt>
      <trkpt lat="43.50652" lon="5.88438">
        <ele>323</ele>
        <time>2018-04-15T10:19:48Z</time>
      </trkpt>
      <trkpt lat="43.50632" lon="5.88448">
        <ele>324</ele>
        <time>2018-04-15T10:19:52Z</time>
      </trkpt>
      <trkpt lat="43.50613" lon="5.88452">
        <ele>324</ele>
        <time>2018-04-15T10:19:55Z</time>
      </trkpt>
      <trkpt lat="43.50595" lon="5.88459">
        <ele>324</ele>
        <time>2018-04-15T10:19:58Z</time>
      </trkpt>
      <trkpt lat="43.50578" lon="5.88473">
        <ele>326</ele>
        <time>2018-04-15T10:20:01Z</time>
      </trkpt>
      <trkpt lat="43.50563" lon="5.88489">
        <ele>325</ele>
        <time>2018-04-15T10:20:04Z</time>
      </trkpt>
      <trkpt lat="43.50548" lon="5.88511">
        <ele>322</ele>
        <time>2018-04-15T10:20:07Z</time>
      </trkpt>
      <trkpt lat="43.50535" lon="5.88531">
        <ele>322</ele>
        <time>2018-04-15T10:20:10Z</time>
      </trkpt>
      <trkpt lat="43.50521" lon="5.88548">
        <ele>322</ele>
        <time>2018-04-15T10:20:13Z</time>
      </trkpt>
      <trkpt lat="43.50505" lon="5.88562">
        <ele>320</ele>
        <time>2018-04-15T10:20:16Z</time>
      </trkpt>
      <trkpt lat="43.50489" lon="5.88575">
        <ele>318</ele>
        <time>2018-04-15T10:20:19Z</time>
      </trkpt>
      <trkpt lat="43.5047" lon="5.88586">
        <ele>317</ele>
        <time>2018-04-15T10:20:22Z</time>
      </trkpt>
      <trkpt lat="43.50449" lon="5.88599">
        <ele>317</ele>
        <time>2018-04-15T10:20:26Z</time>
      </trkpt>
      <trkpt lat="43.5043" lon="5.88612">
        <ele>317</ele>
        <time>2018-04-15T10:20:30Z</time>
      </trkpt>
      <trkpt lat="43.5041" lon="5.88626">
        <ele>313</ele>
        <time>2018-04-15T10:20:34Z</time>
      </trkpt>
      <trkpt lat="43.5039" lon="5.88639">
        <ele>312</ele>
        <time>2018-04-15T10:20:38Z</time>
      </trkpt>
      <trkpt lat="43.50368" lon="5.88657">
        <ele>311</ele>
        <time>2018-04-15T10:28:06Z</time>
      </trkpt>
      <trkpt lat="43.5036" lon="5.88682">
        <ele>309</ele>
        <time>2018-04-15T10:28:12Z</time>
      </trkpt>
    </trkseg>
  </trk>
</gpx>